
Distance (Route):
Temperature : 17.7°C
Humidity : 50.5%
Pressure : 901.1hPa| Receiver | Frames | First received | Last received |
|---|---|---|---|
| SQ9EZE-13 | 308 | 2026-09-04 11:24:40 | 2026-09-04 12:59:52 |
| HA6NAB-11 | 198 | 2026-09-04 11:34:14 | 2026-09-04 12:55:38 |
| GYPAP8-17 | 97 | 2026-09-04 11:20:26 | 2026-09-04 13:15:00 |
| SP9KGR-15 | 87 | 2026-09-04 12:05:36 | 2026-09-04 13:06:09 |
| PG1ADW-2 | 65 | 2026-09-04 12:15:17 | 2026-09-04 12:51:01 |
| SQ9EZE-14 | 60 | 2026-09-04 11:26:14 | 2026-09-04 13:00:51 |
| OM5KV | 45 | 2026-09-04 11:28:19 | 2026-09-04 11:32:18 |
| OE5DRO-10 | 40 | 2026-09-04 12:21:47 | 2026-09-04 12:51:08 |
| LZ4TU-5 | 22 | 2026-09-04 12:21:10 | 2026-09-04 12:48:46 |
| OE5DXL-15 | 19 | 2026-09-04 12:28:34 | 2026-09-04 12:47:43 |
| SP9SOS | 18 | 2026-09-04 12:25:16 | 2026-09-04 13:00:45 |
| OE3JTB-15 | 12 | 2026-09-04 11:28:23 | 2026-09-04 13:03:29 |
| S52SK | 8 | 2026-09-04 12:13:28 | 2026-09-04 12:18:36 |
| SQ9PSP-11 | 2 | 2026-09-04 12:33:03 | 2026-09-04 12:33:23 |
| Receiver | Date | Latitude | Longitude | Direction | Speed | Altitude | Climb | Temperature | Humidity | Pressure | Voltage | Killtimer | Uptime | BKT | XDATA |
|---|---|---|---|---|---|---|---|---|---|---|---|---|---|---|---|
| GYPAP8-17 | 2026-09-04 13:15:00 | 48.46292 | 21.27762 | 79° | 18km/h | 1057m | -10.7m/s | 17.7°C | 50.5% | 901.1hPa | 2.6V | 00:00:00 | 00:00:00 | 00:00:00 | |
| GYPAP8-17 | 2026-09-04 13:14:12 | 48.46295 | 21.27402 | 102° | 22km/h | 1540m | -9.8m/s | 13.2°C | 62.4% | 851.4hPa | 2.6V | 00:00:00 | 00:00:00 | 00:00:00 | |
| GYPAP8-17 | 2026-09-04 13:13:23 | 48.46374 | 21.27010 | 111° | 26km/h | 2049m | -9.8m/s | 8.8°C | 68.1% | 801.4hPa | 2.6V | 00:00:00 | 00:00:00 | 00:00:00 | |
| GYPAP8-17 | 2026-09-04 13:12:35 | 48.46558 | 21.26392 | 112° | 46km/h | 2524m | -8.9m/s | 9.9°C | 8.2% | 757.0hPa | 2.6V | 00:00:00 | 00:00:00 | 00:00:00 | |
| GYPAP8-17 | 2026-09-04 13:11:47 | 48.46810 | 21.25600 | 125° | 47km/h | 3020m | -11.4m/s | 6.9°C | 56.3% | 712.6hPa | 2.6V | 00:00:00 | 00:00:00 | 00:00:00 | |
| GYPAP8-17 | 2026-09-04 13:10:59 | 48.47220 | 21.24764 | 132° | 62km/h | 3595m | -11.4m/s | 2.4°C | 72.2% | 664.9hPa | 2.6V | 00:00:00 | 00:00:00 | 00:00:00 | |
| GYPAP8-17 | 2026-09-04 13:10:10 | 48.47779 | 21.23857 | 135° | 71km/h | 4230m | -13.2m/s | -2.0°C | 88.9% | 614.0hPa | 2.6V | 00:00:00 | 00:00:00 | 00:00:00 | |
| GYPAP8-17 | 2026-09-04 13:09:24 | 48.48455 | 21.22931 | 141° | 77km/h | 4848m | -12.3m/s | -6.4°C | 52.9% | 567.9hPa | 2.6V | 00:00:00 | 00:00:00 | 00:00:00 | |
| GYPAP8-17 | 2026-09-04 13:08:25 | 48.49410 | 21.21791 | 139° | 82km/h | 5606m | -12.6m/s | -11.4°C | 75.9% | 514.9hPa | 2.6V | 00:00:00 | 00:00:00 | 00:00:00 | |
| GYPAP8-17 | 2026-09-04 13:07:28 | 48.50171 | 21.20700 | 134° | 73km/h | 6294m | -11.9m/s | -12.7°C | 95.3% | 471.1hPa | 2.6V | 00:00:00 | 00:00:00 | 00:00:00 | |
| GYPAP8-17 | 2026-09-04 13:06:32 | 48.50991 | 21.19405 | 139° | 89km/h | 6939m | -11.3m/s | -17.0°C | 93.8% | 432.4hPa | 2.6V | 00:00:00 | 00:00:00 | 00:00:00 | |
| SP9KGR-15 | 2026-09-04 13:06:09 | 48.51387 | 21.18893 | 139° | 97km/h | 7190m | -11.6m/s | 0°C | 0% | 0hPa | 2.6V | 08:13:00 | 00:00:00 | 00:00:00 | |
| SP9KGR-15 | 2026-09-04 13:05:54 | 48.51650 | 21.18551 | 141° | 86km/h | 7368m | -12.9m/s | 0°C | 0% | 0hPa | 2.6V | 08:13:00 | 00:00:00 | 00:00:00 | |
| SP9KGR-15 | 2026-09-04 13:05:36 | 48.51947 | 21.18174 | 140° | 88km/h | 7587m | -12.1m/s | 0°C | 0% | 0hPa | 2.6V | 08:13:00 | 00:00:00 | 00:00:00 | |
| GYPAP8-17 | 2026-09-04 13:05:33 | 48.51998 | 21.18110 | 140° | 89km/h | 7623m | -12.3m/s | -21.4°C | 79.6% | 394.7hPa | 2.6V | 00:00:00 | 00:00:00 | 00:00:00 | |
| SP9KGR-15 | 2026-09-04 13:05:20 | 48.52223 | 21.17836 | 142° | 86km/h | 7783m | -12.7m/s | 0°C | 0% | 0hPa | 2.6V | 00:00:00 | 00:00:00 | 00:00:00 | |
| GYPAP8-17 | 2026-09-04 13:04:24 | 48.53219 | 21.16805 | 146° | 82km/h | 8486m | -12.2m/s | -28.1°C | 83.3% | 350.7hPa | 2.6V | 00:00:00 | 00:00:00 | 00:00:00 | |
| SP9KGR-15 | 2026-09-04 13:03:35 | 48.54018 | 21.15837 | 145° | 89km/h | 9098m | -12.3m/s | 0°C | 0% | 0hPa | 2.6V | 00:00:00 | 00:00:00 | 00:00:00 | |
| OE3JTB-15 | 2026-09-04 13:03:29 | 48.54129 | 21.15711 | 145° | 100km/h | 9173m | -12.3m/s | -33.0°C | 68.6% | 318.2hPa | 2.6V | 00:00:00 | 00:00:00 | 00:00:00 | |
| GYPAP8-17 | 2026-09-04 13:03:16 | 48.54362 | 21.15449 | 145° | 97km/h | 9331m | -12.8m/s | -34.4°C | 68.1% | 311.2hPa | 2.6V | 00:00:00 | 00:00:00 | 00:00:00 | |
| SP9KGR-15 | 2026-09-04 13:02:32 | 48.55254 | 21.14491 | 147° | 106km/h | 9924m | -14.0m/s | 0°C | 0% | 0hPa | 2.6V | 00:00:00 | 00:00:00 | 00:00:00 | |
| OE3JTB-15 | 2026-09-04 13:02:18 | 48.55585 | 21.14161 | 145° | 108km/h | 10125m | -14.1m/s | -41.2°C | 77.7% | 277.2hPa | 2.6V | 00:00:00 | 00:00:00 | 00:00:00 | |
| SP9KGR-15 | 2026-09-04 13:02:16 | 48.55608 | 21.14138 | 148° | 104km/h | 10139m | -12.8m/s | 0°C | 0% | 0hPa | 2.6V | 00:00:00 | 00:00:00 | 00:00:00 | |
| GYPAP8-17 | 2026-09-04 13:02:04 | 48.55880 | 21.13866 | 148° | 113km/h | 10306m | -14.8m/s | -42.8°C | 67.9% | 270.1hPa | 2.6V | 00:00:00 | 00:00:00 | 00:00:00 | |
| SP9KGR-15 | 2026-09-04 13:02:00 | 48.55975 | 21.13772 | 147° | 111km/h | 10364m | -14.2m/s | 0°C | 0% | 0hPa | 2.6V | 00:00:00 | 00:00:00 | 00:00:00 | |
| OE3JTB-15 | 2026-09-04 13:01:49 | 48.56278 | 21.13495 | 149° | 46km/h | 10536m | -14.5m/s | -44.5°C | 67.5% | 260.9hPa | 2.6V | 00:00:00 | 02:14:52 | 00:00:00 | |
| SQ9EZE-14 | 2026-09-04 13:00:51 | 48.57863 | 21.12068 | 147° | 131km/h | 11392m | -15.8m/s | -52.0°C | 50.4% | 229.2hPa | 2.6V | 00:00:00 | 00:00:00 | 00:00:00 | |
| GYPAP8-17 | 2026-09-04 13:00:49 | 48.57919 | 21.12014 | 147° | 131km/h | 11424m | -16.0m/s | -52.2°C | 50.3% | 228.1hPa | 2.6V | 00:00:00 | 00:00:00 | 00:00:00 | |
| SP9SOS | 2026-09-04 13:00:45 | 48.58055 | 21.11880 | 149° | 130km/h | 11503m | -16.2m/s | -52.8°C | 51.1% | 225.4hPa | 2.6V | 00:00:00 | 00:00:00 | 00:00:00 | |
| SP9KGR-15 | 2026-09-04 13:00:26 | 48.58544 | 21.11383 | 145° | 131km/h | 11791m | -16.3m/s | 0°C | 0% | 0hPa | 2.6V | 00:00:00 | 00:00:00 | 00:00:00 | |
| SQ9EZE-13 | 2026-09-04 12:59:52 | 48.59495 | 21.10442 | 150° | 137km/h | 12337m | -16.3m/s | -59.9°C | 41.4% | 197.7hPa | 2.6V | 08:19:00 | 00:00:00 | 00:00:00 | |
| SQ9EZE-13 | 2026-09-04 12:59:36 | 48.59974 | 21.09995 | 148° | 141km/h | 12597m | -16.4m/s | -61.7°C | 35.0% | 189.5hPa | 2.6V | 08:19:00 | 00:00:00 | 00:00:00 | |
| SQ9EZE-13 | 2026-09-04 12:59:20 | 48.60461 | 21.09506 | 147° | 148km/h | 12859m | -16.0m/s | -63.7°C | 27.3% | 181.7hPa | 2.6V | 08:19:00 | 00:00:00 | 00:00:00 | |
| GYPAP8-17 | 2026-09-04 12:59:15 | 48.60615 | 21.09352 | 149° | 144km/h | 12942m | -16.4m/s | -64.4°C | 25.7% | 179.2hPa | 2.6V | 00:00:00 | 00:00:00 | 00:00:00 | |
| SQ9EZE-13 | 2026-09-04 12:59:05 | 48.60929 | 21.09067 | 152° | 146km/h | 13106m | -17.0m/s | -64.9°C | 21.8% | 174.5hPa | 2.6V | 08:19:00 | 00:00:00 | 00:00:00 | |
| SQ9EZE-13 | 2026-09-04 12:58:49 | 48.61392 | 21.08667 | 146° | 119km/h | 13373m | -16.1m/s | -65.4°C | 16.7% | 166.9hPa | 2.6V | 08:19:00 | 00:00:00 | 00:00:00 | |
| SQ9EZE-14 | 2026-09-04 12:58:41 | 48.61584 | 21.08466 | 149° | 110km/h | 13507m | -17.3m/s | -64.3°C | 10.4% | 163.4hPa | 2.6V | 08:19:00 | 00:00:00 | 00:00:00 | |
| SQ9EZE-13 | 2026-09-04 12:58:35 | 48.61739 | 21.08323 | 148° | 97km/h | 13629m | -17.9m/s | -62.3°C | 6.4% | 160.2hPa | 2.6V | 08:20:00 | 00:00:00 | 00:00:00 | |
| SP9KGR-15 | 2026-09-04 12:58:33 | 48.61759 | 21.08302 | 146° | 93km/h | 13646m | -16.4m/s | -62.0°C | 6.0% | 159.8hPa | 2.6V | 08:20:00 | 00:00:00 | 00:00:00 | |
| SQ9EZE-14 | 2026-09-04 12:58:25 | 48.61899 | 21.08127 | 136° | 93km/h | 13783m | -18.5m/s | -60.9°C | 4.6% | 156.3hPa | 2.6V | 00:00:00 | 00:00:00 | 00:00:00 | |
| SQ9EZE-13 | 2026-09-04 12:58:19 | 48.62007 | 21.07976 | 140° | 100km/h | 13890m | -17.9m/s | -61.1°C | 4.3% | 153.6hPa | 2.6V | 08:20:00 | 00:00:00 | 00:00:00 | |
| SP9KGR-15 | 2026-09-04 12:58:18 | 48.62044 | 21.07925 | 139° | 100km/h | 13926m | -16.8m/s | -61.2°C | 4.2% | 152.7hPa | 2.6V | 08:20:00 | 00:00:00 | 00:00:00 | |
| SQ9EZE-13 | 2026-09-04 12:58:03 | 48.62331 | 21.07628 | 155° | 95km/h | 14161m | -17.7m/s | -59.0°C | 3.2% | 147.1hPa | 2.6V | 08:20:00 | 00:00:00 | 00:00:00 | |
| SP9KGR-15 | 2026-09-04 12:58:02 | 48.62352 | 21.07612 | 154° | 91km/h | 14179m | -17.8m/s | -58.7°C | 3.0% | 146.6hPa | 2.6V | 08:20:00 | 00:00:00 | 00:00:00 | |
| GYPAP8-17 | 2026-09-04 12:57:53 | 48.62511 | 21.07491 | 148° | 68km/h | 14337m | -18.0m/s | -58.7°C | 2.8% | 143.0hPa | 2.6V | 08:20:00 | 00:00:00 | 00:00:00 | |
| SP9KGR-15 | 2026-09-04 12:57:47 | 48.62586 | 21.07409 | 140° | 58km/h | 14443m | -17.7m/s | -58.5°C | 2.7% | 140.6hPa | 2.6V | 08:21:00 | 00:00:00 | 00:00:00 | |
| SQ9EZE-13 | 2026-09-04 12:57:32 | 48.62779 | 21.07172 | 142° | 60km/h | 14730m | -17.4m/s | -57.9°C | 2.3% | 134.3hPa | 2.6V | 08:21:00 | 00:00:00 | 00:00:00 | |
| SP9KGR-15 | 2026-09-04 12:57:17 | 48.62920 | 21.06980 | 130° | 44km/h | 14996m | -18.2m/s | -58.2°C | 2.2% | 128.8hPa | 2.6V | 08:21:00 | 00:00:00 | 00:00:00 | |
| SQ9EZE-13 | 2026-09-04 12:57:15 | 48.62926 | 21.06968 | 129° | 40km/h | 15014m | -17.7m/s | -58.3°C | 2.3% | 128.4hPa | 2.6V | 08:21:00 | 00:00:00 | 00:00:00 | |
| SP9KGR-15 | 2026-09-04 12:57:01 | 48.63041 | 21.06783 | 143° | 47km/h | 15266m | -18.8m/s | -58.1°C | 2.1% | 123.3hPa | 2.6V | 08:21:00 | 00:00:00 | 00:00:00 | |
| SQ9EZE-13 | 2026-09-04 12:57:00 | 48.63050 | 21.06771 | 138° | 49km/h | 15285m | -19.3m/s | -58.1°C | 2.2% | 123.0hPa | 2.6V | 08:21:00 | 00:00:00 | 00:00:00 | |
| SP9KGR-15 | 2026-09-04 12:56:46 | 48.63149 | 21.06595 | 127° | 44km/h | 15548m | -18.9m/s | -56.7°C | 1.9% | 118.0hPa | 2.6V | 00:00:00 | 00:00:00 | 00:00:00 | |
| SQ9EZE-13 | 2026-09-04 12:56:45 | 48.63163 | 21.06569 | 128° | 44km/h | 15586m | -18.9m/s | -56.7°C | 1.8% | 117.3hPa | 2.6V | 08:22:00 | 00:00:00 | 00:00:00 | |
| GYPAP8-17 | 2026-09-04 12:56:37 | 48.63214 | 21.06476 | 129° | 49km/h | 15718m | -19.0m/s | -56.7°C | 1.8% | 114.8hPa | 2.6V | 00:00:00 | 00:00:00 | 00:00:00 | |
| SP9KGR-15 | 2026-09-04 12:56:29 | 48.63273 | 21.06363 | 124° | 47km/h | 15870m | -19.2m/s | -56.6°C | 1.8% | 112.1hPa | 2.6V | 00:00:00 | 00:00:00 | 00:00:00 | |
| SQ9EZE-13 | 2026-09-04 12:56:13 | 48.63346 | 21.06119 | 99° | 42km/h | 16175m | -19.9m/s | -55.3°C | 1.6% | 106.9hPa | 2.6V | 08:22:00 | 00:00:00 | 00:00:00 | |
| SQ9EZE-14 | 2026-09-04 12:56:07 | 48.63350 | 21.06005 | 91° | 58km/h | 16293m | -21.4m/s | -54.8°C | 1.5% | 105.0hPa | 2.6V | 00:00:00 | 00:00:00 | 00:00:00 | |
| SP9KGR-15 | 2026-09-04 12:55:58 | 48.63347 | 21.05791 | 93° | 66km/h | 16472m | -18.9m/s | -55.9°C | 1.6% | 102.0hPa | 2.6V | 00:00:00 | 00:00:00 | 00:00:00 | |
| SQ9EZE-13 | 2026-09-04 12:55:57 | 48.63347 | 21.05766 | 91° | 68km/h | 16491m | -19.0m/s | -56.1°C | 1.6% | 101.7hPa | 2.6V | 08:23:00 | 00:00:00 | 00:00:00 | |
| SQ9EZE-14 | 2026-09-04 12:55:52 | 48.63352 | 21.05654 | 97° | 57km/h | 16588m | -20.6m/s | -56.0°C | 1.6% | 100.1hPa | 2.6V | 00:00:00 | 00:00:00 | 00:00:00 | |
| SP9KGR-15 | 2026-09-04 12:55:42 | 48.63369 | 21.05473 | 103° | 51km/h | 16789m | -20.5m/s | -56.3°C | 1.5% | 97.0hPa | 2.6V | 00:00:00 | 00:00:00 | 00:00:00 | |
| HA6NAB-11 | 2026-09-04 12:55:38 | 48.63382 | 21.05392 | 105° | 53km/h | 16866m | -19.3m/s | -56.7°C | 1.6% | 95.9hPa | 2.6V | 08:23:00 | 00:00:00 | 00:00:00 | |
| HA6NAB-11 | 2026-09-04 12:55:32 | 48.63406 | 21.05269 | 112° | 57km/h | 16987m | -18.6m/s | -57.0°C | 1.7% | 94.0hPa | 2.6V | 08:23:00 | 00:00:00 | 00:00:00 | |
| HA6NAB-11 | 2026-09-04 12:55:26 | 48.63441 | 21.05150 | 121° | 57km/h | 17109m | -20.8m/s | -56.3°C | 1.6% | 92.3hPa | 2.6V | 08:23:00 | 00:00:00 | 00:00:00 | |
| SP9KGR-15 | 2026-09-04 12:55:24 | 48.63456 | 21.05111 | 121° | 58km/h | 17151m | -21.4m/s | -56.4°C | 1.6% | 91.7hPa | 2.6V | 00:00:00 | 00:00:00 | 00:00:00 | |
| HA6NAB-11 | 2026-09-04 12:55:21 | 48.63480 | 21.05057 | 130° | 53km/h | 17216m | -21.0m/s | -56.8°C | 1.6% | 90.8hPa | 2.6V | 08:23:00 | 00:00:00 | 00:00:00 | |
| GYPAP8-17 | 2026-09-04 12:55:19 | 48.63496 | 21.05025 | 129° | 51km/h | 17260m | -21.1m/s | -56.7°C | 1.6% | 90.1hPa | 2.6V | 08:23:00 | 00:00:00 | 00:00:00 | |
| HA6NAB-11 | 2026-09-04 12:55:15 | 48.63527 | 21.04978 | 140° | 38km/h | 17341m | -21.2m/s | -55.8°C | 1.5% | 88.9hPa | 2.6V | 08:24:00 | 00:00:00 | 00:00:00 | |
| SQ9EZE-13 | 2026-09-04 12:55:10 | 48.63557 | 21.04939 | 148° | 27km/h | 17445m | -21.0m/s | -55.3°C | 1.4% | 87.5hPa | 2.6V | 08:24:00 | 00:00:00 | 00:00:00 | |
| HA6NAB-11 | 2026-09-04 12:55:09 | 48.63563 | 21.04932 | 143° | 31km/h | 17466m | -21.4m/s | -55.3°C | 1.5% | 87.3hPa | 2.6V | 08:24:00 | 00:00:00 | 00:00:00 | |
| SP9KGR-15 | 2026-09-04 12:55:07 | 48.63576 | 21.04916 | 138° | 35km/h | 17508m | -22.0m/s | -55.6°C | 1.5% | 86.7hPa | 2.6V | 00:00:00 | 00:00:00 | 00:00:00 | |
| SQ9EZE-13 | 2026-09-04 12:54:56 | 48.63644 | 21.04800 | 110° | 31km/h | 17759m | -21.6m/s | -54.8°C | 1.4% | 83.3hPa | 2.6V | 08:24:00 | 00:00:00 | 00:00:00 | |
| SP9KGR-15 | 2026-09-04 12:54:47 | 48.63657 | 21.04734 | 99° | 15km/h | 17934m | -22.7m/s | -53.0°C | 1.2% | 81.1hPa | 2.6V | 00:00:00 | 00:00:00 | 00:00:00 | |
| SQ9EZE-13 | 2026-09-04 12:54:39 | 48.63645 | 21.04672 | 68° | 27km/h | 18111m | -23.9m/s | -53.6°C | 1.2% | 78.9hPa | 2.6V | 08:24:00 | 00:00:00 | 00:00:00 | |
| HA6NAB-11 | 2026-09-04 12:54:37 | 48.63636 | 21.04644 | 62° | 31km/h | 18179m | -21.9m/s | -54.0°C | 1.2% | 78.1hPa | 2.6V | 08:24:00 | 00:00:00 | 00:00:00 | |
| HA6NAB-11 | 2026-09-04 12:54:30 | 48.63614 | 21.04575 | 62° | 33km/h | 18313m | -23.4m/s | -55.0°C | 1.3% | 76.5hPa | 2.6V | 08:24:00 | 00:00:00 | 00:00:00 | |
| SP9KGR-15 | 2026-09-04 12:54:27 | 48.63603 | 21.04540 | 70° | 35km/h | 18381m | -22.5m/s | -55.6°C | 1.4% | 75.7hPa | 2.6V | 00:00:00 | 00:00:00 | 00:00:00 | |
| HA6NAB-11 | 2026-09-04 12:54:25 | 48.63595 | 21.04507 | 74° | 31km/h | 18450m | -22.8m/s | -56.0°C | 1.4% | 74.8hPa | 2.6V | 08:24:00 | 00:00:00 | 00:00:00 | |
| SQ9EZE-13 | 2026-09-04 12:54:24 | 48.63595 | 21.04507 | 74° | 31km/h | 18450m | -22.8m/s | -56.0°C | 1.4% | 74.8hPa | 2.6V | 08:24:00 | 00:00:00 | 00:00:00 | |
| HA6NAB-11 | 2026-09-04 12:54:19 | 48.63590 | 21.04429 | 96° | 37km/h | 18588m | -22.5m/s | -56.5°C | 1.5% | 73.2hPa | 2.6V | 08:24:00 | 00:00:00 | 00:00:00 | |
| HA6NAB-11 | 2026-09-04 12:54:12 | 48.63603 | 21.04354 | 115° | 31km/h | 18732m | -23.7m/s | -56.2°C | 1.4% | 71.5hPa | 2.6V | 08:24:00 | 00:00:00 | 00:00:00 | |
| SQ9EZE-13 | 2026-09-04 12:54:09 | 48.63612 | 21.04323 | 115° | 27km/h | 18799m | -21.7m/s | -56.1°C | 1.5% | 70.8hPa | 2.6V | 08:24:00 | 00:00:00 | 00:00:00 | |
| SP9KGR-15 | 2026-09-04 12:54:08 | 48.63615 | 21.04313 | 116° | 26km/h | 18821m | -21.9m/s | -56.2°C | 1.4% | 70.6hPa | 2.6V | 08:24:00 | 00:00:00 | 00:00:00 | |
| GYPAP8-17 | 2026-09-04 12:54:07 | 48.63618 | 21.04304 | 118° | 24km/h | 18844m | -23.3m/s | -56.4°C | 1.5% | 70.3hPa | 2.6V | 00:00:00 | 00:00:00 | 00:00:00 | |
| HA6NAB-11 | 2026-09-04 12:54:06 | 48.63621 | 21.04296 | 120° | 24km/h | 18867m | -23.0m/s | -56.6°C | 1.5% | 70.1hPa | 2.6V | 08:24:00 | 00:00:00 | 00:00:00 | |
| OE3JTB-15 | 2026-09-04 12:54:03 | 48.63634 | 21.04249 | 118° | 24km/h | 18984m | -23.4m/s | 0°C | 0% | 0hPa | 2.6V | 08:24:00 | 00:00:00 | 00:00:00 | |
| SQ9EZE-13 | 2026-09-04 12:53:53 | 48.63675 | 21.04178 | 142° | 31km/h | 19163m | -23.5m/s | -56.0°C | 1.5% | 66.9hPa | 2.6V | 08:24:00 | 00:00:00 | 00:00:00 | |
| SP9KGR-15 | 2026-09-04 12:53:47 | 48.63710 | 21.04134 | 140° | 31km/h | 19306m | -23.8m/s | -55.1°C | 1.4% | 65.4hPa | 2.6V | 08:24:00 | 00:00:00 | 00:00:00 | |
| SQ9EZE-13 | 2026-09-04 12:53:38 | 48.63766 | 21.04046 | 150° | 20km/h | 19539m | -23.5m/s | -53.9°C | 1.3% | 63.1hPa | 2.6V | 08:24:00 | 00:00:00 | 00:00:00 | |
| SQ9EZE-14 | 2026-09-04 12:53:37 | 48.63766 | 21.04046 | 150° | 20km/h | 19539m | -23.5m/s | -53.9°C | 1.3% | 63.1hPa | 2.6V | 08:24:00 | 00:00:00 | 00:00:00 | |
| SP9KGR-15 | 2026-09-04 12:53:32 | 48.63780 | 21.04030 | 117° | 7km/h | 19654m | -24.3m/s | -52.8°C | 1.2% | 62.0hPa | 2.6V | 08:25:00 | 00:00:00 | 00:00:00 | |
| HA6NAB-11 | 2026-09-04 12:53:26 | 48.63776 | 21.04017 | 54° | 11km/h | 19789m | -23.1m/s | -53.0°C | 1.2% | 60.6hPa | 2.6V | 00:00:00 | 00:00:00 | 00:00:00 | |
| SQ9EZE-14 | 2026-09-04 12:53:22 | 48.63772 | 21.04003 | 64° | 11km/h | 19880m | -24.7m/s | -53.3°C | 1.2% | 59.8hPa | 2.6V | 00:00:00 | 00:00:00 | 00:00:00 | |
| HA6NAB-11 | 2026-09-04 12:53:21 | 48.63771 | 21.03999 | 75° | 13km/h | 19904m | -24.4m/s | -53.4°C | 1.3% | 59.6hPa | 2.6V | 00:00:00 | 00:00:00 | 00:00:00 | |
| SP9KGR-15 | 2026-09-04 12:53:15 | 48.63768 | 21.03951 | 96° | 24km/h | 20042m | -22.6m/s | -53.6°C | 1.2% | 58.3hPa | 2.6V | 08:25:00 | 00:00:00 | 00:00:00 | |
| HA6NAB-11 | 2026-09-04 12:53:10 | 48.63773 | 21.03902 | 102° | 20km/h | 20161m | -24.6m/s | -53.5°C | 1.2% | 57.3hPa | 2.6V | 00:00:00 | 00:00:00 | 00:00:00 | |
| GYPAP8-17 | 2026-09-04 12:53:06 | 48.63778 | 21.03882 | 116° | 7km/h | 20252m | -20.7m/s | -52.6°C | 1.1% | 56.4hPa | 2.6V | 00:00:00 | 00:00:00 | 00:00:00 | |
| HA6NAB-11 | 2026-09-04 12:53:05 | 48.63779 | 21.03880 | 121° | 5km/h | 20273m | -21.6m/s | -52.6°C | 1.1% | 56.2hPa | 2.6V | 00:00:00 | 00:00:00 | 00:00:00 | |
| SP9KGR-15 | 2026-09-04 12:52:59 | 48.63777 | 21.03863 | 84° | 11km/h | 20408m | -22.2m/s | -52.8°C | 1.2% | 55.0hPa | 2.6V | 08:25:00 | 00:00:00 | 00:00:00 | |
| HA6NAB-11 | 2026-09-04 12:52:58 | 48.63777 | 21.03858 | 90° | 11km/h | 20430m | -22.3m/s | -52.8°C | 1.1% | 54.9hPa | 2.6V | 00:00:00 | 00:00:00 | 00:00:00 | |
| SQ9EZE-13 | 2026-09-04 12:52:51 | 48.63784 | 21.03814 | 115° | 24km/h | 20596m | -26.0m/s | -52.9°C | 1.1% | 53.5hPa | 2.6V | 08:25:00 | 00:00:00 | 00:00:00 | |
| SP9KGR-15 | 2026-09-04 12:52:43 | 48.63819 | 21.03765 | 156° | 26km/h | 20800m | -25.6m/s | -53.6°C | 1.2% | 51.8hPa | 2.6V | 00:00:00 | 00:00:00 | 00:00:00 | |
| SQ9EZE-13 | 2026-09-04 12:52:37 | 48.63849 | 21.03751 | 168° | 7km/h | 20977m | -26.4m/s | -53.6°C | 1.2% | 50.4hPa | 2.6V | 08:26:00 | 00:00:00 | 00:00:00 | |
| SP9KGR-15 | 2026-09-04 12:52:28 | 48.63852 | 21.03749 | 77° | 9km/h | 21176m | -23.7m/s | -54.0°C | 1.3% | 48.9hPa | 2.6V | 00:00:00 | 00:00:00 | 00:00:00 | |
| HA6NAB-11 | 2026-09-04 12:52:24 | 48.63851 | 21.03735 | 110° | 7km/h | 21277m | -25.0m/s | -54.0°C | 1.3% | 48.1hPa | 2.6V | 00:00:00 | 00:00:00 | 00:00:00 | |
| SQ9EZE-13 | 2026-09-04 12:52:21 | 48.63853 | 21.03725 | 102° | 5km/h | 21358m | -27.6m/s | -53.3°C | 1.2% | 47.6hPa | 2.6V | 08:26:00 | 00:00:00 | 00:00:00 | |
| HA6NAB-11 | 2026-09-04 12:52:13 | 48.63844 | 21.03719 | 353° | 11km/h | 21569m | -25.7m/s | -53.0°C | 1.1% | 46.0hPa | 2.6V | 00:00:00 | 00:00:00 | 00:00:00 | |
| SP9KGR-15 | 2026-09-04 12:52:12 | 48.63842 | 21.03719 | 360° | 9km/h | 21595m | -26.7m/s | -52.8°C | 1.1% | 45.8hPa | 2.6V | 00:00:00 | 00:00:00 | 00:00:00 | |
| HA6NAB-11 | 2026-09-04 12:52:08 | 48.63828 | 21.03710 | 38° | 13km/h | 21722m | -24.1m/s | -53.1°C | 1.1% | 44.9hPa | 2.6V | 00:00:00 | 00:00:00 | 00:00:00 | |
| SQ9EZE-13 | 2026-09-04 12:52:05 | 48.63821 | 21.03701 | 32° | 15km/h | 21771m | -24.2m/s | -53.3°C | 1.2% | 44.5hPa | 2.6V | 08:26:00 | 00:00:00 | 00:00:00 | |
| HA6NAB-11 | 2026-09-04 12:52:02 | 48.63811 | 21.03690 | 38° | 18km/h | 21844m | -24.1m/s | -53.5°C | 1.2% | 44.1hPa | 2.6V | 00:00:00 | 00:00:00 | 00:00:00 | |
| GYPAP8-17 | 2026-09-04 12:51:59 | 48.63801 | 21.03673 | 48° | 16km/h | 21917m | -22.5m/s | -53.2°C | 1.2% | 43.6hPa | 2.6V | 00:00:00 | 00:00:00 | 00:00:00 | |
| HA6NAB-11 | 2026-09-04 12:51:57 | 48.63792 | 21.03656 | 52° | 16km/h | 21984m | -22.5m/s | -53.0°C | 1.1% | 43.1hPa | 2.6V | 00:00:00 | 00:00:00 | 00:00:00 | |
| SP9KGR-15 | 2026-09-04 12:51:55 | 48.63790 | 21.03651 | 56° | 16km/h | 22008m | -24.6m/s | -53.0°C | 1.2% | 43.0hPa | 2.6V | 00:00:00 | 00:00:00 | 00:00:00 | |
| SQ9EZE-13 | 2026-09-04 12:51:49 | 48.63782 | 21.03620 | 97° | 11km/h | 22153m | -24.2m/s | -53.0°C | 1.2% | 42.0hPa | 2.6V | 08:27:00 | 00:00:00 | 00:00:00 | |
| SQ9EZE-13 | 2026-09-04 12:51:34 | 48.63799 | 21.03547 | 88° | 18km/h | 22532m | -26.2m/s | -53.0°C | 1.1% | 39.6hPa | 2.6V | 08:27:00 | 00:00:00 | 00:00:00 | |
| SQ9EZE-13 | 2026-09-04 12:51:18 | 48.63792 | 21.03478 | 73° | 15km/h | 22938m | -25.0m/s | -53.9°C | 1.2% | 37.1hPa | 2.6V | 08:27:00 | 00:00:00 | 00:00:00 | |
| SQ9EZE-14 | 2026-09-04 12:51:16 | 48.63790 | 21.03467 | 79° | 18km/h | 22988m | -24.8m/s | -53.7°C | 1.2% | 36.8hPa | 2.6V | 08:27:00 | 00:00:00 | 00:00:00 | |
| OE5DRO-10 | 2026-09-04 12:51:08 | 48.63797 | 21.03408 | 103° | 15km/h | 23218m | -25.0m/s | -53.5°C | 4.4% | 35.5hPa | 2.6V | 00:00:00 | 00:00:00 | 00:00:00 | |
| SQ9EZE-13 | 2026-09-04 12:51:02 | 48.63799 | 21.03380 | 102° | 13km/h | 23336m | -23.5m/s | -53.2°C | 1.2% | 34.9hPa | 2.7V | 08:27:00 | 00:00:00 | 00:00:00 | |
| PG1ADW-2 | 2026-09-04 12:51:01 | 48.63802 | 21.03370 | 112° | 11km/h | 23384m | -25.0m/s | -53.1°C | 4.3% | 34.6hPa | 2.7V | 00:00:00 | 02:04:04 | 00:00:00 | |
| GYPAP8-17 | 2026-09-04 12:50:53 | 48.63815 | 21.03331 | 124° | 16km/h | 23559m | -22.5m/s | -51.9°C | 1.1% | 33.7hPa | 2.7V | 00:00:00 | 00:00:00 | 00:00:00 | |
| SQ9EZE-13 | 2026-09-04 12:50:47 | 48.63827 | 21.03307 | 143° | 5km/h | 23712m | -25.3m/s | -50.9°C | 1.0% | 32.9hPa | 2.7V | 08:28:00 | 00:00:00 | 00:00:00 | |
| PG1ADW-2 | 2026-09-04 12:50:41 | 48.63829 | 21.03316 | 314° | 13km/h | 23903m | -28.2m/s | -50.8°C | 3.6% | 32.0hPa | 2.7V | 00:00:00 | 00:00:00 | 00:00:00 | |
| OE5DRO-10 | 2026-09-04 12:50:33 | 48.63816 | 21.03302 | 62° | 16km/h | 24126m | -26.7m/s | -50.7°C | 3.6% | 30.9hPa | 2.7V | 00:00:00 | 00:00:00 | 00:00:00 | |
| SQ9EZE-13 | 2026-09-04 12:50:32 | 48.63816 | 21.03302 | 63° | 13km/h | 24126m | -26.8m/s | -50.8°C | 1.0% | 30.9hPa | 2.7V | 08:28:00 | 00:00:00 | 00:00:00 | |
| PG1ADW-2 | 2026-09-04 12:50:21 | 48.63810 | 21.03220 | 103° | 13km/h | 24439m | -26.9m/s | -50.8°C | 3.5% | 29.4hPa | 2.7V | 08:28:00 | 00:00:00 | 00:00:00 | |
| SQ9EZE-13 | 2026-09-04 12:50:17 | 48.63815 | 21.03200 | 116° | 18km/h | 24522m | -27.5m/s | -51.0°C | 1.0% | 29.1hPa | 2.6V | 08:28:00 | 00:00:00 | 00:00:00 | |
| OE5DRO-10 | 2026-09-04 12:50:11 | 48.63834 | 21.03169 | 163° | 9km/h | 24707m | -25.5m/s | -50.9°C | 3.7% | 28.2hPa | 2.6V | 00:00:00 | 00:00:00 | 00:00:00 | |
| PG1ADW-2 | 2026-09-04 12:50:01 | 48.63825 | 21.03158 | 26° | 11km/h | 24979m | -26.6m/s | -51.2°C | 3.9% | 27.0hPa | 2.6V | 00:00:00 | 00:00:00 | 00:00:00 | |
| GYPAP8-17 | 2026-09-04 12:49:55 | 48.63812 | 21.03141 | 75° | 15km/h | 25121m | -29.1m/s | -50.0°C | 1.0% | 26.5hPa | 2.6V | 00:00:00 | 00:00:00 | 00:00:00 | |
| SQ9EZE-13 | 2026-09-04 12:49:46 | 48.63812 | 21.03111 | 46° | 4km/h | 25378m | -29.4m/s | -49.3°C | 0.9% | 25.5hPa | 2.6V | 08:29:00 | 00:00:00 | 00:00:00 | |
| PG1ADW-2 | 2026-09-04 12:49:41 | 48.63795 | 21.03107 | 4° | 15km/h | 25549m | -27.3m/s | -49.4°C | 3.5% | 24.8hPa | 2.6V | 00:00:00 | 02:02:44 | 00:00:00 | |
| SQ9EZE-13 | 2026-09-04 12:49:31 | 48.63756 | 21.03083 | 55° | 15km/h | 25807m | -31.7m/s | -49.0°C | 0.9% | 23.8hPa | 2.6V | 08:29:00 | 00:00:00 | 00:00:00 | |
| PG1ADW-2 | 2026-09-04 12:49:21 | 48.63772 | 21.03051 | 159° | 9km/h | 26123m | -29.8m/s | -48.9°C | 3.4% | 22.7hPa | 2.6V | 00:00:00 | 00:00:00 | 00:00:00 | |
| SQ9EZE-13 | 2026-09-04 12:49:15 | 48.63770 | 21.03047 | 20° | 11km/h | 26259m | -27.2m/s | -48.8°C | 0.9% | 22.3hPa | 2.7V | 00:00:00 | 00:00:00 | 00:00:00 | |
| OE5DRO-10 | 2026-09-04 12:49:11 | 48.63755 | 21.03037 | 31° | 11km/h | 26400m | -28.7m/s | -48.2°C | 3.2% | 21.7hPa | 2.7V | 00:00:00 | 00:00:00 | 00:00:00 | |
| PG1ADW-2 | 2026-09-04 12:49:01 | 48.63750 | 21.03008 | 97° | 11km/h | 26697m | -26.3m/s | -48.3°C | 3.3% | 20.7hPa | 2.7V | 00:00:00 | 00:00:00 | 00:00:00 | |
| SQ9EZE-13 | 2026-09-04 12:48:59 | 48.63750 | 21.03005 | 77° | 9km/h | 26725m | -28.4m/s | -48.4°C | 0.9% | 20.7hPa | 2.7V | 00:00:00 | 00:00:00 | 00:00:00 | |
| OE5DRO-10 | 2026-09-04 12:48:52 | 48.63747 | 21.02964 | 106° | 13km/h | 26967m | -31.9m/s | -48.6°C | 3.4% | 19.9hPa | 2.7V | 00:00:00 | 00:00:00 | 00:00:00 | |
| GYPAP8-17 | 2026-09-04 12:48:51 | 48.63748 | 21.02961 | 142° | 7km/h | 26999m | -30.9m/s | -48.8°C | 1.0% | 19.9hPa | 2.7V | 00:00:00 | 00:00:00 | 00:00:00 | |
| SP9SOS | 2026-09-04 12:48:49 | 48.63750 | 21.02959 | 160° | 5km/h | 27058m | -29.3m/s | -48.5°C | 0.9% | 19.7hPa | 2.7V | 00:00:00 | 00:00:00 | 00:00:00 | |
| HA6NAB-11 | 2026-09-04 12:48:48 | 48.63750 | 21.02959 | 160° | 5km/h | 27058m | -29.3m/s | -48.5°C | 0.9% | 19.7hPa | 2.7V | 00:00:00 | 00:00:00 | 00:00:00 | |
| LZ4TU-5 | 2026-09-04 12:48:46 | 48.63753 | 21.02955 | 110° | 5km/h | 27119m | -30.8m/s | 0°C | 0% | 19.6hPa | 2.7V | 00:00:00 | 00:00:00 | 00:00:00 | |
| SQ9EZE-13 | 2026-09-04 12:48:43 | 48.63752 | 21.02945 | 66° | 11km/h | 27206m | -29.5m/s | -47.9°C | 0.9% | 19.3hPa | 2.7V | 00:00:00 | 00:00:00 | 00:00:00 | |
| HA6NAB-11 | 2026-09-04 12:48:42 | 48.63751 | 21.02940 | 64° | 20km/h | 27237m | -29.6m/s | -47.7°C | 0.9% | 19.2hPa | 2.7V | 00:00:00 | 00:00:00 | 00:00:00 | |
| PG1ADW-2 | 2026-09-04 12:48:41 | 48.63746 | 21.02926 | 63° | 11km/h | 27297m | -30.4m/s | -47.6°C | 3.2% | 19.0hPa | 2.7V | 00:00:00 | 00:00:00 | 00:00:00 | |
| HA6NAB-11 | 2026-09-04 12:48:37 | 48.63740 | 21.02903 | 73° | 20km/h | 27385m | -28.6m/s | -47.8°C | 0.9% | 18.7hPa | 2.7V | 00:00:00 | 00:00:00 | 00:00:00 | |
| OE5DRO-10 | 2026-09-04 12:48:33 | 48.63742 | 21.02872 | 115° | 11km/h | 27530m | -29.8m/s | -47.0°C | 3.0% | 18.3hPa | 2.7V | 00:00:00 | 00:00:00 | 00:00:00 | |
| HA6NAB-11 | 2026-09-04 12:48:32 | 48.63742 | 21.02872 | 116° | 13km/h | 27530m | -29.8m/s | -47.1°C | 0.8% | 18.4hPa | 2.7V | 00:00:00 | 00:00:00 | 00:00:00 | |
| SQ9EZE-14 | 2026-09-04 12:48:31 | 48.63744 | 21.02869 | 159° | 11km/h | 27561m | -31.0m/s | -47.0°C | 0.8% | 18.3hPa | 2.7V | 00:00:00 | 00:00:00 | 00:00:00 | |
| SQ9EZE-13 | 2026-09-04 12:48:28 | 48.63754 | 21.02868 | 180° | 13km/h | 27654m | -29.3m/s | -47.1°C | 0.8% | 18.0hPa | 2.7V | 00:00:00 | 00:00:00 | 00:00:00 | |
| HA6NAB-11 | 2026-09-04 12:48:27 | 48.63757 | 21.02869 | 198° | 9km/h | 27683m | -27.5m/s | -47.3°C | 0.9% | 17.9hPa | 2.7V | 00:00:00 | 00:00:00 | 00:00:00 | |
| HA6NAB-11 | 2026-09-04 12:48:22 | 48.63752 | 21.02873 | 253° | 11km/h | 27807m | -29.7m/s | -47.3°C | 0.9% | 17.6hPa | 2.7V | 00:00:00 | 00:00:00 | 00:00:00 | |
| PG1ADW-2 | 2026-09-04 12:48:16 | 48.63740 | 21.02868 | 64° | 16km/h | 28019m | -31.3m/s | -46.8°C | 3.1% | 16.9hPa | 2.7V | 00:00:00 | 02:01:19 | 00:00:00 | |
| OE5DRO-10 | 2026-09-04 12:48:14 | 48.63731 | 21.02852 | 81° | 24km/h | 28073m | -33.4m/s | -47.0°C | 3.1% | 16.8hPa | 2.7V | 00:00:00 | 00:00:00 | 08:30:00 | |
| SQ9EZE-13 | 2026-09-04 12:48:12 | 48.63728 | 21.02845 | 71° | 16km/h | 28103m | -32.0m/s | -47.2°C | 0.9% | 16.8hPa | 2.6V | 00:00:00 | 00:00:00 | 00:00:00 | |
| HA6NAB-11 | 2026-09-04 12:48:10 | 48.63724 | 21.02831 | 96° | 18km/h | 28165m | -37.2m/s | -47.3°C | 0.9% | 16.6hPa | 2.6V | 00:00:00 | 00:00:00 | 00:00:00 | |
| HA6NAB-11 | 2026-09-04 12:48:06 | 48.63727 | 21.02803 | 122° | 16km/h | 28333m | -34.7m/s | -47.0°C | 0.9% | 16.2hPa | 2.6V | 00:00:00 | 00:00:00 | 00:00:00 | |
| HA6NAB-11 | 2026-09-04 12:47:59 | 48.63743 | 21.02773 | 150° | 15km/h | 28523m | -30.8m/s | -46.6°C | 0.9% | 15.7hPa | 2.6V | 00:00:00 | 00:00:00 | 00:00:00 | |
| SQ9EZE-13 | 2026-09-04 12:47:57 | 48.63746 | 21.02765 | 147° | 16km/h | 28585m | -37.8m/s | -46.5°C | 0.8% | 15.6hPa | 2.6V | 00:00:00 | 00:00:00 | 00:00:00 | |
| PG1ADW-2 | 2026-09-04 12:47:56 | 48.63751 | 21.02757 | 143° | 15km/h | 28658m | -35.5m/s | -46.5°C | 3.1% | 15.4hPa | 2.6V | 00:00:00 | 00:00:00 | 00:00:00 | |
| HA6NAB-11 | 2026-09-04 12:47:54 | 48.63754 | 21.02753 | 128° | 16km/h | 28694m | -37.7m/s | -46.4°C | 0.8% | 15.4hPa | 2.6V | 00:00:00 | 00:00:00 | 00:00:00 | |
| GYPAP8-17 | 2026-09-04 12:47:52 | 48.63758 | 21.02743 | 130° | 15km/h | 28765m | -34.8m/s | -46.1°C | 0.8% | 15.2hPa | 2.6V | 00:00:00 | 00:00:00 | 00:00:00 | |
| HA6NAB-11 | 2026-09-04 12:47:48 | 48.63765 | 21.02727 | 102° | 9km/h | 28901m | -33.2m/s | -46.2°C | 0.8% | 14.9hPa | 2.6V | 00:00:00 | 00:00:00 | 00:00:00 | |
| OE5DXL-15 | 2026-09-04 12:47:43 | 48.63762 | 21.02711 | 52° | 27km/h | 29108m | -34.8m/s | -46.1°C | 3.2% | 14.4hPa | 2.6V | 00:00:00 | 00:00:00 | 00:00:00 | |
| SQ9EZE-13 | 2026-09-04 12:47:41 | 48.63760 | 21.02707 | 49° | 15km/h | 29144m | -34.5m/s | -46.1°C | 0.9% | 14.4hPa | 2.6V | 00:00:00 | 00:00:00 | 00:00:00 | |
| PG1ADW-2 | 2026-09-04 12:47:36 | 48.63748 | 21.02675 | 66° | 22km/h | 29347m | -35.5m/s | -45.6°C | 3.1% | 13.8hPa | 2.6V | 00:00:00 | 00:00:00 | 00:00:00 | |
| SQ9EZE-13 | 2026-09-04 12:47:26 | 48.63039 | 21.01419 | 0° | 0km/h | 33783m | 0.0m/s | -44.7°C | 0.8% | 13.2hPa | 2.6V | 00:00:00 | 00:00:00 | 00:00:00 | |
| SP9SOS | 2026-09-04 12:47:19 | 48.63039 | 21.01419 | 0° | 0km/h | 33783m | 0.0m/s | -43.7°C | 0.8% | 12.8hPa | 2.6V | 00:00:00 | 00:00:00 | 00:00:00 | |
| SQ9EZE-13 | 2026-09-04 12:47:08 | 48.63039 | 21.01419 | 0° | 0km/h | 33783m | 0.0m/s | -41.4°C | 0.6% | 12.0hPa | 2.6V | 00:00:00 | 00:00:00 | 00:00:00 | |
| SQ9EZE-13 | 2026-09-04 12:46:51 | 48.63039 | 21.01419 | 0° | 0km/h | 33783m | 0.0m/s | -40.4°C | 0.6% | 10.9hPa | 2.6V | 00:00:00 | 00:00:00 | 00:00:00 | |
| LZ4TU-5 | 2026-09-04 12:46:50 | 48.63039 | 21.01419 | 0° | 0km/h | 33783m | 0.0m/s | 0°C | 0% | 10.9hPa | 2.6V | 00:00:00 | 00:00:00 | 00:00:00 | |
| SP9SOS | 2026-09-04 12:46:45 | 48.63039 | 21.01419 | 0° | 0km/h | 33783m | 0.0m/s | -39.3°C | 0.6% | 10.6hPa | 2.6V | 00:00:00 | 00:00:00 | 00:00:00 | |
| GYPAP8-17 | 2026-09-04 12:46:37 | 48.63039 | 21.01419 | 0° | 0km/h | 33783m | 0.0m/s | -39.1°C | 0.6% | 10.1hPa | 2.6V | 00:00:00 | 00:00:00 | 00:00:00 | |
| SQ9EZE-13 | 2026-09-04 12:46:36 | 48.63039 | 21.01419 | 0° | 0km/h | 33783m | 0.0m/s | -39.1°C | 0.6% | 10.0hPa | 2.6V | 00:00:00 | 00:00:00 | 00:00:00 | |
| SP9SOS | 2026-09-04 12:46:19 | 48.63039 | 21.01419 | 0° | 0km/h | 33783m | 0.0m/s | -37.8°C | 0.6% | 9.1hPa | 2.6V | 00:00:00 | 00:00:00 | 00:00:00 | |
| SQ9EZE-13 | 2026-09-04 12:46:08 | 48.63039 | 21.01419 | 0° | 0km/h | 33783m | 0.0m/s | -35.5°C | 0.5% | 8.5hPa | 2.6V | 00:00:00 | 00:00:00 | 00:00:00 | |
| SQ9EZE-14 | 2026-09-04 12:46:06 | 48.63039 | 21.01419 | 0° | 0km/h | 33783m | 0.0m/s | -35.3°C | 0.4% | 8.5hPa | 2.6V | 00:00:00 | 00:00:00 | 00:00:00 | |
| HA6NAB-11 | 2026-09-04 12:45:54 | 48.63039 | 21.01419 | 0° | 0km/h | 33783m | 0.0m/s | -34.5°C | 0.4% | 7.9hPa | 2.6V | 00:00:00 | 00:00:00 | 00:00:00 | |
| SP9SOS | 2026-09-04 12:45:53 | 48.63039 | 21.01419 | 0° | 0km/h | 33783m | 0.0m/s | -34.5°C | 0.4% | 7.9hPa | 2.6V | 00:00:00 | 00:00:00 | 00:00:00 | |
| SQ9EZE-13 | 2026-09-04 12:45:52 | 48.63039 | 21.01419 | 0° | 0km/h | 33783m | 0.0m/s | -34.7°C | 0.4% | 7.8hPa | 2.6V | 00:00:00 | 00:00:00 | 00:00:00 | |
| HA6NAB-11 | 2026-09-04 12:45:48 | 48.63039 | 21.01419 | 0° | 0km/h | 33783m | 0.0m/s | -35.5°C | 0.4% | 7.6hPa | 2.6V | 00:00:00 | 00:00:00 | 00:00:00 | |
| HA6NAB-11 | 2026-09-04 12:45:43 | 48.63039 | 21.01419 | 0° | 0km/h | 33783m | 0.0m/s | -35.8°C | 0.5% | 7.4hPa | 2.6V | 00:00:00 | 00:00:00 | 00:00:00 | |
| HA6NAB-11 | 2026-09-04 12:45:37 | 48.63039 | 21.01419 | 0° | 0km/h | 33783m | 0.0m/s | -36.4°C | 0.5% | 7.2hPa | 2.6V | 00:00:00 | 00:00:00 | 00:00:00 | |
| SQ9EZE-13 | 2026-09-04 12:45:35 | 48.63039 | 21.01419 | 0° | 0km/h | 33783m | 0.0m/s | -36.2°C | 0.5% | 7.1hPa | 2.6V | 00:00:00 | 00:00:00 | 00:00:00 | |
| HA6NAB-11 | 2026-09-04 12:45:31 | 48.63039 | 21.01419 | 0° | 0km/h | 33783m | 0.0m/s | -36.0°C | 0.5% | 7.0hPa | 2.6V | 00:00:00 | 00:00:00 | 00:00:00 | |
| SP9SOS | 2026-09-04 12:45:27 | 48.63039 | 21.01419 | 0° | 0km/h | 33783m | 0.0m/s | -36.0°C | 0.5% | 6.8hPa | 2.6V | 00:00:00 | 00:00:00 | 00:00:00 | |
| HA6NAB-11 | 2026-09-04 12:45:25 | 48.63039 | 21.01419 | 0° | 0km/h | 33783m | 0.0m/s | -36.1°C | 0.5% | 6.7hPa | 2.6V | 00:00:00 | 00:00:00 | 00:00:00 | |
| SQ9EZE-13 | 2026-09-04 12:45:20 | 48.63039 | 21.01419 | 0° | 0km/h | 33783m | 0.0m/s | -36.0°C | 0.5% | 6.6hPa | 2.6V | 00:00:00 | 00:00:00 | 00:00:00 | |
| HA6NAB-11 | 2026-09-04 12:45:19 | 48.63039 | 21.01419 | 0° | 0km/h | 33783m | 0.0m/s | -36.0°C | 0.5% | 6.6hPa | 2.6V | 00:00:00 | 00:00:00 | 00:00:00 | |
| HA6NAB-11 | 2026-09-04 12:45:13 | 48.63039 | 21.01419 | 0° | 0km/h | 33783m | 0.0m/s | -36.0°C | 0.5% | 6.7hPa | 2.6V | 00:00:00 | 00:00:00 | 00:00:00 | |
| HA6NAB-11 | 2026-09-04 12:45:08 | 48.63039 | 21.01419 | 0° | 0km/h | 33783m | 0.0m/s | -36.2°C | 0.5% | 6.7hPa | 2.6V | 00:00:00 | 00:00:00 | 00:00:00 | |
| HA6NAB-11 | 2026-09-04 12:45:01 | 48.63039 | 21.01419 | 0° | 0km/h | 33783m | 0.0m/s | -36.3°C | 0.5% | 6.8hPa | 2.6V | 00:00:00 | 00:00:00 | 00:00:00 | |
| SP9SOS | 2026-09-04 12:44:58 | 48.63039 | 21.01419 | 0° | 0km/h | 33783m | 0.0m/s | -36.2°C | 0.5% | 6.8hPa | 2.6V | 00:00:00 | 00:00:00 | 00:00:00 | |
| HA6NAB-11 | 2026-09-04 12:44:56 | 48.63039 | 21.01419 | 0° | 0km/h | 33783m | 0.0m/s | -36.1°C | 0.5% | 6.8hPa | 2.6V | 00:00:00 | 00:00:00 | 00:00:00 | |
| LZ4TU-5 | 2026-09-04 12:44:51 | 48.63039 | 21.01419 | 0° | 0km/h | 33783m | 0.0m/s | 0°C | 0% | 6.8hPa | 2.6V | 00:00:00 | 00:00:00 | 00:00:00 | |
| HA6NAB-11 | 2026-09-04 12:44:50 | 48.63039 | 21.01419 | 0° | 0km/h | 33783m | 0.0m/s | -36.2°C | 0.5% | 6.8hPa | 2.6V | 00:00:00 | 00:00:00 | 00:00:00 | |
| GYPAP8-17 | 2026-09-04 12:44:49 | 48.63039 | 21.01419 | 0° | 0km/h | 33783m | 0.0m/s | -36.2°C | 0.5% | 6.8hPa | 2.6V | 00:00:00 | 00:00:00 | 00:00:00 | |
| LZ4TU-5 | 2026-09-04 12:44:46 | 48.63039 | 21.01419 | 0° | 0km/h | 33783m | 0.0m/s | 0°C | 0% | 6.9hPa | 2.6V | 00:00:00 | 00:00:00 | 00:00:00 | |
| HA6NAB-11 | 2026-09-04 12:44:44 | 48.63039 | 21.01419 | 0° | 0km/h | 33783m | 0.0m/s | -36.0°C | 0.5% | 6.9hPa | 2.6V | 00:00:00 | 00:00:00 | 00:00:00 | |
| SP9SOS | 2026-09-04 12:44:31 | 48.63039 | 21.01419 | 0° | 0km/h | 33783m | 0.0m/s | -36.0°C | 0.5% | 7.0hPa | 2.6V | 00:00:00 | 00:00:00 | 00:00:00 | |
| SQ9EZE-13 | 2026-09-04 12:44:18 | 48.63039 | 21.01419 | 0° | 0km/h | 33783m | 0.0m/s | -36.5°C | 0.5% | 7.1hPa | 2.6V | 00:00:00 | 00:00:00 | 00:00:00 | |
| SP9SOS | 2026-09-04 12:44:06 | 48.63061 | 21.01321 | 110° | 38km/h | 33746m | 5.3m/s | -36.3°C | 0.5% | 7.1hPa | 2.6V | 00:00:00 | 00:00:00 | 00:00:00 | |
| SQ9EZE-13 | 2026-09-04 12:44:02 | 48.63074 | 21.01266 | 110° | 38km/h | 33724m | 5.3m/s | -36.2°C | 0.5% | 7.2hPa | 2.6V | 00:00:00 | 00:00:00 | 00:00:00 | |
| OE5DRO-10 | 2026-09-04 12:44:00 | 48.63073 | 21.01232 | 75° | 29km/h | 33709m | 3.7m/s | -35.9°C | 2.0% | 7.1hPa | 2.6V | 00:00:00 | 00:00:00 | 00:00:00 | |
| SQ9EZE-14 | 2026-09-04 12:43:56 | 48.63060 | 21.01216 | 22° | 16km/h | 33689m | 7.2m/s | -35.9°C | 0.5% | 7.2hPa | 2.6V | 00:00:00 | 00:00:00 | 00:00:00 | |
| SQ9EZE-13 | 2026-09-04 12:43:46 | 48.63033 | 21.01103 | 82° | 44km/h | 33622m | 6.9m/s | -35.7°C | 0.5% | 7.3hPa | 2.6V | 00:00:00 | 00:00:00 | 00:00:00 | |
| OE5DRO-10 | 2026-09-04 12:43:41 | 48.63017 | 21.01052 | 37° | 40km/h | 33581m | 7.0m/s | -35.5°C | 1.9% | 7.3hPa | 2.6V | 00:00:00 | 00:00:00 | 00:00:00 | |
| SP9SOS | 2026-09-04 12:43:40 | 48.63017 | 21.01052 | 37° | 33km/h | 33581m | 7.1m/s | -35.6°C | 0.5% | 7.3hPa | 2.6V | 00:00:00 | 00:00:00 | 00:00:00 | |
| GYPAP8-17 | 2026-09-04 12:43:29 | 48.62982 | 21.00916 | 92° | 46km/h | 33508m | 6.2m/s | -35.6°C | 0.5% | 7.4hPa | 2.6V | 00:00:00 | 00:00:00 | 00:00:00 | |
| SP9SOS | 2026-09-04 12:42:25 | 48.62618 | 21.00360 | 48° | 35km/h | 33070m | 7.5m/s | -34.7°C | 0.5% | 7.9hPa | 2.6V | 00:00:00 | 00:00:00 | 00:00:00 | |
| HA6NAB-11 | 2026-09-04 12:42:18 | 48.62574 | 21.00315 | 24° | 27km/h | 33024m | 5.8m/s | -34.6°C | 0.5% | 8.0hPa | 2.6V | 00:00:00 | 00:00:00 | 00:00:00 | |
| SQ9EZE-13 | 2026-09-04 12:42:13 | 48.62540 | 21.00282 | 35° | 31km/h | 32990m | 6.3m/s | -34.7°C | 0.4% | 8.0hPa | 2.6V | 00:00:00 | 00:00:00 | 00:00:00 | |
| LZ4TU-5 | 2026-09-04 12:42:08 | 48.62507 | 21.00250 | 21° | 40km/h | 32947m | 8.0m/s | 0°C | 0% | 8.1hPa | 2.6V | 00:00:00 | 00:00:00 | 00:00:00 | |
| LZ4TU-5 | 2026-09-04 12:42:03 | 48.62461 | 21.00232 | 17° | 44km/h | 32918m | 8.5m/s | 0°C | 0% | 8.1hPa | 2.6V | 00:00:00 | 00:00:00 | 00:00:00 | |
| SP9SOS | 2026-09-04 12:42:00 | 48.62430 | 21.00215 | 36° | 26km/h | 32889m | 7.1m/s | -34.6°C | 0.4% | 8.1hPa | 2.6V | 00:00:00 | 00:00:00 | 00:00:00 | |
| SQ9EZE-13 | 2026-09-04 12:41:53 | 48.62394 | 21.00187 | 359° | 24km/h | 32847m | 8.4m/s | -34.8°C | 0.5% | 8.2hPa | 2.6V | 00:00:00 | 00:00:00 | 00:00:00 | |
| SQ9EZE-13 | 2026-09-04 12:41:38 | 48.62318 | 21.00134 | 39° | 18km/h | 32741m | 5.7m/s | -35.1°C | 0.5% | 8.3hPa | 2.6V | 00:00:00 | 00:00:00 | 00:00:00 | |
| SP9SOS | 2026-09-04 12:38:35 | 48.61546 | 20.99010 | 317° | 20km/h | 31522m | 5.6m/s | -39.4°C | 0% | 0hPa | 2.6V | 00:00:00 | 00:00:00 | 00:00:00 | |
| SQ9EZE-13 | 2026-09-04 12:38:33 | 48.61530 | 20.99027 | 340° | 31km/h | 31502m | 7.8m/s | -39.6°C | 0.6% | 9.9hPa | 2.6V | 00:00:00 | 00:00:00 | 00:00:00 | |
| SQ9EZE-13 | 2026-09-04 12:38:01 | 48.61503 | 20.99021 | 220° | 13km/h | 31304m | 4.5m/s | -39.7°C | 0.6% | 10.3hPa | 2.6V | 00:00:00 | 00:00:00 | 00:00:00 | |
| PG1ADW-2 | 2026-09-04 12:38:00 | 48.61507 | 20.99021 | 123° | 11km/h | 31292m | 7.9m/s | -39.5°C | 2.3% | 10.2hPa | 2.6V | 00:00:00 | 00:00:00 | 00:00:00 | |
| LZ4TU-5 | 2026-09-04 12:37:57 | 48.61507 | 20.99008 | 78° | 22km/h | 31276m | 6.2m/s | 0°C | 0% | 0hPa | 2.6V | 00:00:00 | 00:00:00 | 00:00:00 | |
| OE5DRO-10 | 2026-09-04 12:37:48 | 48.61514 | 20.98986 | 73° | 15km/h | 31213m | 5.5m/s | -39.4°C | 2.2% | 10.4hPa | 2.6V | 00:00:00 | 00:00:00 | 00:00:00 | |
| SP9SOS | 2026-09-04 12:37:46 | 48.61513 | 20.98978 | 88° | 11km/h | 31201m | 7.3m/s | 0°C | 0% | 0hPa | 2.6V | 00:00:00 | 00:00:00 | 00:00:00 | |
| PG1ADW-2 | 2026-09-04 12:37:40 | 48.61506 | 20.98956 | 87° | 18km/h | 31162m | 4.4m/s | -39.8°C | 2.2% | 10.4hPa | 2.6V | 00:00:00 | 00:00:00 | 00:00:00 | |
| OE5DXL-15 | 2026-09-04 12:37:35 | 48.61522 | 20.98933 | 160° | 20km/h | 31129m | 5.6m/s | -39.9°C | 2.2% | 10.5hPa | 2.6V | 00:00:00 | 00:00:00 | 08:30:00 | |
| SQ9EZE-13 | 2026-09-04 12:37:30 | 48.61530 | 20.98907 | 81° | 18km/h | 31096m | 7.4m/s | -40.2°C | 0.6% | 10.6hPa | 2.7V | 00:00:00 | 00:00:00 | 00:00:00 | |
| OE5DRO-10 | 2026-09-04 12:37:29 | 48.61529 | 20.98901 | 71° | 22km/h | 31088m | 8.5m/s | -40.1°C | 2.2% | 10.6hPa | 2.7V | 00:00:00 | 00:00:00 | 00:00:00 | |
| HA6NAB-11 | 2026-09-04 12:37:23 | 48.61524 | 20.98876 | 106° | 22km/h | 31054m | 8.5m/s | -40.6°C | 0.6% | 10.7hPa | 2.7V | 00:00:00 | 00:00:00 | 00:00:00 | |
| PG1ADW-2 | 2026-09-04 12:37:20 | 48.61544 | 20.98848 | 157° | 22km/h | 31027m | 10.3m/s | -40.7°C | 2.3% | 10.7hPa | 2.7V | 00:00:00 | 01:50:23 | 08:30:00 | |
| SP9SOS | 2026-09-04 12:37:19 | 48.61544 | 20.98847 | 157° | 29km/h | 31027m | 10.3m/s | 0°C | 0% | 0hPa | 2.7V | 00:00:00 | 00:00:00 | 00:00:00 | |
| HA6NAB-11 | 2026-09-04 12:37:18 | 48.61551 | 20.98843 | 159° | 24km/h | 31019m | 3.4m/s | -40.7°C | 0.6% | 10.7hPa | 2.7V | 00:00:00 | 00:00:00 | 00:00:00 | |
| SQ9EZE-14 | 2026-09-04 12:37:15 | 48.61562 | 20.98827 | 113° | 24km/h | 31003m | 9.9m/s | -40.9°C | 0.6% | 10.7hPa | 2.7V | 00:00:00 | 00:00:00 | 00:00:00 | |
| HA6NAB-11 | 2026-09-04 12:37:14 | 48.61564 | 20.98804 | 88° | 33km/h | 30989m | 4.8m/s | -40.9°C | 0.6% | 10.8hPa | 2.7V | 00:00:00 | 00:00:00 | 00:00:00 | |
| OE5DRO-10 | 2026-09-04 12:37:10 | 48.61565 | 20.98761 | 116° | 20km/h | 30955m | 5.9m/s | -40.8°C | 2.3% | 10.8hPa | 2.7V | 00:00:00 | 00:00:00 | 00:00:00 | |
| HA6NAB-11 | 2026-09-04 12:37:08 | 48.61567 | 20.98756 | 117° | 16km/h | 30947m | 9.1m/s | -40.9°C | 0.6% | 10.8hPa | 2.7V | 00:00:00 | 00:00:00 | 00:00:00 | |
| OE5DXL-15 | 2026-09-04 12:37:05 | 48.61572 | 20.98738 | 113° | 20km/h | 30927m | 6.2m/s | -40.9°C | 2.3% | 10.8hPa | 2.7V | 00:00:00 | 00:00:00 | 00:00:00 | |
| PG1ADW-2 | 2026-09-04 12:37:00 | 48.61571 | 20.98707 | 72° | 24km/h | 30892m | 10.0m/s | -41.2°C | 2.4% | 10.9hPa | 2.7V | 00:00:00 | 00:00:00 | 00:00:00 | |
| SQ9EZE-13 | 2026-09-04 12:36:57 | 48.61565 | 20.98683 | 69° | 37km/h | 30878m | 4.0m/s | -41.5°C | 0.7% | 11.0hPa | 2.7V | 00:00:00 | 00:00:00 | 00:00:00 | |
| OE5DRO-10 | 2026-09-04 12:36:50 | 48.61556 | 20.98631 | 57° | 18km/h | 30823m | 6.1m/s | -41.5°C | 2.4% | 11.0hPa | 2.7V | 00:00:00 | 00:00:00 | 08:30:00 | |
| SQ9EZE-13 | 2026-09-04 12:36:41 | 48.61529 | 20.98566 | 81° | 29km/h | 30767m | 5.7m/s | -41.6°C | 0.7% | 11.1hPa | 2.7V | 00:00:00 | 00:00:00 | 00:00:00 | |
| PG1ADW-2 | 2026-09-04 12:36:40 | 48.61528 | 20.98549 | 87° | 20km/h | 30752m | 7.4m/s | -41.7°C | 2.5% | 11.1hPa | 2.7V | 00:00:00 | 00:00:00 | 00:00:00 | |
| OE5DXL-15 | 2026-09-04 12:36:35 | 48.61519 | 20.98530 | 32° | 20km/h | 30719m | 5.7m/s | -41.6°C | 2.4% | 11.1hPa | 2.7V | 00:00:00 | 00:00:00 | 00:00:00 | |
| SQ9EZE-13 | 2026-09-04 12:36:26 | 48.61475 | 20.98480 | 54° | 31km/h | 30663m | 5.1m/s | -41.8°C | 0.6% | 11.3hPa | 2.7V | 00:00:00 | 00:00:00 | 00:00:00 | |
| SQ9EZE-13 | 2026-09-04 12:36:10 | 48.61410 | 20.98416 | 18° | 22km/h | 30543m | 8.4m/s | -41.7°C | 0.7% | 11.5hPa | 2.7V | 00:00:00 | 00:00:00 | 00:00:00 | |
| OE5DXL-15 | 2026-09-04 12:36:05 | 48.61388 | 20.98418 | 10° | 15km/h | 30507m | 6.8m/s | -41.6°C | 2.5% | 11.5hPa | 2.7V | 00:00:00 | 00:00:00 | 00:00:00 | |
| LZ4TU-5 | 2026-09-04 12:36:03 | 48.61381 | 20.98415 | 22° | 13km/h | 30494m | 6.9m/s | 0°C | 0% | 0hPa | 2.6V | 00:00:00 | 00:00:00 | 00:00:00 | |
| GYPAP8-17 | 2026-09-04 12:36:02 | 48.61378 | 20.98413 | 25° | 9km/h | 30486m | 8.1m/s | -41.6°C | 0.7% | 11.6hPa | 2.6V | 00:00:00 | 00:00:00 | 00:00:00 | |
| PG1ADW-2 | 2026-09-04 12:36:00 | 48.61376 | 20.98409 | 62° | 15km/h | 30471m | 6.5m/s | -41.6°C | 2.5% | 11.6hPa | 2.6V | 00:00:00 | 01:49:03 | 00:00:00 | |
| LZ4TU-5 | 2026-09-04 12:35:58 | 48.61375 | 20.98406 | 63° | 13km/h | 30465m | 6.4m/s | 0°C | 0% | 0hPa | 2.6V | 00:00:00 | 00:00:00 | 00:00:00 | |
| SQ9EZE-13 | 2026-09-04 12:35:50 | 48.61346 | 20.98391 | 2° | 9km/h | 30409m | 7.1m/s | -41.4°C | 0.6% | 11.8hPa | 2.6V | 00:00:00 | 00:00:00 | 00:00:00 | |
| HA6NAB-11 | 2026-09-04 12:35:45 | 48.61347 | 20.98370 | 127° | 13km/h | 30374m | 8.9m/s | -41.4°C | 0.7% | 11.8hPa | 2.6V | 00:00:00 | 00:00:00 | 00:00:00 | |
| PG1ADW-2 | 2026-09-04 12:35:40 | 48.61336 | 20.98347 | 64° | 15km/h | 30335m | 5.4m/s | -41.4°C | 2.4% | 11.8hPa | 2.6V | 00:00:00 | 00:00:00 | 00:00:00 | |
| OE5DXL-15 | 2026-09-04 12:35:35 | 48.61339 | 20.98331 | 150° | 16km/h | 30298m | 6.7m/s | -41.5°C | 2.4% | 11.9hPa | 2.6V | 00:00:00 | 00:00:00 | 00:00:00 | |
| HA6NAB-11 | 2026-09-04 12:35:29 | 48.61345 | 20.98303 | 88° | 16km/h | 30261m | 9.2m/s | -41.4°C | 0.7% | 12.0hPa | 2.6V | 00:00:00 | 00:00:00 | 00:00:00 | |
| HA6NAB-11 | 2026-09-04 12:35:23 | 48.61345 | 20.98269 | 110° | 15km/h | 30219m | 5.9m/s | -41.5°C | 0.6% | 12.1hPa | 2.6V | 00:00:00 | 00:00:00 | 00:00:00 | |
| SQ9EZE-13 | 2026-09-04 12:35:20 | 48.61353 | 20.98256 | 141° | 15km/h | 30190m | 6.7m/s | -41.8°C | 0.6% | 12.1hPa | 2.6V | 00:00:00 | 00:00:00 | 00:00:00 | |
| HA6NAB-11 | 2026-09-04 12:35:17 | 48.61358 | 20.98245 | 122° | 22km/h | 30175m | 6.9m/s | -41.6°C | 0.6% | 12.2hPa | 2.6V | 00:00:00 | 00:00:00 | 00:00:00 | |
| OE5DXL-15 | 2026-09-04 12:35:05 | 48.61390 | 20.98183 | 174° | 24km/h | 30088m | 5.3m/s | -42.5°C | 2.5% | 12.3hPa | 2.6V | 00:00:00 | 00:00:00 | 00:00:00 | |
| PG1ADW-2 | 2026-09-04 12:35:00 | 48.61417 | 20.98151 | 128° | 24km/h | 30054m | 6.1m/s | -42.5°C | 2.5% | 12.4hPa | 2.6V | 00:00:00 | 00:00:00 | 00:00:00 | |
| SQ9EZE-13 | 2026-09-04 12:34:56 | 48.61428 | 20.98129 | 128° | 16km/h | 30035m | 5.2m/s | -42.6°C | 0.7% | 12.4hPa | 2.6V | 00:00:00 | 00:00:00 | 00:00:00 | |
| SQ9EZE-14 | 2026-09-04 12:34:48 | 48.61448 | 20.98081 | 128° | 26km/h | 29976m | 5.4m/s | -43.0°C | 0.7% | 12.5hPa | 2.6V | 00:00:00 | 00:00:00 | 00:00:00 | |
| OE5DRO-10 | 2026-09-04 12:34:47 | 48.61451 | 20.98072 | 120° | 27km/h | 29969m | 8.4m/s | -43.0°C | 2.6% | 12.5hPa | 2.6V | 00:00:00 | 00:00:00 | 00:00:00 | |
| GYPAP8-17 | 2026-09-04 12:34:46 | 48.61452 | 20.98072 | 121° | 31km/h | 29969m | 8.5m/s | -43.0°C | 0.7% | 12.6hPa | 2.6V | 00:00:00 | 00:00:00 | 00:00:00 | |
| SQ9EZE-13 | 2026-09-04 12:34:41 | 48.61465 | 20.98008 | 98° | 27km/h | 29934m | 6.8m/s | -43.3°C | 0.7% | 12.6hPa | 2.6V | 00:00:00 | 00:00:00 | 00:00:00 | |
| PG1ADW-2 | 2026-09-04 12:34:40 | 48.61465 | 20.97990 | 87° | 26km/h | 29921m | 6.9m/s | -43.3°C | 2.6% | 12.6hPa | 2.6V | 00:00:00 | 01:47:43 | 00:00:00 | |
| OE5DXL-15 | 2026-09-04 12:34:35 | 48.61462 | 20.97960 | 77° | 29km/h | 29888m | 7.4m/s | -43.2°C | 2.6% | 12.7hPa | 2.6V | 00:00:00 | 00:00:00 | 00:00:00 | |
| SQ9EZE-14 | 2026-09-04 12:34:32 | 48.61463 | 20.97953 | 110° | 15km/h | 29877m | 4.3m/s | -43.3°C | 0.7% | 12.7hPa | 2.6V | 00:00:00 | 00:00:00 | 00:00:00 | |
| OE5DRO-10 | 2026-09-04 12:34:28 | 48.61473 | 20.97892 | 102° | 27km/h | 29842m | 6.8m/s | -43.5°C | 2.6% | 12.8hPa | 2.6V | 00:00:00 | 00:00:00 | 00:00:00 | |
| SQ9EZE-13 | 2026-09-04 12:34:25 | 48.61477 | 20.97850 | 92° | 33km/h | 29824m | 5.2m/s | -43.6°C | 0.7% | 12.8hPa | 2.6V | 00:00:00 | 00:00:00 | 00:00:00 | |
| PG1ADW-2 | 2026-09-04 12:34:20 | 48.61475 | 20.97797 | 95° | 27km/h | 29792m | 8.3m/s | -43.6°C | 2.6% | 12.8hPa | 2.6V | 00:00:00 | 00:00:00 | 08:30:00 | |
| SQ9EZE-14 | 2026-09-04 12:34:17 | 48.61477 | 20.97787 | 118° | 16km/h | 29778m | 3.9m/s | -43.5°C | 0.7% | 12.9hPa | 2.7V | 00:00:00 | 00:00:00 | 00:00:00 | |
| SQ9EZE-13 | 2026-09-04 12:34:09 | 48.61475 | 20.97690 | 87° | 31km/h | 29726m | 4.8m/s | -43.5°C | 0.7% | 13.0hPa | 2.7V | 00:00:00 | 00:00:00 | 00:00:00 | |
| OE5DXL-15 | 2026-09-04 12:34:05 | 48.61474 | 20.97634 | 92° | 24km/h | 29694m | 7.4m/s | -43.4°C | 2.6% | 13.0hPa | 2.7V | 00:00:00 | 00:00:00 | 00:00:00 | |
| HA6NAB-11 | 2026-09-04 12:34:04 | 48.61474 | 20.97634 | 92° | 22km/h | 29694m | 7.4m/s | -43.5°C | 0.7% | 13.1hPa | 2.7V | 00:00:00 | 00:00:00 | 00:00:00 | |
| SQ9EZE-14 | 2026-09-04 12:34:01 | 48.61472 | 20.97611 | 74° | 24km/h | 29674m | 5.2m/s | -43.7°C | 0.7% | 13.1hPa | 2.7V | 00:00:00 | 00:00:00 | 00:00:00 | |
| PG1ADW-2 | 2026-09-04 12:34:00 | 48.61467 | 20.97590 | 69° | 24km/h | 29659m | 8.1m/s | -43.9°C | 2.6% | 13.1hPa | 2.7V | 00:00:00 | 00:00:00 | 00:00:00 | |
| HA6NAB-11 | 2026-09-04 12:33:58 | 48.61464 | 20.97576 | 71° | 40km/h | 29653m | 3.6m/s | -44.0°C | 0.7% | 13.2hPa | 2.7V | 00:00:00 | 00:00:00 | 00:00:00 | |
| SQ9EZE-13 | 2026-09-04 12:33:53 | 48.61452 | 20.97522 | 79° | 22km/h | 29622m | 5.8m/s | -44.3°C | 0.7% | 13.2hPa | 2.7V | 00:00:00 | 00:00:00 | 00:00:00 | |
| LZ4TU-5 | 2026-09-04 12:33:52 | 48.61451 | 20.97513 | 81° | 26km/h | 29615m | 8.4m/s | 0°C | 0% | 0hPa | 2.7V | 00:00:00 | 00:00:00 | 00:00:00 | |
| LZ4TU-5 | 2026-09-04 12:33:47 | 48.61447 | 20.97466 | 79° | 16km/h | 29582m | 7.1m/s | 0°C | 0% | 0hPa | 2.7V | 00:00:00 | 00:00:00 | 00:00:00 | |
| HA6NAB-11 | 2026-09-04 12:33:46 | 48.61446 | 20.97460 | 68° | 15km/h | 29575m | 5.5m/s | -44.6°C | 0.8% | 13.3hPa | 2.7V | 00:00:00 | 00:00:00 | 00:00:00 | |
| SQ9EZE-14 | 2026-09-04 12:33:44 | 48.61442 | 20.97449 | 61° | 20km/h | 29562m | 8.7m/s | -44.6°C | 0.8% | 13.4hPa | 2.7V | 00:00:00 | 00:00:00 | 00:00:00 | |
| PG1ADW-2 | 2026-09-04 12:33:40 | 48.61430 | 20.97422 | 61° | 18km/h | 29528m | 4.9m/s | -44.5°C | 2.8% | 13.4hPa | 2.7V | 00:00:00 | 00:00:00 | 00:00:00 | |
| SQ9EZE-13 | 2026-09-04 12:33:38 | 48.61429 | 20.97418 | 69° | 15km/h | 29522m | 6.5m/s | -44.5°C | 0.7% | 13.4hPa | 2.7V | 00:00:00 | 00:00:00 | 00:00:00 | |
| OE5DXL-15 | 2026-09-04 12:33:34 | 48.61423 | 20.97382 | 71° | 16km/h | 29489m | 9.0m/s | -44.6°C | 2.7% | 13.5hPa | 2.7V | 00:00:00 | 00:00:00 | 00:00:00 | |
| HA6NAB-11 | 2026-09-04 12:33:29 | 48.61415 | 20.97366 | 57° | 18km/h | 29462m | 8.7m/s | -44.7°C | 0.8% | 13.6hPa | 2.7V | 00:00:00 | 00:00:00 | 00:00:00 | |
| OE5DRO-10 | 2026-09-04 12:33:28 | 48.61410 | 20.97351 | 64° | 18km/h | 29449m | 5.7m/s | -44.8°C | 2.8% | 13.5hPa | 2.7V | 00:00:00 | 00:00:00 | 00:00:00 | |
| SQ9PSP-11 | 2026-09-04 12:33:23 | 48.61403 | 20.97323 | 81° | 20km/h | 29423m | 6.1m/s | 0°C | 0% | 0hPa | 2.6V | 00:00:00 | 00:00:00 | 00:00:00 | |
| PG1ADW-2 | 2026-09-04 12:33:20 | 48.61398 | 20.97289 | 73° | 13km/h | 29397m | 6.5m/s | -45.1°C | 2.8% | 13.7hPa | 2.6V | 00:00:00 | 01:46:23 | 00:00:00 | |
| HA6NAB-11 | 2026-09-04 12:33:17 | 48.61396 | 20.97280 | 76° | 5km/h | 29382m | 6.4m/s | -45.1°C | 0.8% | 13.7hPa | 2.6V | 00:00:00 | 00:00:00 | 00:00:00 | |
| HA6NAB-11 | 2026-09-04 12:33:11 | 48.61396 | 20.97253 | 97° | 16km/h | 29343m | 7.5m/s | -45.2°C | 0.8% | 13.8hPa | 2.6V | 00:00:00 | 00:00:00 | 00:00:00 | |
| OE5DRO-10 | 2026-09-04 12:33:08 | 48.61397 | 20.97232 | 84° | 11km/h | 29317m | 7.6m/s | -45.3°C | 2.9% | 13.8hPa | 2.6V | 00:00:00 | 00:00:00 | 00:00:00 | |
| SQ9EZE-13 | 2026-09-04 12:33:07 | 48.61397 | 20.97232 | 84° | 15km/h | 29317m | 7.6m/s | -45.3°C | 0.8% | 13.9hPa | 2.6V | 00:00:00 | 00:00:00 | 00:00:00 | |
| HA6NAB-11 | 2026-09-04 12:33:05 | 48.61395 | 20.97220 | 76° | 15km/h | 29304m | 5.7m/s | -45.4°C | 0.8% | 13.9hPa | 2.6V | 00:00:00 | 00:00:00 | 00:00:00 | |
| OE5DXL-15 | 2026-09-04 12:33:04 | 48.61394 | 20.97213 | 58° | 11km/h | 29290m | 7.4m/s | -45.3°C | 2.9% | 13.9hPa | 2.6V | 00:00:00 | 00:00:00 | 08:30:00 | |
| SQ9PSP-11 | 2026-09-04 12:33:03 | 48.61394 | 20.97213 | 59° | 5km/h | 29290m | 7.4m/s | 0°C | 0% | 0hPa | 2.6V | 00:00:00 | 00:00:00 | 00:00:00 | |
| PG1ADW-2 | 2026-09-04 12:32:59 | 48.61386 | 20.97199 | 59° | 13km/h | 29258m | 5.8m/s | -45.4°C | 2.9% | 13.9hPa | 2.6V | 00:00:00 | 00:00:00 | 00:00:00 | |
| HA6NAB-11 | 2026-09-04 12:32:54 | 48.61378 | 20.97180 | 58° | 4km/h | 29233m | 5.9m/s | -45.4°C | 0.8% | 14.0hPa | 2.6V | 00:00:00 | 00:00:00 | 00:00:00 | |
| SQ9EZE-13 | 2026-09-04 12:32:52 | 48.61377 | 20.97177 | 76° | 4km/h | 29221m | 8.0m/s | -45.4°C | 0.8% | 14.1hPa | 2.6V | 00:00:00 | 00:00:00 | 00:00:00 | |
| OE5DRO-10 | 2026-09-04 12:32:49 | 48.61375 | 20.97173 | 319° | 13km/h | 29194m | 7.9m/s | -45.4°C | 2.9% | 14.1hPa | 2.6V | 00:00:00 | 00:00:00 | 00:00:00 | |
| HA6NAB-11 | 2026-09-04 12:32:48 | 48.61375 | 20.97173 | 320° | 4km/h | 29194m | 7.9m/s | -45.5°C | 0.8% | 14.1hPa | 2.6V | 00:00:00 | 00:00:00 | 00:00:00 | |
| HA6NAB-11 | 2026-09-04 12:32:42 | 48.61358 | 20.97167 | 40° | 24km/h | 29154m | 5.3m/s | -45.7°C | 0.8% | 14.2hPa | 2.6V | 00:00:00 | 00:00:00 | 00:00:00 | |
| PG1ADW-2 | 2026-09-04 12:32:39 | 48.61343 | 20.97149 | 41° | 11km/h | 29128m | 5.8m/s | -45.7°C | 2.9% | 14.2hPa | 2.6V | 00:00:00 | 00:00:00 | 00:00:00 | |
| SQ9EZE-13 | 2026-09-04 12:32:36 | 48.61339 | 20.97143 | 40° | 11km/h | 29114m | 7.5m/s | -45.8°C | 0.8% | 14.3hPa | 2.6V | 00:00:00 | 00:00:00 | 00:00:00 | |
| OE5DXL-15 | 2026-09-04 12:32:34 | 48.61333 | 20.97138 | 352° | 11km/h | 29097m | 7.3m/s | -45.7°C | 2.9% | 14.3hPa | 2.6V | 00:00:00 | 00:00:00 | 00:00:00 | |
| OE5DRO-10 | 2026-09-04 12:32:30 | 48.61327 | 20.97148 | 337° | 11km/h | 29070m | 6.7m/s | -45.7°C | 2.9% | 14.3hPa | 2.6V | 00:00:00 | 00:00:00 | 00:00:00 | |
| SQ9EZE-13 | 2026-09-04 12:32:20 | 48.61302 | 20.97129 | 54° | 7km/h | 29010m | 8.2m/s | -45.7°C | 0.8% | 14.5hPa | 2.6V | 00:00:00 | 00:00:00 | 00:00:00 | |
| PG1ADW-2 | 2026-09-04 12:32:19 | 48.61301 | 20.97124 | 119° | 13km/h | 28998m | 4.9m/s | -45.7°C | 2.9% | 14.5hPa | 2.6V | 00:00:00 | 00:00:00 | 00:00:00 | |
| OE5DRO-10 | 2026-09-04 12:32:11 | 48.61308 | 20.97107 | 88° | 15km/h | 28945m | 5.7m/s | -45.8°C | 2.9% | 14.6hPa | 2.7V | 00:00:00 | 00:00:00 | 00:00:00 | |
| GYPAP8-17 | 2026-09-04 12:32:08 | 48.61309 | 20.97091 | 109° | 13km/h | 28925m | 5.4m/s | -45.9°C | 0.8% | 14.7hPa | 2.7V | 00:00:00 | 00:00:00 | 00:00:00 | |
| OE5DXL-15 | 2026-09-04 12:32:04 | 48.61314 | 20.97075 | 150° | 15km/h | 28899m | 6.1m/s | -45.9°C | 2.9% | 14.7hPa | 2.7V | 00:00:00 | 00:00:00 | 00:00:00 | |
| PG1ADW-2 | 2026-09-04 12:31:59 | 48.61332 | 20.97068 | 133° | 15km/h | 28865m | 8.4m/s | -45.7°C | 2.9% | 14.8hPa | 2.7V | 00:00:00 | 01:45:02 | 00:00:00 | |
| OE5DRO-10 | 2026-09-04 12:31:52 | 48.61339 | 20.97032 | 116° | 13km/h | 28818m | 7.7m/s | -45.6°C | 2.9% | 14.9hPa | 2.7V | 00:00:00 | 00:00:00 | 00:00:00 | |
| SQ9EZE-13 | 2026-09-04 12:31:49 | 48.61342 | 20.97024 | 125° | 13km/h | 28803m | 5.8m/s | -45.7°C | 0.8% | 15.0hPa | 2.7V | 00:00:00 | 00:00:00 | 00:00:00 | |
| LZ4TU-5 | 2026-09-04 12:31:43 | 48.61360 | 20.97011 | 125° | 15km/h | 28766m | 8.1m/s | 0°C | 0% | 0hPa | 2.7V | 00:00:00 | 00:00:00 | 00:00:00 | |
| PG1ADW-2 | 2026-09-04 12:31:39 | 48.61361 | 20.96980 | 87° | 13km/h | 28730m | 6.4m/s | -45.8°C | 2.9% | 15.1hPa | 2.7V | 00:00:00 | 00:00:00 | 00:00:00 | |
| SQ9EZE-14 | 2026-09-04 12:31:38 | 48.61361 | 20.96980 | 88° | 9km/h | 28730m | 6.5m/s | -45.8°C | 0.8% | 15.2hPa | 2.7V | 00:00:00 | 00:00:00 | 00:00:00 | |
| SQ9EZE-13 | 2026-09-04 12:31:34 | 48.61363 | 20.96964 | 147° | 13km/h | 28699m | 6.6m/s | -46.1°C | 0.8% | 15.2hPa | 2.7V | 00:00:00 | 00:00:00 | 00:00:00 | |
| OE5DRO-10 | 2026-09-04 12:31:33 | 48.61366 | 20.96962 | 162° | 15km/h | 28691m | 7.7m/s | -46.0°C | 3.0% | 15.2hPa | 2.7V | 00:00:00 | 00:00:00 | 08:30:00 | |
| SQ9EZE-14 | 2026-09-04 12:31:23 | 48.61378 | 20.96937 | 142° | 13km/h | 28633m | 6.0m/s | -46.3°C | 0.8% | 15.4hPa | 2.6V | 00:00:00 | 00:00:00 | 00:00:00 | |
| PG1ADW-2 | 2026-09-04 12:31:19 | 48.61397 | 20.96923 | 175° | 20km/h | 28602m | 6.2m/s | -46.3°C | 3.0% | 15.4hPa | 2.6V | 00:00:00 | 00:00:00 | 08:30:00 | |
| SQ9EZE-13 | 2026-09-04 12:31:18 | 48.61397 | 20.96923 | 175° | 20km/h | 28602m | 6.2m/s | -46.4°C | 0.8% | 15.5hPa | 2.6V | 00:00:00 | 00:00:00 | 00:00:00 | |
| OE5DRO-10 | 2026-09-04 12:31:14 | 48.61420 | 20.96907 | 131° | 18km/h | 28567m | 9.0m/s | -46.3°C | 3.0% | 15.5hPa | 2.6V | 00:00:00 | 00:00:00 | 00:00:00 | |
| OE5DXL-15 | 2026-09-04 12:31:04 | 48.61447 | 20.96841 | 140° | 15km/h | 28501m | 5.7m/s | -46.3°C | 2.9% | 15.7hPa | 2.6V | 00:00:00 | 00:00:00 | 00:00:00 | |
| SQ9EZE-13 | 2026-09-04 12:31:02 | 48.61450 | 20.96837 | 146° | 18km/h | 28494m | 8.3m/s | -46.4°C | 0.8% | 15.7hPa | 2.6V | 00:00:00 | 00:00:00 | 00:00:00 | |
| PG1ADW-2 | 2026-09-04 12:30:59 | 48.61464 | 20.96826 | 154° | 15km/h | 28468m | 8.6m/s | -46.4°C | 3.0% | 15.7hPa | 2.6V | 00:00:00 | 00:00:00 | 00:00:00 | |
| GYPAP8-17 | 2026-09-04 12:30:56 | 48.61465 | 20.96823 | 123° | 5km/h | 28454m | 5.6m/s | -46.4°C | 0.8% | 15.8hPa | 2.6V | 00:00:00 | 00:00:00 | 00:00:00 | |
| OE5DRO-10 | 2026-09-04 12:30:55 | 48.61468 | 20.96817 | 120° | 16km/h | 28440m | 7.8m/s | -46.4°C | 3.0% | 15.8hPa | 2.6V | 00:00:00 | 00:00:00 | 00:00:00 | |
| SQ9EZE-13 | 2026-09-04 12:30:47 | 48.61480 | 20.96782 | 137° | 18km/h | 28394m | 7.9m/s | -46.5°C | 0.8% | 15.9hPa | 2.6V | 00:00:00 | 00:00:00 | 00:00:00 | |
| PG1ADW-2 | 2026-09-04 12:30:39 | 48.61492 | 20.96723 | 97° | 15km/h | 28335m | 5.6m/s | -46.9°C | 3.0% | 16.1hPa | 2.6V | 00:00:00 | 01:43:42 | 00:00:00 | |
| OE5DRO-10 | 2026-09-04 12:30:36 | 48.61493 | 20.96710 | 114° | 16km/h | 28314m | 6.4m/s | -46.9°C | 3.1% | 16.1hPa | 2.6V | 00:00:00 | 00:00:00 | 00:00:00 | |
| OE5DXL-15 | 2026-09-04 12:30:34 | 48.61495 | 20.96711 | 204° | 22km/h | 28304m | 6.1m/s | -47.0°C | 3.1% | 16.1hPa | 2.7V | 00:00:00 | 00:00:00 | 00:00:00 | |
| SQ9EZE-13 | 2026-09-04 12:30:31 | 48.61501 | 20.96712 | 164° | 13km/h | 28290m | 6.1m/s | -47.0°C | 0.9% | 16.2hPa | 2.7V | 00:00:00 | 00:00:00 | 00:00:00 | |
| HA6NAB-11 | 2026-09-04 12:30:23 | 48.61488 | 20.96660 | 76° | 29km/h | 28238m | 5.8m/s | -47.2°C | 0.8% | 16.3hPa | 2.7V | 00:00:00 | 00:00:00 | 00:00:00 | |
| OE5DRO-10 | 2026-09-04 12:30:18 | 48.61483 | 20.96610 | 100° | 20km/h | 28191m | 5.6m/s | -47.2°C | 3.3% | 16.4hPa | 2.7V | 00:00:00 | 00:00:00 | 00:00:00 | |
| SQ9EZE-13 | 2026-09-04 12:30:17 | 48.61483 | 20.96610 | 101° | 16km/h | 28191m | 5.6m/s | -47.2°C | 0.9% | 16.5hPa | 2.7V | 00:00:00 | 00:00:00 | 00:00:00 | |
| HA6NAB-11 | 2026-09-04 12:30:11 | 48.61467 | 20.96571 | 53° | 40km/h | 28161m | 5.5m/s | -47.4°C | 0.9% | 16.5hPa | 2.7V | 00:00:00 | 00:00:00 | 00:00:00 | |
| HA6NAB-11 | 2026-09-04 12:30:06 | 48.61445 | 20.96497 | 58° | 18km/h | 28123m | 6.8m/s | -47.1°C | 0.8% | 16.6hPa | 2.7V | 00:00:00 | 00:00:00 | 00:00:00 | |
| OE5DXL-15 | 2026-09-04 12:30:04 | 48.61441 | 20.96493 | 329° | 13km/h | 28109m | 6.9m/s | -46.9°C | 3.1% | 16.6hPa | 2.7V | 00:00:00 | 00:00:00 | 00:00:00 | |
| HA6NAB-11 | 2026-09-04 12:30:00 | 48.61442 | 20.96498 | 248° | 5km/h | 28088m | 5.3m/s | -47.0°C | 0.9% | 16.7hPa | 2.6V | 00:00:00 | 00:00:00 | 00:00:00 | |
| HA6NAB-11 | 2026-09-04 12:29:54 | 48.61430 | 20.96477 | 78° | 24km/h | 28050m | 6.5m/s | -46.9°C | 0.8% | 16.8hPa | 2.6V | 00:00:00 | 00:00:00 | 00:00:00 | |
| SQ9EZE-13 | 2026-09-04 12:29:44 | 48.61422 | 20.96478 | 146° | 7km/h | 27979m | 4.6m/s | -47.0°C | 0.9% | 17.0hPa | 2.6V | 00:00:00 | 00:00:00 | 00:00:00 | |
| LZ4TU-5 | 2026-09-04 12:29:42 | 48.61423 | 20.96475 | 110° | 13km/h | 27974m | 6.1m/s | 0°C | 0% | 0hPa | 2.6V | 00:00:00 | 00:00:00 | 00:00:00 | |
| LZ4TU-5 | 2026-09-04 12:29:37 | 48.61417 | 20.96456 | 316° | 5km/h | 27942m | 7.9m/s | 0°C | 0% | 0hPa | 2.6V | 00:00:00 | 00:00:00 | 00:00:00 | |
| OE5DXL-15 | 2026-09-04 12:29:34 | 48.61417 | 20.96477 | 271° | 13km/h | 27913m | 5.4m/s | 0°C | 0% | 0hPa | 2.6V | 00:00:00 | 00:00:00 | 00:00:00 | |
| SQ9EZE-13 | 2026-09-04 12:29:25 | 48.61418 | 20.96503 | 2° | 7km/h | 27859m | 5.2m/s | -47.2°C | 0.9% | 17.3hPa | 2.6V | 00:00:00 | 00:00:00 | 00:00:00 | |
| GYPAP8-17 | 2026-09-04 12:29:13 | 48.61444 | 20.96540 | 176° | 13km/h | 27778m | 8.3m/s | -47.2°C | 0.9% | 17.5hPa | 2.6V | 00:00:00 | 00:00:00 | 00:00:00 | |
| SQ9EZE-13 | 2026-09-04 12:29:11 | 48.61451 | 20.96538 | 171° | 7km/h | 27758m | 8.4m/s | -47.1°C | 0.8% | 17.6hPa | 2.6V | 00:00:00 | 00:00:00 | 00:00:00 | |
| OE5DXL-15 | 2026-09-04 12:29:04 | 48.61470 | 20.96562 | 225° | 15km/h | 27710m | 7.0m/s | 0°C | 0% | 0hPa | 2.6V | 00:00:00 | 01:42:07 | 00:00:00 | |
| OE5DRO-10 | 2026-09-04 12:29:03 | 48.61475 | 20.96567 | 209° | 15km/h | 27702m | 8.6m/s | -47.1°C | 3.1% | 17.7hPa | 2.6V | 00:00:00 | 00:00:00 | 00:00:00 | |
| SQ9EZE-13 | 2026-09-04 12:28:55 | 48.61500 | 20.96549 | 139° | 11km/h | 27647m | 4.7m/s | -46.8°C | 0.9% | 17.9hPa | 2.6V | 00:00:00 | 00:00:00 | 00:00:00 | |
| PG1ADW-2 | 2026-09-04 12:28:44 | 48.61537 | 20.96530 | 131° | 20km/h | 27571m | 5.4m/s | -46.7°C | 3.1% | 18.0hPa | 2.6V | 00:00:00 | 00:00:00 | 00:00:00 | |
| OE5DRO-10 | 2026-09-04 12:28:41 | 48.61541 | 20.96517 | 115° | 20km/h | 27551m | 7.5m/s | -46.7°C | 3.0% | 18.1hPa | 2.6V | 00:00:00 | 00:00:00 | 00:00:00 | |
| SQ9EZE-13 | 2026-09-04 12:28:38 | 48.61544 | 20.96506 | 107° | 15km/h | 27538m | 7.1m/s | -46.9°C | 0.8% | 18.2hPa | 2.6V | 00:00:00 | 00:00:00 | 00:00:00 | |
| OE5DXL-15 | 2026-09-04 12:28:34 | 48.61547 | 20.96487 | 120° | 22km/h | 27503m | 6.8m/s | 0°C | 0% | 0hPa | 2.6V | 00:00:00 | 00:00:00 | 00:00:00 | |
| PG1ADW-2 | 2026-09-04 12:28:24 | 48.61547 | 20.96393 | 53° | 24km/h | 27434m | 8.0m/s | -47.7°C | 3.2% | 18.4hPa | 2.6V | 00:00:00 | 00:00:00 | 00:00:00 | |
| SQ9EZE-13 | 2026-09-04 12:28:23 | 48.61547 | 20.96393 | 54° | 27km/h | 27434m | 8.0m/s | -47.8°C | 0.9% | 18.5hPa | 2.6V | 00:00:00 | 00:00:00 | 00:00:00 | |
| OE5DRO-10 | 2026-09-04 12:28:22 | 48.61538 | 20.96380 | 40° | 22km/h | 27420m | 6.7m/s | -47.8°C | 3.2% | 18.4hPa | 2.6V | 00:00:00 | 00:00:00 | 00:00:00 | |
| SQ9EZE-13 | 2026-09-04 12:28:07 | 48.61485 | 20.96286 | 42° | 20km/h | 27324m | 5.3m/s | -47.7°C | 0.9% | 18.8hPa | 2.6V | 00:00:00 | 00:00:00 | 00:00:00 | |
| PG1ADW-2 | 2026-09-04 12:28:04 | 48.61478 | 20.96260 | 85° | 13km/h | 27296m | 6.1m/s | -47.4°C | 3.1% | 18.8hPa | 2.6V | 00:00:00 | 01:41:07 | 00:00:00 | |
| OE5DRO-10 | 2026-09-04 12:28:03 | 48.61478 | 20.96254 | 80° | 15km/h | 27288m | 8.9m/s | -47.4°C | 3.1% | 18.8hPa | 2.7V | 00:00:00 | 00:00:00 | 00:00:00 | |
| SP9SOS | 2026-09-04 12:28:01 | 48.61477 | 20.96248 | 71° | 15km/h | 27281m | 5.9m/s | 0°C | 0% | 0hPa | 2.7V | 00:00:00 | 00:00:00 | 00:00:00 | |
| GYPAP8-17 | 2026-09-04 12:27:54 | 48.61467 | 20.96224 | 4° | 13km/h | 27234m | 5.4m/s | -47.6°C | 0.9% | 19.1hPa | 2.7V | 00:00:00 | 00:00:00 | 00:00:00 | |
| SQ9EZE-13 | 2026-09-04 12:27:51 | 48.61461 | 20.96220 | 79° | 9km/h | 27216m | 7.4m/s | -47.6°C | 0.9% | 19.1hPa | 2.7V | 00:00:00 | 00:00:00 | 00:00:00 | |
| PG1ADW-2 | 2026-09-04 12:27:44 | 48.61471 | 20.96195 | 223° | 11km/h | 27162m | 4.7m/s | -47.9°C | 3.1% | 19.2hPa | 2.7V | 00:00:00 | 00:00:00 | 00:00:00 | |
| LZ4TU-5 | 2026-09-04 12:27:42 | 48.61472 | 20.96198 | 254° | 11km/h | 27156m | 7.3m/s | 0°C | 0% | 0hPa | 2.7V | 00:00:00 | 00:00:00 | 00:00:00 | |
| LZ4TU-5 | 2026-09-04 12:27:38 | 48.61469 | 20.96219 | 275° | 11km/h | 27130m | 7.2m/s | 0°C | 0% | 0hPa | 2.7V | 00:00:00 | 00:00:00 | 00:00:00 | |
| SQ9EZE-13 | 2026-09-04 12:27:36 | 48.61472 | 20.96223 | 182° | 11km/h | 27117m | 5.6m/s | -48.0°C | 0.9% | 19.4hPa | 2.7V | 00:00:00 | 00:00:00 | 00:00:00 | |
| PG1ADW-2 | 2026-09-04 12:27:24 | 48.61487 | 20.96204 | 46° | 16km/h | 27031m | 7.0m/s | -47.8°C | 3.2% | 19.6hPa | 2.7V | 00:00:00 | 00:00:00 | 00:00:00 | |
| SQ9EZE-13 | 2026-09-04 12:27:20 | 48.61483 | 20.96195 | 58° | 11km/h | 27011m | 8.6m/s | -48.1°C | 0.9% | 19.7hPa | 2.7V | 00:00:00 | 00:00:00 | 00:00:00 | |
| PG1ADW-2 | 2026-09-04 12:27:04 | 48.61438 | 20.96110 | 32° | 15km/h | 26902m | 7.3m/s | -47.9°C | 3.3% | 20.0hPa | 2.7V | 00:00:00 | 00:00:00 | 08:30:00 | |
| SQ9EZE-13 | 2026-09-04 12:26:49 | 48.61404 | 20.96038 | 44° | 9km/h | 26810m | 7.5m/s | -47.7°C | 0.9% | 20.3hPa | 2.7V | 00:00:00 | 00:00:00 | 00:00:00 | |
| PG1ADW-2 | 2026-09-04 12:26:44 | 48.61399 | 20.96016 | 68° | 9km/h | 26771m | 6.7m/s | -47.6°C | 3.2% | 20.4hPa | 2.7V | 00:00:00 | 01:39:47 | 00:00:00 | |
| GYPAP8-17 | 2026-09-04 12:26:43 | 48.61399 | 20.96016 | 68° | 9km/h | 26771m | 6.7m/s | -47.7°C | 0.9% | 20.5hPa | 2.7V | 00:00:00 | 00:00:00 | 00:00:00 | |
| SQ9EZE-14 | 2026-09-04 12:26:34 | 48.61397 | 20.95988 | 106° | 9km/h | 26709m | 5.2m/s | -47.6°C | 0.9% | 20.7hPa | 2.7V | 00:00:00 | 00:00:00 | 00:00:00 | |
| SQ9EZE-13 | 2026-09-04 12:26:33 | 48.61398 | 20.95985 | 100° | 11km/h | 26704m | 5.8m/s | -47.7°C | 0.9% | 20.7hPa | 2.7V | 00:00:00 | 00:00:00 | 00:00:00 | |
| PG1ADW-2 | 2026-09-04 12:26:24 | 48.61395 | 20.95950 | 71° | 13km/h | 26637m | 6.4m/s | -47.7°C | 3.2% | 20.8hPa | 2.7V | 00:00:00 | 00:00:00 | 00:00:00 | |
| HA6NAB-11 | 2026-09-04 12:26:23 | 48.61395 | 20.95950 | 71° | 9km/h | 26637m | 6.4m/s | -47.7°C | 0.9% | 20.9hPa | 2.7V | 00:00:00 | 00:00:00 | 00:00:00 | |
| SQ9EZE-13 | 2026-09-04 12:26:19 | 48.61399 | 20.95937 | 163° | 4km/h | 26603m | 6.4m/s | -47.7°C | 0.9% | 21.0hPa | 2.7V | 00:00:00 | 00:00:00 | 00:00:00 | |
| HA6NAB-11 | 2026-09-04 12:26:12 | 48.61408 | 20.95941 | 114° | 5km/h | 26563m | 7.8m/s | -47.5°C | 0.9% | 21.1hPa | 2.7V | 00:00:00 | 00:00:00 | 00:00:00 | |
| HA6NAB-11 | 2026-09-04 12:26:06 | 48.61395 | 20.95905 | 65° | 22km/h | 26523m | 6.1m/s | -47.8°C | 0.9% | 21.2hPa | 2.7V | 00:00:00 | 00:00:00 | 00:00:00 | |
| PG1ADW-2 | 2026-09-04 12:26:04 | 48.61387 | 20.95890 | 25° | 13km/h | 26504m | 5.8m/s | -47.9°C | 3.2% | 21.2hPa | 2.7V | 00:00:00 | 00:00:00 | 00:00:00 | |
| SQ9EZE-13 | 2026-09-04 12:26:03 | 48.61387 | 20.95890 | 25° | 13km/h | 26504m | 5.8m/s | -47.9°C | 0.9% | 21.3hPa | 2.7V | 00:00:00 | 00:00:00 | 00:00:00 | |
| HA6NAB-11 | 2026-09-04 12:26:00 | 48.61381 | 20.95886 | 48° | 5km/h | 26483m | 5.6m/s | -47.7°C | 0.9% | 21.4hPa | 2.7V | 00:00:00 | 00:00:00 | 00:00:00 | |
| OE5DRO-10 | 2026-09-04 12:25:48 | 48.61357 | 20.95836 | 58° | 9km/h | 26398m | 7.5m/s | -47.9°C | 3.2% | 21.6hPa | 2.7V | 00:00:00 | 00:00:00 | 08:30:00 | |
| SQ9EZE-13 | 2026-09-04 12:25:47 | 48.61357 | 20.95836 | 58° | 15km/h | 26398m | 7.5m/s | -47.9°C | 0.9% | 21.7hPa | 2.7V | 00:00:00 | 00:00:00 | 00:00:00 | |
| PG1ADW-2 | 2026-09-04 12:25:43 | 48.61345 | 20.95826 | 6° | 9km/h | 26367m | 5.8m/s | -48.0°C | 3.2% | 21.7hPa | 2.7V | 00:00:00 | 00:00:00 | 00:00:00 | |
| LZ4TU-5 | 2026-09-04 12:25:33 | 48.61328 | 20.95810 | 315° | 4km/h | 26309m | 4.9m/s | 0°C | 0% | 0hPa | 2.7V | 00:00:00 | 00:00:00 | 00:00:00 | |
| SQ9EZE-13 | 2026-09-04 12:25:31 | 48.61327 | 20.95814 | 297° | 9km/h | 26295m | 8.4m/s | -48.3°C | 0.9% | 22.0hPa | 2.7V | 00:00:00 | 00:00:00 | 00:00:00 | |
| SP9KGR-15 | 2026-09-04 12:25:30 | 48.61325 | 20.95817 | 310° | 11km/h | 26288m | 6.2m/s | -48.4°C | 0.9% | 22.0hPa | 2.7V | 00:00:00 | 00:00:00 | 00:00:00 | |
| OE5DRO-10 | 2026-09-04 12:25:29 | 48.61321 | 20.95822 | 328° | 11km/h | 26276m | 6.7m/s | -48.4°C | 3.2% | 22.0hPa | 2.7V | 00:00:00 | 00:00:00 | 00:00:00 | |
| LZ4TU-5 | 2026-09-04 12:25:28 | 48.61321 | 20.95823 | 328° | 9km/h | 26276m | 6.7m/s | 0°C | 0% | 0hPa | 2.7V | 00:00:00 | 00:00:00 | 00:00:00 | |
| PG1ADW-2 | 2026-09-04 12:25:23 | 48.61320 | 20.95810 | 106° | 13km/h | 26236m | 4.1m/s | -49.0°C | 3.3% | 22.2hPa | 2.7V | 00:00:00 | 01:38:26 | 00:00:00 | |
| SP9SOS | 2026-09-04 12:25:16 | 48.61333 | 20.95814 | 240° | 9km/h | 26197m | 5.2m/s | 0°C | 0% | 0hPa | 2.7V | 00:00:00 | 00:00:00 | 00:00:00 | |
| SQ9EZE-13 | 2026-09-04 12:25:15 | 48.61334 | 20.95816 | 227° | 7km/h | 26192m | 4.6m/s | -49.1°C | 1.0% | 22.3hPa | 2.7V | 00:00:00 | 00:00:00 | 00:00:00 | |
| OE5DRO-10 | 2026-09-04 12:25:10 | 48.61348 | 20.95804 | 127° | 18km/h | 26156m | 5.1m/s | -49.2°C | 3.3% | 22.4hPa | 2.7V | 00:00:00 | 00:00:00 | 00:00:00 | |
| SP9KGR-15 | 2026-09-04 12:25:04 | 48.61367 | 20.95801 | 194° | 16km/h | 26127m | 6.6m/s | -49.3°C | 0.9% | 22.6hPa | 2.7V | 00:00:00 | 00:00:00 | 00:00:00 | |
| PG1ADW-2 | 2026-09-04 12:25:03 | 48.61375 | 20.95802 | 169° | 18km/h | 26115m | 5.3m/s | -49.4°C | 3.4% | 22.6hPa | 2.7V | 00:00:00 | 00:00:00 | 00:00:00 | |
| SQ9EZE-13 | 2026-09-04 12:24:58 | 48.61394 | 20.95786 | 139° | 26km/h | 26090m | 4.8m/s | -49.4°C | 1.0% | 22.7hPa | 2.7V | 00:00:00 | 00:00:00 | 00:00:00 | |
| OE5DRO-10 | 2026-09-04 12:24:51 | 48.61419 | 20.95748 | 163° | 15km/h | 26043m | 5.5m/s | -49.3°C | 3.4% | 22.8hPa | 2.7V | 00:00:00 | 00:00:00 | 00:00:00 | |
| SP9KGR-15 | 2026-09-04 12:24:49 | 48.61422 | 20.95746 | 158° | 15km/h | 26037m | 7.8m/s | -49.4°C | 1.0% | 22.9hPa | 2.7V | 00:00:00 | 00:00:00 | 00:00:00 | |
| PG1ADW-2 | 2026-09-04 12:24:43 | 48.61439 | 20.95706 | 98° | 11km/h | 25994m | 7.4m/s | -49.2°C | 3.3% | 23.0hPa | 2.7V | 00:00:00 | 00:00:00 | 00:00:00 | |
| GYPAP8-17 | 2026-09-04 12:24:42 | 48.61439 | 20.95700 | 83° | 15km/h | 25987m | 6.3m/s | -49.3°C | 0.9% | 23.0hPa | 2.7V | 00:00:00 | 00:00:00 | 00:00:00 | |
| SP9KGR-15 | 2026-09-04 12:24:33 | 48.61444 | 20.95677 | 97° | 13km/h | 25939m | 5.3m/s | -49.5°C | 0.9% | 23.2hPa | 2.7V | 00:00:00 | 00:00:00 | 00:00:00 | |
| OE5DRO-10 | 2026-09-04 12:24:32 | 48.61446 | 20.95664 | 106° | 11km/h | 25926m | 7.0m/s | 0°C | 0% | 0hPa | 2.7V | 00:00:00 | 00:00:00 | 00:00:00 | |
| SQ9EZE-14 | 2026-09-04 12:24:27 | 48.61449 | 20.95641 | 58° | 9km/h | 25905m | 7.8m/s | -49.7°C | 1.0% | 23.3hPa | 2.7V | 00:00:00 | 00:00:00 | 00:00:00 | |
| SQ9EZE-13 | 2026-09-04 12:24:26 | 48.61447 | 20.95640 | 9° | 9km/h | 25899m | 5.4m/s | -49.7°C | 1.0% | 23.4hPa | 2.7V | 00:00:00 | 00:00:00 | 00:00:00 | |
| PG1ADW-2 | 2026-09-04 12:24:23 | 48.61438 | 20.95640 | 359° | 11km/h | 25874m | 5.5m/s | -49.8°C | 3.4% | 23.4hPa | 2.7V | 00:00:00 | 00:00:00 | 00:00:00 | |
| OE5DRO-10 | 2026-09-04 12:24:13 | 48.61422 | 20.95621 | 21° | 18km/h | 25813m | 5.3m/s | 0°C | 0% | 0hPa | 2.7V | 00:00:00 | 00:00:00 | 00:00:00 | |
| SQ9EZE-14 | 2026-09-04 12:24:11 | 48.61417 | 20.95619 | 18° | 20km/h | 25808m | 5.3m/s | -50.0°C | 1.0% | 23.7hPa | 2.7V | 00:00:00 | 00:00:00 | 00:00:00 | |
| SQ9EZE-13 | 2026-09-04 12:24:10 | 48.61408 | 20.95614 | 22° | 18km/h | 25795m | 6.1m/s | -49.9°C | 1.0% | 23.8hPa | 2.7V | 00:00:00 | 00:00:00 | 00:00:00 | |
| HA6NAB-11 | 2026-09-04 12:24:06 | 48.61395 | 20.95610 | 354° | 18km/h | 25778m | 6.8m/s | -49.9°C | 1.0% | 23.8hPa | 2.7V | 00:00:00 | 00:00:00 | 00:00:00 | |
| HA6NAB-11 | 2026-09-04 12:24:01 | 48.61371 | 20.95618 | 14° | 15km/h | 25747m | 5.6m/s | -49.8°C | 1.0% | 23.9hPa | 2.7V | 00:00:00 | 00:00:00 | 00:00:00 | |
| HA6NAB-11 | 2026-09-04 12:23:55 | 48.61348 | 20.95617 | 6° | 15km/h | 25712m | 7.5m/s | -49.8°C | 1.0% | 24.1hPa | 2.7V | 00:00:00 | 00:00:00 | 00:00:00 | |
| OE5DRO-10 | 2026-09-04 12:23:54 | 48.61342 | 20.95615 | 2° | 13km/h | 25699m | 5.0m/s | 0°C | 0% | 0hPa | 2.7V | 00:00:00 | 00:00:00 | 00:00:00 | |
| HA6NAB-11 | 2026-09-04 12:23:50 | 48.61336 | 20.95621 | 320° | 13km/h | 25679m | 5.5m/s | -50.0°C | 1.0% | 24.2hPa | 2.7V | 00:00:00 | 00:00:00 | 00:00:00 | |
| HA6NAB-11 | 2026-09-04 12:23:44 | 48.61319 | 20.95627 | 351° | 18km/h | 25642m | 5.8m/s | -50.0°C | 1.0% | 24.3hPa | 2.7V | 00:00:00 | 00:00:00 | 00:00:00 | |
| SQ9EZE-13 | 2026-09-04 12:23:39 | 48.61298 | 20.95622 | 357° | 4km/h | 25606m | 7.5m/s | -50.0°C | 1.0% | 24.4hPa | 2.7V | 00:00:00 | 00:00:00 | 00:00:00 | |
| HA6NAB-11 | 2026-09-04 12:23:33 | 48.61303 | 20.95629 | 0° | 0km/h | 25575m | 4.7m/s | -49.9°C | 1.0% | 24.6hPa | 2.7V | 00:00:00 | 00:00:00 | 00:00:00 | |
| SP9KGR-15 | 2026-09-04 12:23:32 | 48.61302 | 20.95629 | 326° | 4km/h | 25570m | 5.9m/s | -49.9°C | 1.0% | 24.6hPa | 2.7V | 00:00:00 | 00:00:00 | 00:00:00 | |
| HA6NAB-11 | 2026-09-04 12:23:28 | 48.61292 | 20.95632 | 12° | 13km/h | 25546m | 7.4m/s | -50.0°C | 1.0% | 24.7hPa | 2.7V | 00:00:00 | 00:00:00 | 00:00:00 | |
| GYPAP8-17 | 2026-09-04 12:23:26 | 48.61288 | 20.95627 | 67° | 11km/h | 25533m | 4.7m/s | -50.0°C | 1.0% | 24.7hPa | 2.7V | 00:00:00 | 00:00:00 | 00:00:00 | |
| LZ4TU-5 | 2026-09-04 12:23:25 | 48.61288 | 20.95624 | 87° | 7km/h | 25528m | 5.8m/s | 0°C | 0% | 0hPa | 2.7V | 00:00:00 | 00:00:00 | 00:00:00 | |
| HA6NAB-11 | 2026-09-04 12:23:23 | 48.61289 | 20.95622 | 191° | 5km/h | 25514m | 6.0m/s | -50.1°C | 1.0% | 24.8hPa | 2.7V | 00:00:00 | 00:00:00 | 00:00:00 | |
| LZ4TU-5 | 2026-09-04 12:23:20 | 48.61293 | 20.95621 | 129° | 5km/h | 25495m | 6.6m/s | 0°C | 0% | 0hPa | 2.7V | 00:00:00 | 00:00:00 | 00:00:00 | |
| HA6NAB-11 | 2026-09-04 12:23:17 | 48.61293 | 20.95617 | 41° | 2km/h | 25476m | 7.5m/s | -50.2°C | 1.0% | 24.9hPa | 2.7V | 00:00:00 | 00:00:00 | 00:00:00 | |
| SP9KGR-15 | 2026-09-04 12:23:16 | 48.61293 | 20.95616 | 56° | 2km/h | 25469m | 5.7m/s | -50.2°C | 1.0% | 25.0hPa | 2.7V | 00:00:00 | 00:00:00 | 00:00:00 | |
| HA6NAB-11 | 2026-09-04 12:23:12 | 48.61295 | 20.95603 | 106° | 13km/h | 25445m | 5.2m/s | -50.2°C | 1.0% | 25.1hPa | 2.7V | 00:00:00 | 00:00:00 | 00:00:00 | |
| SQ9EZE-13 | 2026-09-04 12:23:08 | 48.61299 | 20.95585 | 112° | 15km/h | 25415m | 6.6m/s | -50.2°C | 1.0% | 25.2hPa | 2.7V | 00:00:00 | 00:00:00 | 00:00:00 | |
| HA6NAB-11 | 2026-09-04 12:23:05 | 48.61301 | 20.95573 | 99° | 18km/h | 25404m | 4.9m/s | -50.1°C | 1.0% | 25.2hPa | 2.7V | 00:00:00 | 00:00:00 | 00:00:00 | |
| PG1ADW-2 | 2026-09-04 12:23:01 | 48.61303 | 20.95549 | 117° | 13km/h | 25375m | 6.3m/s | -50.2°C | 3.5% | 25.3hPa | 2.7V | 00:00:00 | 01:36:04 | 08:30:00 | |
| HA6NAB-11 | 2026-09-04 12:22:59 | 48.61305 | 20.95544 | 126° | 18km/h | 25368m | 7.0m/s | -50.3°C | 1.0% | 25.4hPa | 2.6V | 00:00:00 | 00:00:00 | 00:00:00 | |
| SP9KGR-15 | 2026-09-04 12:22:57 | 48.61312 | 20.95532 | 136° | 24km/h | 25356m | 4.7m/s | -50.4°C | 1.0% | 25.4hPa | 2.6V | 00:00:00 | 00:00:00 | 00:00:00 | |
| SQ9EZE-13 | 2026-09-04 12:22:52 | 48.61332 | 20.95510 | 150° | 18km/h | 25325m | 6.6m/s | -50.5°C | 1.0% | 25.5hPa | 2.6V | 00:00:00 | 00:00:00 | 00:00:00 | |
| HA6NAB-11 | 2026-09-04 12:22:50 | 48.61337 | 20.95504 | 120° | 7km/h | 25315m | 5.4m/s | -50.5°C | 1.0% | 25.6hPa | 2.6V | 00:00:00 | 00:00:00 | 00:00:00 | |
| HA6NAB-11 | 2026-09-04 12:22:42 | 48.61329 | 20.95484 | 89° | 9km/h | 25264m | 7.1m/s | -50.5°C | 0.9% | 25.8hPa | 2.6V | 00:00:00 | 00:00:00 | 00:00:00 | |
| PG1ADW-2 | 2026-09-04 12:22:41 | 48.61330 | 20.95478 | 109° | 13km/h | 25251m | 5.9m/s | -50.5°C | 3.4% | 25.8hPa | 2.6V | 00:00:00 | 00:00:00 | 00:00:00 | |
| HA6NAB-11 | 2026-09-04 12:22:37 | 48.61334 | 20.95469 | 0° | 0km/h | 25227m | 6.5m/s | -50.7°C | 1.0% | 25.9hPa | 2.6V | 00:00:00 | 00:00:00 | 00:00:00 | |
| SQ9EZE-13 | 2026-09-04 12:22:35 | 48.61333 | 20.95471 | 322° | 9km/h | 25220m | 7.7m/s | -50.8°C | 1.0% | 25.9hPa | 2.6V | 00:00:00 | 00:00:00 | 00:00:00 | |
| HA6NAB-11 | 2026-09-04 12:22:30 | 48.61316 | 20.95473 | 35° | 15km/h | 25190m | 5.1m/s | -51.4°C | 1.0% | 26.0hPa | 2.6V | 00:00:00 | 00:00:00 | 00:00:00 | |
| OE5DRO-10 | 2026-09-04 12:22:27 | 48.61303 | 20.95458 | 51° | 13km/h | 25165m | 5.8m/s | 0°C | 0% | 0hPa | 2.6V | 00:00:00 | 00:00:00 | 00:00:00 | |
| PG1ADW-2 | 2026-09-04 12:22:21 | 48.61288 | 20.95445 | 350° | 9km/h | 25126m | 5.7m/s | -51.9°C | 3.8% | 26.3hPa | 2.6V | 00:00:00 | 00:00:00 | 00:00:00 | |
| HA6NAB-11 | 2026-09-04 12:22:19 | 48.61284 | 20.95446 | 349° | 16km/h | 25120m | 6.9m/s | -52.0°C | 1.1% | 26.4hPa | 2.6V | 00:00:00 | 00:00:00 | 00:00:00 | |
| HA6NAB-11 | 2026-09-04 12:22:11 | 48.61259 | 20.95441 | 55° | 9km/h | 25069m | 6.8m/s | -52.0°C | 1.1% | 26.5hPa | 2.6V | 00:00:00 | 00:00:00 | 00:00:00 | |
| OE5DRO-10 | 2026-09-04 12:22:06 | 48.61249 | 20.95436 | 355° | 9km/h | 25034m | 6.0m/s | 0°C | 0% | 0hPa | 2.6V | 00:00:00 | 00:00:00 | 00:00:00 | |
| SQ9EZE-13 | 2026-09-04 12:22:02 | 48.61246 | 20.95435 | 95° | 4km/h | 25015m | 5.7m/s | -51.8°C | 1.1% | 26.8hPa | 2.6V | 00:00:00 | 00:00:00 | 00:00:00 | |
| PG1ADW-2 | 2026-09-04 12:22:01 | 48.61246 | 20.95431 | 78° | 13km/h | 25003m | 5.7m/s | -51.7°C | 3.7% | 26.8hPa | 2.6V | 00:00:00 | 00:00:00 | 00:00:00 | |
| SP9KGR-15 | 2026-09-04 12:21:57 | 48.61248 | 20.95421 | 125° | 13km/h | 24987m | 6.8m/s | -51.8°C | 1.1% | 26.9hPa | 2.6V | 00:00:00 | 00:00:00 | 00:00:00 | |
| SQ9EZE-14 | 2026-09-04 12:21:51 | 48.61258 | 20.95426 | 278° | 13km/h | 24951m | 4.9m/s | -52.0°C | 1.1% | 27.1hPa | 2.6V | 00:00:00 | 00:00:00 | 00:00:00 | |
| OE5DRO-10 | 2026-09-04 12:21:47 | 48.61258 | 20.95421 | 88° | 15km/h | 24919m | 6.7m/s | 0°C | 0% | 0hPa | 2.6V | 00:00:00 | 00:00:00 | 00:00:00 | |
| PG1ADW-2 | 2026-09-04 12:21:41 | 48.61276 | 20.95396 | 185° | 15km/h | 24882m | 7.8m/s | -51.7°C | 3.8% | 27.3hPa | 2.6V | 00:00:00 | 01:34:44 | 00:00:00 | |
| SQ9EZE-13 | 2026-09-04 12:21:31 | 48.61296 | 20.95379 | 105° | 16km/h | 24824m | 5.9m/s | -51.4°C | 1.1% | 27.6hPa | 2.6V | 00:00:00 | 00:00:00 | 00:00:00 | |
| SP9KGR-15 | 2026-09-04 12:21:26 | 48.61310 | 20.95356 | 153° | 16km/h | 24790m | 5.9m/s | -51.4°C | 1.1% | 27.7hPa | 2.6V | 00:00:00 | 00:00:00 | 00:00:00 | |
| PG1ADW-2 | 2026-09-04 12:21:21 | 48.61335 | 20.95344 | 129° | 20km/h | 24752m | 7.1m/s | -51.3°C | 3.8% | 27.8hPa | 2.6V | 00:00:00 | 00:00:00 | 00:00:00 | |
| SQ9EZE-13 | 2026-09-04 12:21:16 | 48.61342 | 20.95321 | 125° | 20km/h | 24729m | 5.7m/s | -51.3°C | 1.0% | 28.0hPa | 2.6V | 00:00:00 | 00:00:00 | 00:00:00 | |
| LZ4TU-5 | 2026-09-04 12:21:14 | 48.61348 | 20.95309 | 134° | 18km/h | 24716m | 7.8m/s | 0°C | 0% | 0hPa | 2.6V | 00:00:00 | 00:00:00 | 00:00:00 | |
| LZ4TU-5 | 2026-09-04 12:21:10 | 48.61364 | 20.95294 | 157° | 24km/h | 24689m | 6.7m/s | 0°C | 0% | 0hPa | 2.6V | 00:00:00 | 00:00:00 | 00:00:00 | |
| PG1ADW-2 | 2026-09-04 12:21:01 | 48.61386 | 20.95223 | 95° | 20km/h | 24627m | 6.5m/s | -51.2°C | 3.7% | 28.4hPa | 2.6V | 00:00:00 | 00:00:00 | 00:00:00 | |
| SP9KGR-15 | 2026-09-04 12:20:52 | 48.61405 | 20.95171 | 111° | 18km/h | 24578m | 4.7m/s | -51.1°C | 1.1% | 28.7hPa | 2.7V | 00:00:00 | 00:00:00 | 00:00:00 | |
| SQ9EZE-13 | 2026-09-04 12:20:45 | 48.61415 | 20.95123 | 100° | 16km/h | 24535m | 5.6m/s | -51.1°C | 1.1% | 28.8hPa | 2.7V | 00:00:00 | 00:00:00 | 00:00:00 | |
| PG1ADW-2 | 2026-09-04 12:20:41 | 48.61424 | 20.95082 | 101° | 24km/h | 24504m | 6.8m/s | -51.1°C | 3.7% | 28.9hPa | 2.7V | 00:00:00 | 00:00:00 | 00:00:00 | |
| SP9KGR-15 | 2026-09-04 12:20:31 | 48.61422 | 20.95011 | 70° | 20km/h | 24449m | 5.2m/s | -50.8°C | 1.1% | 29.2hPa | 2.7V | 00:00:00 | 00:00:00 | 00:00:00 | |
| SQ9EZE-13 | 2026-09-04 12:20:29 | 48.61420 | 20.94996 | 91° | 24km/h | 24436m | 5.7m/s | -50.7°C | 1.1% | 29.3hPa | 2.7V | 00:00:00 | 00:00:00 | 00:00:00 | |
| PG1ADW-2 | 2026-09-04 12:20:21 | 48.61415 | 20.94909 | 75° | 18km/h | 24381m | 6.7m/s | -50.4°C | 3.7% | 29.5hPa | 2.7V | 00:00:00 | 01:33:24 | 00:00:00 | |
| SP9KGR-15 | 2026-09-04 12:20:14 | 48.61406 | 20.94869 | 88° | 18km/h | 24344m | 5.1m/s | -50.4°C | 1.0% | 29.7hPa | 2.7V | 00:00:00 | 00:00:00 | 00:00:00 | |
| SQ9EZE-13 | 2026-09-04 12:20:13 | 48.61405 | 20.94862 | 81° | 18km/h | 24338m | 7.3m/s | -50.4°C | 1.0% | 29.8hPa | 2.7V | 00:00:00 | 00:00:00 | 00:00:00 | |
| HA6NAB-11 | 2026-09-04 12:20:11 | 48.61402 | 20.94848 | 71° | 20km/h | 24325m | 5.3m/s | -50.2°C | 1.0% | 29.8hPa | 2.7V | 00:00:00 | 00:00:00 | 00:00:00 | |
| HA6NAB-11 | 2026-09-04 12:20:06 | 48.61395 | 20.94814 | 62° | 18km/h | 24294m | 8.5m/s | -50.0°C | 1.0% | 30.0hPa | 2.7V | 00:00:00 | 00:00:00 | 00:00:00 | |
| GYPAP8-17 | 2026-09-04 12:20:04 | 48.61391 | 20.94802 | 65° | 16km/h | 24283m | 4.1m/s | -50.1°C | 1.0% | 30.0hPa | 2.7V | 00:00:00 | 00:00:00 | 00:00:00 | |
| PG1ADW-2 | 2026-09-04 12:20:01 | 48.61392 | 20.94779 | 105° | 16km/h | 24258m | 6.5m/s | -50.3°C | 3.6% | 30.1hPa | 2.7V | 00:00:00 | 00:00:00 | 08:30:00 | |
| HA6NAB-11 | 2026-09-04 12:20:00 | 48.61392 | 20.94779 | 105° | 20km/h | 24258m | 6.6m/s | -50.3°C | 1.0% | 30.1hPa | 2.6V | 00:00:00 | 00:00:00 | 00:00:00 | |
| SP9KGR-15 | 2026-09-04 12:19:58 | 48.61392 | 20.94765 | 74° | 18km/h | 24245m | 4.3m/s | -50.4°C | 1.0% | 30.2hPa | 2.6V | 00:00:00 | 00:00:00 | 00:00:00 | |
| SQ9EZE-13 | 2026-09-04 12:19:57 | 48.61391 | 20.94758 | 64° | 16km/h | 24239m | 6.5m/s | -50.4°C | 1.0% | 30.2hPa | 2.6V | 00:00:00 | 00:00:00 | 00:00:00 | |
| HA6NAB-11 | 2026-09-04 12:19:54 | 48.61384 | 20.94745 | 44° | 18km/h | 24219m | 5.5m/s | -50.4°C | 1.0% | 30.3hPa | 2.6V | 00:00:00 | 00:00:00 | 00:00:00 | |
| HA6NAB-11 | 2026-09-04 12:19:48 | 48.61362 | 20.94720 | 60° | 13km/h | 24180m | 6.3m/s | -50.3°C | 1.0% | 30.5hPa | 2.6V | 00:00:00 | 00:00:00 | 00:00:00 | |
| SP9KGR-15 | 2026-09-04 12:19:43 | 48.61354 | 20.94700 | 62° | 11km/h | 24146m | 5.8m/s | -50.4°C | 1.0% | 30.6hPa | 2.6V | 00:00:00 | 00:00:00 | 00:00:00 | |
| HA6NAB-11 | 2026-09-04 12:19:42 | 48.61353 | 20.94697 | 52° | 11km/h | 24140m | 6.8m/s | -50.5°C | 1.0% | 30.7hPa | 2.6V | 00:00:00 | 00:00:00 | 00:00:00 | |
| PG1ADW-2 | 2026-09-04 12:19:41 | 48.61346 | 20.94692 | 4° | 11km/h | 24126m | 5.5m/s | -50.3°C | 3.6% | 30.7hPa | 2.6V | 00:00:00 | 00:00:00 | 00:00:00 | |
| HA6NAB-11 | 2026-09-04 12:19:36 | 48.61331 | 20.94698 | 346° | 11km/h | 24100m | 6.2m/s | -50.3°C | 1.1% | 30.9hPa | 2.6V | 00:00:00 | 00:00:00 | 00:00:00 | |
| HA6NAB-11 | 2026-09-04 12:19:30 | 48.61321 | 20.94692 | 102° | 9km/h | 24059m | 5.3m/s | -50.2°C | 1.0% | 31.1hPa | 2.6V | 00:00:00 | 00:00:00 | 00:00:00 | |
| SQ9EZE-13 | 2026-09-04 12:19:27 | 48.61319 | 20.94683 | 26° | 7km/h | 24039m | 5.4m/s | -50.3°C | 1.0% | 31.1hPa | 2.6V | 00:00:00 | 00:00:00 | 00:00:00 | |
| SP9KGR-15 | 2026-09-04 12:19:26 | 48.61317 | 20.94682 | 352° | 7km/h | 24033m | 7.1m/s | -50.4°C | 1.0% | 31.2hPa | 2.6V | 00:00:00 | 00:00:00 | 00:00:00 | |
| HA6NAB-11 | 2026-09-04 12:19:24 | 48.61314 | 20.94686 | 319° | 11km/h | 24019m | 5.8m/s | -50.4°C | 1.0% | 31.2hPa | 2.6V | 00:00:00 | 00:00:00 | 00:00:00 | |
| PG1ADW-2 | 2026-09-04 12:19:21 | 48.61304 | 20.94700 | 306° | 11km/h | 23993m | 6.4m/s | -50.2°C | 3.6% | 31.3hPa | 2.6V | 00:00:00 | 00:00:00 | 00:00:00 | |
| HA6NAB-11 | 2026-09-04 12:19:18 | 48.61303 | 20.94703 | 145° | 2km/h | 23982m | 7.1m/s | -50.4°C | 1.0% | 31.4hPa | 2.6V | 00:00:00 | 00:00:00 | 00:00:00 | |
| HA6NAB-11 | 2026-09-04 12:19:13 | 48.61306 | 20.94684 | 102° | 5km/h | 23948m | 5.7m/s | -50.4°C | 1.1% | 31.6hPa | 2.6V | 00:00:00 | 00:00:00 | 00:00:00 | |
| SQ9EZE-13 | 2026-09-04 12:19:11 | 48.61304 | 20.94684 | 323° | 7km/h | 23934m | 7.8m/s | -50.4°C | 1.1% | 31.7hPa | 2.6V | 00:00:00 | 00:00:00 | 00:00:00 | |
| SP9KGR-15 | 2026-09-04 12:19:10 | 48.61303 | 20.94686 | 323° | 15km/h | 23928m | 5.9m/s | -50.3°C | 1.0% | 31.7hPa | 2.6V | 00:00:00 | 00:00:00 | 00:00:00 | |
| HA6NAB-11 | 2026-09-04 12:19:07 | 48.61292 | 20.94699 | 313° | 18km/h | 23907m | 9.4m/s | -50.4°C | 1.0% | 31.8hPa | 2.6V | 00:00:00 | 00:00:00 | 00:00:00 | |
| GYPAP8-17 | 2026-09-04 12:19:06 | 48.61290 | 20.94704 | 291° | 15km/h | 23900m | 5.3m/s | -50.3°C | 1.0% | 31.8hPa | 2.6V | 00:00:00 | 00:00:00 | 00:00:00 | |
| PG1ADW-2 | 2026-09-04 12:19:01 | 48.61295 | 20.94705 | 144° | 9km/h | 23860m | 7.0m/s | -50.6°C | 3.5% | 32.0hPa | 2.6V | 00:00:00 | 01:32:04 | 00:00:00 | |
| SQ9EZE-13 | 2026-09-04 12:18:56 | 48.61299 | 20.94698 | 0° | 0km/h | 23836m | 6.3m/s | -50.8°C | 1.1% | 32.1hPa | 0V | 00:00:00 | 00:00:00 | 00:00:00 | |
| HA6NAB-11 | 2026-09-04 12:18:55 | 48.61299 | 20.94698 | 0° | 0km/h | 23829m | 7.9m/s | -50.9°C | 1.1% | 32.2hPa | 0V | 00:00:00 | 00:00:00 | 00:00:00 | |
| SP9KGR-15 | 2026-09-04 12:18:53 | 48.61299 | 20.94703 | 267° | 11km/h | 23815m | 5.5m/s | -50.9°C | 1.1% | 32.3hPa | 0V | 00:00:00 | 00:00:00 | 00:00:00 | |
| HA6NAB-11 | 2026-09-04 12:18:49 | 48.61300 | 20.94715 | 215° | 4km/h | 23789m | 6.3m/s | -50.9°C | 1.1% | 32.4hPa | 0V | 00:00:00 | 00:00:00 | 00:00:00 | |
| HA6NAB-11 | 2026-09-04 12:18:43 | 48.61312 | 20.94708 | 127° | 15km/h | 23750m | 7.2m/s | -50.7°C | 1.0% | 32.6hPa | 0V | 00:00:00 | 00:00:00 | 00:00:00 | |
| PG1ADW-2 | 2026-09-04 12:18:41 | 48.61319 | 20.94697 | 151° | 15km/h | 23730m | 6.5m/s | -50.7°C | 3.5% | 32.6hPa | 0V | 00:00:00 | 00:00:00 | 00:00:00 | |
| SQ9EZE-13 | 2026-09-04 12:18:40 | 48.61319 | 20.94697 | 152° | 11km/h | 23730m | 6.5m/s | -50.7°C | 1.0% | 32.7hPa | 0V | 00:00:00 | 00:00:00 | 00:00:00 | |
| HA6NAB-11 | 2026-09-04 12:18:38 | 48.61323 | 20.94694 | 145° | 5km/h | 23716m | 4.5m/s | -50.7°C | 1.0% | 32.7hPa | 0V | 00:00:00 | 00:00:00 | 00:00:00 | |
| S52SK | 2026-09-04 12:18:36 | 48.61325 | 20.94692 | 186° | 4km/h | 23703m | 8.0m/s | -50.7°C | 0% | 0hPa | 0V | 00:00:00 | 00:00:00 | 00:00:00 | |
| S52SK | 2026-09-04 12:18:31 | 48.61333 | 20.94686 | 111° | 18km/h | 23670m | 5.6m/s | -51.0°C | 0% | 0hPa | 0V | 00:00:00 | 00:00:00 | 00:00:00 | |
| HA6NAB-11 | 2026-09-04 12:18:26 | 48.61343 | 20.94633 | 95° | 24km/h | 23632m | 4.7m/s | -51.2°C | 1.0% | 33.2hPa | 0V | 00:00:00 | 00:00:00 | 00:00:00 | |
| SQ9EZE-13 | 2026-09-04 12:18:24 | 48.61344 | 20.94625 | 92° | 20km/h | 23626m | 6.6m/s | -51.3°C | 1.1% | 33.2hPa | 0V | 00:00:00 | 00:00:00 | 00:00:00 | |
| SP9KGR-15 | 2026-09-04 12:18:22 | 48.61344 | 20.94614 | 99° | 9km/h | 23611m | 5.8m/s | -51.3°C | 1.1% | 33.3hPa | 0V | 00:00:00 | 00:00:00 | 00:00:00 | |
| PG1ADW-2 | 2026-09-04 12:18:21 | 48.61345 | 20.94607 | 94° | 16km/h | 23598m | 7.5m/s | -51.3°C | 3.6% | 33.3hPa | 0V | 00:00:00 | 00:00:00 | 00:00:00 | |
| HA6NAB-11 | 2026-09-04 12:18:19 | 48.61345 | 20.94602 | 99° | 16km/h | 23592m | 4.4m/s | -51.3°C | 1.0% | 33.4hPa | 0V | 00:00:00 | 00:00:00 | 00:00:00 | |
| SQ9EZE-13 | 2026-09-04 12:18:07 | 48.61370 | 20.94532 | 162° | 5km/h | 23513m | 8.4m/s | -51.8°C | 1.1% | 33.8hPa | 0V | 00:00:00 | 00:00:00 | 00:00:00 | |
| SP9KGR-15 | 2026-09-04 12:18:06 | 48.61371 | 20.94530 | 139° | 7km/h | 23507m | 4.1m/s | -51.8°C | 1.1% | 33.8hPa | 0V | 00:00:00 | 00:00:00 | 00:00:00 | |
| PG1ADW-2 | 2026-09-04 12:18:01 | 48.61388 | 20.94508 | 122° | 13km/h | 23468m | 8.0m/s | 0°C | 0% | 0hPa | 0V | 00:00:00 | 00:00:00 | 00:00:00 | |
| GYPAP8-17 | 2026-09-04 12:17:58 | 48.61391 | 20.94495 | 101° | 16km/h | 23456m | 6.7m/s | -52.3°C | 1.1% | 34.1hPa | 0V | 00:00:00 | 00:00:00 | 00:00:00 | |
| S52SK | 2026-09-04 12:17:55 | 48.61392 | 20.94480 | 88° | 11km/h | 23436m | 7.0m/s | 0°C | 0% | 0hPa | 0V | 00:00:00 | 00:00:00 | 00:00:00 | |
| S52SK | 2026-09-04 12:17:50 | 48.61393 | 20.94459 | 125° | 11km/h | 23403m | 4.2m/s | 0°C | 0% | 0hPa | 0V | 00:00:00 | 00:00:00 | 00:00:00 | |
| SQ9EZE-13 | 2026-09-04 12:17:49 | 48.61396 | 20.94467 | 114° | 16km/h | 23392m | 7.8m/s | -52.7°C | 1.2% | 34.4hPa | 0V | 00:00:00 | 00:00:00 | 00:00:00 | |
| S52SK | 2026-09-04 12:17:44 | 48.61403 | 20.94430 | 130° | 9km/h | 23368m | 4.9m/s | 0°C | 0% | 0hPa | 0V | 00:00:00 | 00:00:00 | 00:00:00 | |
| PG1ADW-2 | 2026-09-04 12:17:41 | 48.61403 | 20.94420 | 59° | 13km/h | 23344m | 5.3m/s | 0°C | 0% | 0hPa | 0V | 00:00:00 | 01:30:44 | 00:00:00 | |
| S52SK | 2026-09-04 12:17:39 | 48.61403 | 20.94419 | 59° | 4km/h | 23338m | 7.0m/s | 0°C | 0% | 0hPa | 0V | 00:00:00 | 00:00:00 | 00:00:00 | |
| SQ9EZE-13 | 2026-09-04 12:17:33 | 48.61399 | 20.94399 | 83° | 15km/h | 23304m | 7.0m/s | -52.9°C | 1.2% | 34.9hPa | 0V | 00:00:00 | 00:00:00 | 00:00:00 | |
| SP9KGR-15 | 2026-09-04 12:17:31 | 48.61399 | 20.94388 | 86° | 15km/h | 23292m | 5.0m/s | -52.9°C | 1.1% | 35.0hPa | 0V | 00:00:00 | 00:00:00 | 00:00:00 | |
| PG1ADW-2 | 2026-09-04 12:17:21 | 48.61391 | 20.94325 | 82° | 20km/h | 23229m | 6.6m/s | 0°C | 0% | 0hPa | 0V | 00:00:00 | 00:00:00 | 00:00:00 | |
| SQ9EZE-13 | 2026-09-04 12:17:17 | 48.61392 | 20.94301 | 99° | 27km/h | 23211m | 6.9m/s | -53.1°C | 1.2% | 35.4hPa | 0V | 00:00:00 | 00:00:00 | 00:00:00 | |
| SP9KGR-15 | 2026-09-04 12:17:15 | 48.61394 | 20.94279 | 101° | 27km/h | 23200m | 4.7m/s | -53.1°C | 1.2% | 35.5hPa | 0V | 00:00:00 | 00:00:00 | 00:00:00 | |
| SQ9EZE-13 | 2026-09-04 12:17:01 | 48.61415 | 20.94232 | 118° | 15km/h | 23118m | 8.2m/s | -53.2°C | 1.2% | 35.9hPa | 0V | 00:00:00 | 00:00:00 | 00:00:00 | |
| SP9KGR-15 | 2026-09-04 12:16:58 | 48.61416 | 20.94214 | 92° | 20km/h | 23100m | 7.6m/s | -53.2°C | 1.2% | 36.0hPa | 0V | 00:00:00 | 00:00:00 | 00:00:00 | |
| SQ9EZE-13 | 2026-09-04 12:16:45 | 48.61412 | 20.94140 | 79° | 26km/h | 23026m | 6.0m/s | -53.0°C | 1.2% | 36.4hPa | 0V | 00:00:00 | 00:00:00 | 00:00:00 | |
| SP9KGR-15 | 2026-09-04 12:16:41 | 48.61400 | 20.94104 | 53° | 27km/h | 23003m | 3.8m/s | -53.1°C | 1.2% | 36.6hPa | 0V | 00:00:00 | 00:00:00 | 00:00:00 | |
| GYPAP8-17 | 2026-09-04 12:16:35 | 48.61384 | 20.94062 | 48° | 18km/h | 22969m | 4.4m/s | -53.2°C | 1.2% | 36.8hPa | 0V | 00:00:00 | 00:00:00 | 00:00:00 | |
| SQ9EZE-13 | 2026-09-04 12:16:29 | 48.61364 | 20.94022 | 52° | 20km/h | 22936m | 5.1m/s | -53.2°C | 1.2% | 37.0hPa | 0V | 00:00:00 | 00:00:00 | 00:00:00 | |
| SP9KGR-15 | 2026-09-04 12:16:24 | 48.61357 | 20.93992 | 80° | 11km/h | 22907m | 6.2m/s | -53.5°C | 1.2% | 37.1hPa | 0V | 00:00:00 | 00:00:00 | 00:00:00 | |
| SQ9EZE-14 | 2026-09-04 12:16:19 | 48.61354 | 20.93974 | 66° | 13km/h | 22880m | 3.8m/s | -53.4°C | 1.2% | 37.3hPa | 0V | 00:00:00 | 00:00:00 | 00:00:00 | |
| SQ9EZE-13 | 2026-09-04 12:16:14 | 48.61340 | 20.93955 | 54° | 16km/h | 22851m | 5.9m/s | -53.5°C | 1.2% | 37.5hPa | 0V | 00:00:00 | 00:00:00 | 00:00:00 | |
| HA6NAB-11 | 2026-09-04 12:16:13 | 48.61338 | 20.93950 | 68° | 13km/h | 22846m | 4.3m/s | -53.5°C | 1.2% | 37.5hPa | 0V | 00:00:00 | 00:00:00 | 00:00:00 | |
| HA6NAB-11 | 2026-09-04 12:16:07 | 48.61346 | 20.93939 | 137° | 9km/h | 22812m | 4.2m/s | -53.5°C | 1.3% | 37.7hPa | 0V | 00:00:00 | 00:00:00 | 00:00:00 | |
| SQ9EZE-14 | 2026-09-04 12:16:04 | 48.61347 | 20.93933 | 64° | 5km/h | 22796m | 4.6m/s | -53.5°C | 1.2% | 37.8hPa | 0V | 00:00:00 | 00:00:00 | 00:00:00 | |
| HA6NAB-11 | 2026-09-04 12:16:01 | 48.61344 | 20.93922 | 64° | 15km/h | 22778m | 4.2m/s | -53.3°C | 1.2% | 37.9hPa | 0V | 00:00:00 | 00:00:00 | 00:00:00 | |
| SQ9EZE-13 | 2026-09-04 12:15:58 | 48.61340 | 20.93911 | 68° | 7km/h | 22761m | 4.4m/s | -53.2°C | 1.2% | 38.0hPa | 0V | 00:00:00 | 00:00:00 | 00:00:00 | |
| HA6NAB-11 | 2026-09-04 12:15:56 | 48.61340 | 20.93906 | 117° | 9km/h | 22749m | 6.3m/s | -53.1°C | 1.2% | 38.1hPa | 0V | 00:00:00 | 00:00:00 | 00:00:00 | |
| HA6NAB-11 | 2026-09-04 12:15:50 | 48.61344 | 20.93893 | 76° | 13km/h | 22715m | 6.5m/s | -52.9°C | 1.2% | 38.3hPa | 0V | 00:00:00 | 00:00:00 | 00:00:00 | |
| HA6NAB-11 | 2026-09-04 12:15:44 | 48.61332 | 20.93863 | 72° | 15km/h | 22680m | 6.3m/s | -52.7°C | 1.2% | 38.4hPa | 0V | 00:00:00 | 00:00:00 | 00:00:00 | |
| SQ9EZE-13 | 2026-09-04 12:15:43 | 48.61331 | 20.93858 | 77° | 15km/h | 22675m | 4.8m/s | -52.6°C | 1.2% | 38.5hPa | 0V | 00:00:00 | 00:00:00 | 00:00:00 | |
| GYPAP8-17 | 2026-09-04 12:15:41 | 48.61330 | 20.93849 | 75° | 9km/h | 22663m | 5.9m/s | -52.6°C | 1.2% | 38.6hPa | 0V | 00:00:00 | 00:00:00 | 00:00:00 | |
| HA6NAB-11 | 2026-09-04 12:15:38 | 48.61330 | 20.93839 | 102° | 13km/h | 22646m | 7.0m/s | -52.7°C | 1.2% | 38.7hPa | 0V | 00:00:00 | 00:00:00 | 00:00:00 | |
| SQ9EZE-13 | 2026-09-04 12:15:27 | 48.61321 | 20.93785 | 75° | 16km/h | 22581m | 6.5m/s | -52.6°C | 1.2% | 39.1hPa | 0V | 00:00:00 | 00:00:00 | 00:00:00 | |
| PG1ADW-2 | 2026-09-04 12:15:17 | 48.61311 | 20.93736 | 71° | 16km/h | 22517m | 4.6m/s | 0°C | 0% | 0hPa | 0V | 00:00:00 | 00:00:00 | 00:00:00 | |
| SQ9EZE-13 | 2026-09-04 12:15:12 | 48.61309 | 20.93709 | 88° | 18km/h | 22496m | 4.4m/s | -52.6°C | 1.2% | 39.6hPa | 0V | 00:00:00 | 00:00:00 | 00:00:00 | |
| SQ9EZE-13 | 2026-09-04 12:14:54 | 48.61314 | 20.93614 | 121° | 20km/h | 22391m | 4.8m/s | -52.3°C | 1.2% | 40.2hPa | 0V | 00:00:00 | 00:00:00 | 00:00:00 | |
| SQ9EZE-13 | 2026-09-04 12:14:39 | 48.61343 | 20.93532 | 124° | 26km/h | 22307m | 6.3m/s | -52.3°C | 1.2% | 40.8hPa | 0V | 00:00:00 | 00:00:00 | 00:00:00 | |
| SQ9EZE-13 | 2026-09-04 12:14:24 | 48.61370 | 20.93429 | 128° | 22km/h | 22221m | 5.1m/s | -52.8°C | 1.1% | 41.3hPa | 0V | 00:00:00 | 00:00:00 | 00:00:00 | |
| SQ9EZE-13 | 2026-09-04 12:14:07 | 48.61387 | 20.93336 | 99° | 15km/h | 22126m | 5.2m/s | -53.2°C | 1.2% | 41.9hPa | 0V | 00:00:00 | 00:00:00 | 00:00:00 | |
| SP9KGR-15 | 2026-09-04 12:14:05 | 48.61388 | 20.93327 | 100° | 7km/h | 22114m | 4.7m/s | -53.2°C | 1.2% | 42.0hPa | 0V | 00:00:00 | 00:00:00 | 00:00:00 | |
| SQ9EZE-14 | 2026-09-04 12:13:56 | 48.61382 | 20.93264 | 97° | 26km/h | 22064m | 6.7m/s | -54.0°C | 1.2% | 42.3hPa | 0V | 00:00:00 | 00:00:00 | 00:00:00 | |
| SQ9EZE-13 | 2026-09-04 12:13:51 | 48.61384 | 20.93232 | 80° | 9km/h | 22036m | 4.2m/s | -54.3°C | 1.2% | 42.5hPa | 0V | 00:00:00 | 00:00:00 | 00:00:00 | |
| SP9KGR-15 | 2026-09-04 12:13:50 | 48.61383 | 20.93229 | 61° | 11km/h | 22031m | 6.7m/s | -54.4°C | 1.3% | 42.6hPa | 0V | 00:00:00 | 00:00:00 | 00:00:00 | |
| GYPAP8-17 | 2026-09-04 12:13:49 | 48.61382 | 20.93225 | 50° | 16km/h | 22025m | 6.7m/s | -54.4°C | 1.3% | 42.6hPa | 0V | 00:00:00 | 00:00:00 | 00:00:00 | |
| SQ9EZE-14 | 2026-09-04 12:13:40 | 48.61362 | 20.93169 | 88° | 11km/h | 21971m | 6.0m/s | -54.6°C | 1.3% | 43.0hPa | 0V | 00:00:00 | 00:00:00 | 00:00:00 | |
| SQ9EZE-13 | 2026-09-04 12:13:36 | 48.61356 | 20.93160 | 19° | 15km/h | 21948m | 5.4m/s | -54.5°C | 1.3% | 43.1hPa | 0V | 00:00:00 | 00:00:00 | 00:00:00 | |
| S52SK | 2026-09-04 12:13:34 | 48.61349 | 20.93158 | 4° | 15km/h | 21935m | 6.6m/s | 0°C | 0% | 0hPa | 0V | 00:00:00 | 00:00:00 | 00:00:00 | |
| SP9KGR-15 | 2026-09-04 12:13:32 | 48.61342 | 20.93155 | 30° | 13km/h | 21924m | 6.9m/s | -54.4°C | 1.3% | 43.3hPa | 0V | 00:00:00 | 00:00:00 | 00:00:00 | |
| S52SK | 2026-09-04 12:13:28 | 48.61335 | 20.93139 | 65° | 4km/h | 21894m | 3.5m/s | 0°C | 0% | 0hPa | 0V | 00:00:00 | 00:00:00 | 00:00:00 | |
| SQ9EZE-13 | 2026-09-04 12:13:20 | 48.61325 | 20.93128 | 6° | 9km/h | 21851m | 6.2m/s | -54.1°C | 1.3% | 43.8hPa | 0V | 00:00:00 | 00:00:00 | 00:00:00 | |
| SP9KGR-15 | 2026-09-04 12:13:16 | 48.61315 | 20.93127 | 339° | 7km/h | 21826m | 6.9m/s | -54.1°C | 1.3% | 43.9hPa | 0V | 00:00:00 | 00:00:00 | 00:00:00 | |
| SQ9EZE-13 | 2026-09-04 12:13:05 | 48.61309 | 20.93121 | 3° | 7km/h | 21761m | 6.5m/s | -53.8°C | 1.2% | 44.4hPa | 0V | 00:00:00 | 00:00:00 | 00:00:00 | |
| SP9KGR-15 | 2026-09-04 12:13:00 | 48.61297 | 20.93127 | 356° | 9km/h | 21731m | 5.1m/s | -53.8°C | 1.2% | 44.6hPa | 0V | 00:00:00 | 00:00:00 | 00:00:00 | |
| GYPAP8-17 | 2026-09-04 12:12:50 | 48.61286 | 20.93145 | 285° | 5km/h | 21674m | 4.8m/s | -54.1°C | 1.3% | 45.0hPa | 0V | 00:00:00 | 00:00:00 | 00:00:00 | |
| SQ9EZE-13 | 2026-09-04 12:12:49 | 48.61286 | 20.93147 | 276° | 2km/h | 21668m | 6.8m/s | -54.0°C | 1.3% | 45.0hPa | 0V | 00:00:00 | 00:00:00 | 00:00:00 | |
| SP9KGR-15 | 2026-09-04 12:12:38 | 48.61286 | 20.93157 | 318° | 4km/h | 21605m | 5.5m/s | -53.9°C | 1.3% | 45.5hPa | 0V | 00:00:00 | 00:00:00 | 00:00:00 | |
| SQ9EZE-13 | 2026-09-04 12:12:35 | 48.61285 | 20.93153 | 109° | 7km/h | 21583m | 4.9m/s | -53.8°C | 1.2% | 45.7hPa | 0V | 00:00:00 | 00:00:00 | 00:00:00 | |
| SP9KGR-15 | 2026-09-04 12:12:20 | 48.61299 | 20.93142 | 140° | 11km/h | 21501m | 6.6m/s | -53.6°C | 1.2% | 46.2hPa | 0V | 00:00:00 | 00:00:00 | 00:00:00 | |
| SQ9EZE-13 | 2026-09-04 12:12:19 | 48.61301 | 20.93139 | 142° | 11km/h | 21496m | 4.6m/s | -53.6°C | 1.2% | 46.2hPa | 0V | 00:00:00 | 00:00:00 | 00:00:00 | |
| SQ9EZE-13 | 2026-09-04 12:12:04 | 48.61317 | 20.93096 | 107° | 16km/h | 21406m | 3.8m/s | -54.0°C | 1.3% | 46.9hPa | 0V | 00:00:00 | 00:00:00 | 00:00:00 | |
| GYPAP8-17 | 2026-09-04 12:11:54 | 48.61317 | 20.93064 | 72° | 11km/h | 21356m | 4.6m/s | -54.1°C | 1.2% | 47.3hPa | 0V | 00:00:00 | 00:00:00 | 00:00:00 | |
| SP9KGR-15 | 2026-09-04 12:11:49 | 48.61312 | 20.93036 | 80° | 13km/h | 21330m | 6.1m/s | -54.2°C | 1.3% | 47.5hPa | 0V | 00:00:00 | 00:00:00 | 00:00:00 | |
| SQ9EZE-13 | 2026-09-04 12:11:48 | 48.61311 | 20.93032 | 85° | 7km/h | 21324m | 6.3m/s | -54.3°C | 1.3% | 47.5hPa | 0V | 00:00:00 | 00:00:00 | 00:00:00 | |
| SQ9EZE-14 | 2026-09-04 12:11:35 | 48.61302 | 20.93019 | 100° | 9km/h | 21253m | 5.5m/s | -54.4°C | 1.3% | 48.0hPa | 0V | 00:00:00 | 00:00:00 | 00:00:00 | |
| SP9KGR-15 | 2026-09-04 12:11:33 | 48.61302 | 20.93013 | 62° | 7km/h | 21242m | 6.2m/s | -54.3°C | 1.3% | 48.1hPa | 0V | 00:00:00 | 00:00:00 | 00:00:00 | |
| SQ9EZE-13 | 2026-09-04 12:11:32 | 48.61301 | 20.93011 | 36° | 7km/h | 21236m | 6.0m/s | -54.3°C | 1.3% | 48.2hPa | 0V | 00:00:00 | 00:00:00 | 00:00:00 | |
| SQ9EZE-14 | 2026-09-04 12:11:19 | 48.61279 | 20.93030 | 298° | 2km/h | 21160m | 5.5m/s | -54.0°C | 1.3% | 48.8hPa | 0V | 00:00:00 | 00:00:00 | 00:00:00 | |
| SP9KGR-15 | 2026-09-04 12:11:17 | 48.61280 | 20.93032 | 236° | 5km/h | 21148m | 4.5m/s | -53.9°C | 1.3% | 48.8hPa | 0V | 00:00:00 | 00:00:00 | 00:00:00 | |
| SP9KGR-15 | 2026-09-04 12:11:01 | 48.61282 | 20.93049 | 210° | 11km/h | 21058m | 6.4m/s | -53.5°C | 1.2% | 49.5hPa | 0V | 00:00:00 | 00:00:00 | 00:00:00 | |
| SP9KGR-15 | 2026-09-04 12:10:43 | 48.61312 | 20.93059 | 211° | 11km/h | 20957m | 4.8m/s | -53.3°C | 1.2% | 50.3hPa | 0V | 00:00:00 | 00:00:00 | 00:00:00 | |
| GYPAP8-17 | 2026-09-04 12:10:42 | 48.61314 | 20.93060 | 206° | 9km/h | 20952m | 5.4m/s | -53.3°C | 1.2% | 50.3hPa | 0V | 00:00:00 | 00:00:00 | 00:00:00 | |
| SQ9EZE-13 | 2026-09-04 12:10:29 | 48.61371 | 20.93026 | 147° | 11km/h | 20881m | 5.9m/s | -53.2°C | 1.2% | 50.9hPa | 0V | 00:00:00 | 00:00:00 | 00:00:00 | |
| SP9KGR-15 | 2026-09-04 12:10:28 | 48.61373 | 20.93024 | 142° | 11km/h | 20875m | 4.6m/s | -53.2°C | 1.2% | 50.9hPa | 0V | 00:00:00 | 00:00:00 | 00:00:00 | |
| SP9KGR-15 | 2026-09-04 12:10:12 | 48.61433 | 20.92947 | 127° | 27km/h | 20791m | 4.6m/s | -53.6°C | 1.3% | 51.6hPa | 0V | 00:00:00 | 00:00:00 | 00:00:00 | |
| SQ9EZE-13 | 2026-09-04 12:09:57 | 48.61488 | 20.92813 | 107° | 26km/h | 20710m | 4.8m/s | -53.5°C | 1.2% | 52.3hPa | 0V | 00:00:00 | 00:00:00 | 00:00:00 | |
| SP9KGR-15 | 2026-09-04 12:09:56 | 48.61490 | 20.92805 | 114° | 22km/h | 20705m | 4.8m/s | -53.5°C | 1.3% | 52.3hPa | 0V | 00:00:00 | 00:00:00 | 00:00:00 | |
| GYPAP8-17 | 2026-09-04 12:09:42 | 48.61506 | 20.92699 | 93° | 13km/h | 20623m | 5.8m/s | -53.1°C | 1.3% | 53.0hPa | 0V | 00:00:00 | 00:00:00 | 00:00:00 | |
| SQ9EZE-13 | 2026-09-04 12:09:41 | 48.61506 | 20.92699 | 93° | 13km/h | 20623m | 5.8m/s | -53.1°C | 1.3% | 53.0hPa | 0V | 00:00:00 | 00:00:00 | 00:00:00 | |
| SP9KGR-15 | 2026-09-04 12:09:38 | 48.61505 | 20.92679 | 85° | 22km/h | 20607m | 5.9m/s | -53.0°C | 1.2% | 53.1hPa | 0V | 00:00:00 | 00:00:00 | 00:00:00 | |
| SQ9EZE-13 | 2026-09-04 12:09:26 | 48.61502 | 20.92599 | 79° | 11km/h | 20538m | 5.3m/s | -52.5°C | 1.2% | 53.7hPa | 0V | 00:00:00 | 00:00:00 | 00:00:00 | |
| SP9KGR-15 | 2026-09-04 12:09:22 | 48.61497 | 20.92577 | 64° | 22km/h | 20514m | 6.5m/s | -52.3°C | 1.2% | 53.9hPa | 0V | 00:00:00 | 00:00:00 | 00:00:00 | |
| SQ9EZE-14 | 2026-09-04 12:09:11 | 48.61477 | 20.92513 | 46° | 7km/h | 20451m | 6.3m/s | -51.9°C | 1.2% | 54.4hPa | 0V | 00:00:00 | 00:00:00 | 00:00:00 | |
| SQ9EZE-13 | 2026-09-04 12:09:10 | 48.61476 | 20.92510 | 50° | 11km/h | 20445m | 5.3m/s | -51.9°C | 1.2% | 54.5hPa | 0V | 00:00:00 | 00:00:00 | 00:00:00 | |
| SP9KGR-15 | 2026-09-04 12:09:05 | 48.61469 | 20.92483 | 72° | 20km/h | 20418m | 6.1m/s | -51.9°C | 1.1% | 54.7hPa | 0V | 00:00:00 | 00:00:00 | 00:00:00 | |
| SQ9EZE-13 | 2026-09-04 12:08:55 | 48.61459 | 20.92447 | 92° | 7km/h | 20360m | 7.7m/s | -52.0°C | 1.2% | 55.2hPa | 0V | 00:00:00 | 00:00:00 | 00:00:00 | |
| SP9KGR-15 | 2026-09-04 12:08:50 | 48.61453 | 20.92429 | 64° | 11km/h | 20331m | 6.0m/s | -52.1°C | 1.2% | 55.4hPa | 0V | 00:00:00 | 00:00:00 | 00:00:00 | |
| GYPAP8-17 | 2026-09-04 12:08:46 | 48.61451 | 20.92421 | 23° | 4km/h | 20308m | 5.5m/s | -52.3°C | 1.2% | 55.6hPa | 0V | 00:00:00 | 00:00:00 | 00:00:00 | |
| SQ9EZE-13 | 2026-09-04 12:08:39 | 48.61445 | 20.92425 | 63° | 7km/h | 20270m | 4.7m/s | -52.3°C | 1.2% | 56.0hPa | 0V | 00:00:00 | 00:00:00 | 00:00:00 | |
| SP9KGR-15 | 2026-09-04 12:08:34 | 48.61449 | 20.92407 | 104° | 9km/h | 20241m | 5.5m/s | -52.3°C | 1.2% | 56.2hPa | 0V | 00:00:00 | 00:00:00 | 00:00:00 | |
| HA6NAB-11 | 2026-09-04 12:08:32 | 48.61450 | 20.92401 | 120° | 9km/h | 20231m | 5.7m/s | -52.3°C | 1.2% | 56.3hPa | 0V | 00:00:00 | 00:00:00 | 00:00:00 | |
| HA6NAB-11 | 2026-09-04 12:08:27 | 48.61454 | 20.92382 | 66° | 13km/h | 20204m | 5.0m/s | -52.5°C | 1.2% | 56.6hPa | 0V | 00:00:00 | 00:00:00 | 00:00:00 | |
| SQ9EZE-13 | 2026-09-04 12:08:23 | 48.61450 | 20.92365 | 66° | 13km/h | 20181m | 6.1m/s | -52.7°C | 1.2% | 56.8hPa | 0V | 00:00:00 | 00:00:00 | 00:00:00 | |
| HA6NAB-11 | 2026-09-04 12:08:21 | 48.61448 | 20.92354 | 88° | 16km/h | 20169m | 5.1m/s | -52.8°C | 1.2% | 56.9hPa | 0V | 00:00:00 | 00:00:00 | 00:00:00 | |
| SP9KGR-15 | 2026-09-04 12:08:17 | 48.61453 | 20.92328 | 106° | 20km/h | 20146m | 7.1m/s | -53.4°C | 0% | 0hPa | 0V | 00:00:00 | 00:00:00 | 00:00:00 | |
| HA6NAB-11 | 2026-09-04 12:08:15 | 48.61455 | 20.92312 | 97° | 20km/h | 20134m | 5.8m/s | -53.6°C | 1.3% | 57.2hPa | 0V | 00:00:00 | 00:00:00 | 00:00:00 | |
| HA6NAB-11 | 2026-09-04 12:08:10 | 48.61450 | 20.92267 | 77° | 24km/h | 20099m | 6.2m/s | -53.6°C | 1.3% | 57.5hPa | 0V | 00:00:00 | 00:00:00 | 00:00:00 | |
| SQ9EZE-13 | 2026-09-04 12:08:07 | 48.61449 | 20.92248 | 91° | 27km/h | 20088m | 4.8m/s | -53.6°C | 1.3% | 57.6hPa | 0V | 00:00:00 | 00:00:00 | 00:00:00 | |
| HA6NAB-11 | 2026-09-04 12:08:04 | 48.61449 | 20.92211 | 92° | 37km/h | 20072m | 4.8m/s | -53.6°C | 1.3% | 57.7hPa | 0V | 00:00:00 | 00:00:00 | 00:00:00 | |
| SP9KGR-15 | 2026-09-04 12:08:01 | 48.61451 | 20.92172 | 99° | 33km/h | 20056m | 4.2m/s | -53.5°C | 0% | 0hPa | 0V | 00:00:00 | 00:00:00 | 00:00:00 | |
| HA6NAB-11 | 2026-09-04 12:07:59 | 48.61452 | 20.92148 | 87° | 29km/h | 20046m | 5.9m/s | -53.4°C | 1.3% | 58.0hPa | 0V | 00:00:00 | 00:00:00 | 00:00:00 | |
| SQ9EZE-13 | 2026-09-04 12:07:51 | 48.61434 | 20.92078 | 73° | 27km/h | 20002m | 4.7m/s | -53.6°C | 1.3% | 58.3hPa | 0V | 00:00:00 | 00:00:00 | 00:00:00 | |
| GYPAP8-17 | 2026-09-04 12:07:50 | 48.61433 | 20.92068 | 83° | 27km/h | 19996m | 6.9m/s | -53.6°C | 1.3% | 58.4hPa | 0V | 00:00:00 | 00:00:00 | 00:00:00 | |
| HA6NAB-11 | 2026-09-04 12:07:47 | 48.61434 | 20.92036 | 97° | 27km/h | 19981m | 5.7m/s | -53.5°C | 1.3% | 58.6hPa | 0V | 00:00:00 | 00:00:00 | 00:00:00 | |
| SP9KGR-15 | 2026-09-04 12:07:45 | 48.61434 | 20.92018 | 79° | 18km/h | 19970m | 5.0m/s | 0°C | 0% | 0hPa | 0V | 00:00:00 | 00:00:00 | 00:00:00 | |
| HA6NAB-11 | 2026-09-04 12:07:37 | 48.61428 | 20.91987 | 73° | 7km/h | 19927m | 6.4m/s | -53.7°C | 1.3% | 59.1hPa | 0V | 00:00:00 | 00:00:00 | 00:00:00 | |
| SQ9EZE-13 | 2026-09-04 12:07:36 | 48.61427 | 20.91984 | 98° | 7km/h | 19921m | 5.3m/s | -53.7°C | 1.3% | 59.1hPa | 0V | 00:00:00 | 00:00:00 | 00:00:00 | |
| HA6NAB-11 | 2026-09-04 12:07:31 | 48.61431 | 20.91967 | 120° | 11km/h | 19896m | 6.6m/s | -53.5°C | 1.3% | 59.3hPa | 0V | 00:00:00 | 00:00:00 | 00:00:00 | |
| SP9KGR-15 | 2026-09-04 12:07:28 | 48.61432 | 20.91957 | 59° | 7km/h | 19881m | 6.7m/s | 0°C | 0% | 0hPa | 0V | 00:00:00 | 00:00:00 | 00:00:00 | |
| HA6NAB-11 | 2026-09-04 12:07:25 | 48.61427 | 20.91948 | 60° | 13km/h | 19864m | 5.4m/s | -53.6°C | 1.3% | 59.6hPa | 0V | 00:00:00 | 00:00:00 | 00:00:00 | |
| SQ9EZE-13 | 2026-09-04 12:07:20 | 48.61417 | 20.91921 | 81° | 15km/h | 19839m | 6.0m/s | -53.5°C | 1.3% | 59.9hPa | 0V | 00:00:00 | 00:00:00 | 00:00:00 | |
| HA6NAB-11 | 2026-09-04 12:07:18 | 48.61419 | 20.91907 | 113° | 9km/h | 19824m | 5.7m/s | -53.4°C | 1.3% | 60.0hPa | 0V | 00:00:00 | 00:00:00 | 00:00:00 | |
| SP9KGR-15 | 2026-09-04 12:07:12 | 48.61420 | 20.91894 | 96° | 7km/h | 19797m | 4.6m/s | 0°C | 0% | 0hPa | 0V | 00:00:00 | 00:00:00 | 00:00:00 | |
| HA6NAB-11 | 2026-09-04 12:07:08 | 48.61418 | 20.91883 | 105° | 5km/h | 19777m | 5.3m/s | -53.2°C | 1.3% | 60.4hPa | 0V | 00:00:00 | 00:00:00 | 00:00:00 | |
| SQ9EZE-13 | 2026-09-04 12:07:04 | 48.61424 | 20.91877 | 166° | 5km/h | 19757m | 6.1m/s | -53.2°C | 1.2% | 60.6hPa | 0V | 00:00:00 | 00:00:00 | 00:00:00 | |
| HA6NAB-11 | 2026-09-04 12:07:03 | 48.61425 | 20.91877 | 0° | 0km/h | 19752m | 4.7m/s | -53.3°C | 1.2% | 60.7hPa | 0V | 00:00:00 | 00:00:00 | 00:00:00 | |
| HA6NAB-11 | 2026-09-04 12:06:58 | 48.61429 | 20.91881 | 192° | 7km/h | 19725m | 3.6m/s | -53.4°C | 1.3% | 61.0hPa | 0V | 00:00:00 | 00:00:00 | 00:00:00 | |
| SP9KGR-15 | 2026-09-04 12:06:57 | 48.61430 | 20.91881 | 170° | 5km/h | 19721m | 5.8m/s | 0°C | 0% | 0hPa | 0V | 00:00:00 | 00:00:00 | 00:00:00 | |
| HA6NAB-11 | 2026-09-04 12:06:52 | 48.61439 | 20.91872 | 141° | 15km/h | 19696m | 4.7m/s | -53.9°C | 1.3% | 61.2hPa | 0V | 00:00:00 | 00:00:00 | 00:00:00 | |
| SQ9EZE-13 | 2026-09-04 12:06:48 | 48.61451 | 20.91864 | 174° | 13km/h | 19675m | 3.6m/s | -54.0°C | 1.3% | 61.4hPa | 0V | 00:00:00 | 00:00:00 | 00:00:00 | |
| SQ9EZE-14 | 2026-09-04 12:06:45 | 48.61463 | 20.91861 | 167° | 18km/h | 19660m | 3.8m/s | -54.3°C | 1.3% | 61.6hPa | 0V | 00:00:00 | 00:00:00 | 00:00:00 | |
| HA6NAB-11 | 2026-09-04 12:06:44 | 48.61467 | 20.91859 | 159° | 18km/h | 19656m | 3.0m/s | -54.3°C | 1.3% | 61.6hPa | 0V | 00:00:00 | 00:00:00 | 00:00:00 | |
| SP9KGR-15 | 2026-09-04 12:06:39 | 48.61485 | 20.91838 | 137° | 27km/h | 19633m | 5.2m/s | 0°C | 0% | 0hPa | 0V | 00:00:00 | 00:00:00 | 00:00:00 | |
| HA6NAB-11 | 2026-09-04 12:06:35 | 48.61509 | 20.91808 | 140° | 29km/h | 19614m | 5.9m/s | -54.8°C | 1.4% | 62.0hPa | 0V | 00:00:00 | 00:00:00 | 00:00:00 | |
| SQ9EZE-13 | 2026-09-04 12:06:32 | 48.61523 | 20.91789 | 142° | 22km/h | 19600m | 5.1m/s | -55.1°C | 1.3% | 62.1hPa | 0V | 00:00:00 | 00:00:00 | 00:00:00 | |
| SQ9EZE-14 | 2026-09-04 12:06:29 | 48.61539 | 20.91768 | 130° | 31km/h | 19586m | 4.9m/s | -55.3°C | 1.4% | 62.3hPa | 0V | 00:00:00 | 00:00:00 | 00:00:00 | |
| HA6NAB-11 | 2026-09-04 12:06:28 | 48.61543 | 20.91758 | 121° | 37km/h | 19581m | 5.9m/s | -55.3°C | 1.4% | 62.3hPa | 0V | 00:00:00 | 00:00:00 | 00:00:00 | |
| SP9KGR-15 | 2026-09-04 12:06:23 | 48.61567 | 20.91683 | 119° | 46km/h | 19555m | 4.1m/s | 0°C | 0% | 0hPa | 0V | 00:00:00 | 00:00:00 | 00:00:00 | |
| HA6NAB-11 | 2026-09-04 12:06:22 | 48.61572 | 20.91668 | 118° | 42km/h | 19550m | 5.5m/s | -55.6°C | 1.5% | 62.6hPa | 0V | 00:00:00 | 00:00:00 | 00:00:00 | |
| HA6NAB-11 | 2026-09-04 12:06:17 | 48.61599 | 20.91595 | 121° | 31km/h | 19521m | 6.0m/s | -55.7°C | 1.4% | 62.9hPa | 0V | 00:00:00 | 00:00:00 | 00:00:00 | |
| SQ9EZE-13 | 2026-09-04 12:06:16 | 48.61599 | 20.91595 | 121° | 31km/h | 19521m | 6.0m/s | -55.7°C | 1.4% | 62.9hPa | 0V | 00:00:00 | 00:00:00 | 00:00:00 | |
| HA6NAB-11 | 2026-09-04 12:06:11 | 48.61619 | 20.91544 | 130° | 35km/h | 19495m | 4.6m/s | -55.4°C | 1.4% | 63.2hPa | 0V | 00:00:00 | 00:00:00 | 00:00:00 | |
| SP9KGR-15 | 2026-09-04 12:06:08 | 48.61634 | 20.91516 | 128° | 31km/h | 19480m | 3.5m/s | 0°C | 0% | 0hPa | 0V | 00:00:00 | 00:00:00 | 00:00:00 | |
| GYPAP8-17 | 2026-09-04 12:06:02 | 48.61663 | 20.91457 | 135° | 27km/h | 19451m | 4.0m/s | -55.8°C | 1.4% | 63.6hPa | 0V | 00:00:00 | 00:00:00 | 00:00:00 | |
| HA6NAB-11 | 2026-09-04 12:06:00 | 48.61673 | 20.91442 | 140° | 31km/h | 19440m | 4.8m/s | -56.1°C | 1.5% | 63.7hPa | 0V | 00:00:00 | 00:00:00 | 00:00:00 | |
| HA6NAB-11 | 2026-09-04 12:05:55 | 48.61705 | 20.91390 | 125° | 35km/h | 19411m | 5.1m/s | -56.2°C | 1.5% | 64.0hPa | 0V | 00:00:00 | 00:00:00 | 00:00:00 | |
| SP9KGR-15 | 2026-09-04 12:05:52 | 48.61714 | 20.91369 | 123° | 31km/h | 19401m | 6.2m/s | 0°C | 0% | 0hPa | 0V | 00:00:00 | 00:00:00 | 00:00:00 | |
| HA6NAB-11 | 2026-09-04 12:05:48 | 48.61729 | 20.91334 | 127° | 27km/h | 19378m | 4.6m/s | -56.0°C | 1.5% | 64.3hPa | 0V | 00:00:00 | 00:00:00 | 00:00:00 | |
| HA6NAB-11 | 2026-09-04 12:05:44 | 48.61747 | 20.91298 | 130° | 24km/h | 19351m | 5.6m/s | -56.1°C | 1.5% | 64.6hPa | 0V | 00:00:00 | 00:00:00 | 00:00:00 | |
| SP9KGR-15 | 2026-09-04 12:05:36 | 48.61777 | 20.91249 | 141° | 24km/h | 19314m | 5.1m/s | 0°C | 0% | 0hPa | 0V | 00:00:00 | 00:00:00 | 00:00:00 | |
| HA6NAB-11 | 2026-09-04 12:05:31 | 48.61798 | 20.91229 | 147° | 18km/h | 19286m | 4.0m/s | -56.5°C | 1.4% | 65.3hPa | 0V | 00:00:00 | 00:00:00 | 00:00:00 | |
| SQ9EZE-13 | 2026-09-04 12:05:27 | 48.61815 | 20.91209 | 145° | 27km/h | 19267m | 5.9m/s | -56.6°C | 1.5% | 65.5hPa | 0V | 00:00:00 | 00:00:00 | 00:00:00 | |
| HA6NAB-11 | 2026-09-04 12:05:26 | 48.61821 | 20.91202 | 146° | 33km/h | 19261m | 5.8m/s | -56.8°C | 1.5% | 65.5hPa | 0V | 00:00:00 | 00:00:00 | 00:00:00 | |
| HA6NAB-11 | 2026-09-04 12:05:20 | 48.61861 | 20.91151 | 142° | 29km/h | 19229m | 6.1m/s | -57.1°C | 1.6% | 65.9hPa | 0V | 00:00:00 | 00:00:00 | 00:00:00 | |
| HA6NAB-11 | 2026-09-04 12:05:14 | 48.61888 | 20.91116 | 136° | 24km/h | 19194m | 6.5m/s | -56.9°C | 1.5% | 66.2hPa | 0V | 00:00:00 | 00:00:00 | 00:00:00 | |
| SQ9EZE-13 | 2026-09-04 12:05:11 | 48.61901 | 20.91094 | 131° | 26km/h | 19178m | 6.4m/s | -56.8°C | 1.5% | 66.4hPa | 0V | 00:00:00 | 00:00:00 | 00:00:00 | |
| HA6NAB-11 | 2026-09-04 12:05:08 | 48.61915 | 20.91072 | 140° | 27km/h | 19162m | 5.9m/s | !°C | 1.5% | 66.6hPa | 0V | 00:00:00 | 00:00:00 | 00:00:00 | |
| SQ9EZE-13 | 2026-09-04 12:04:55 | 48.61953 | 20.90990 | 129° | 27km/h | 19087m | 4.7m/s | -56.7°C | 1.5% | 67.3hPa | 0V | 00:00:00 | 00:00:00 | 00:00:00 | |
| SQ9EZE-13 | 2026-09-04 12:04:39 | 48.61978 | 20.90859 | 99° | 24km/h | 18997m | 4.9m/s | -57.2°C | 1.6% | 68.3hPa | 0V | 00:00:00 | 00:00:00 | 00:00:00 | |
| GYPAP8-17 | 2026-09-04 12:04:31 | 48.61987 | 20.90795 | 121° | 20km/h | 18954m | 5.5m/s | -56.9°C | 1.6% | 68.8hPa | 0V | 00:00:00 | 00:00:00 | 00:00:00 | |
| OE3JTB-15 | 2026-09-04 12:04:29 | 48.61995 | 20.90773 | 115° | 22km/h | 18938m | 6.1m/s | 0°C | 0% | 0hPa | 0V | 00:00:00 | 01:17:32 | 00:00:00 | |
| SQ9EZE-14 | 2026-09-04 12:04:23 | 48.62007 | 20.90731 | 108° | 26km/h | 18911m | 4.2m/s | -56.5°C | 1.5% | 69.2hPa | 0V | 00:00:00 | 00:00:00 | 00:00:00 | |
| SQ9EZE-14 | 2026-09-04 12:04:08 | 48.62033 | 20.90602 | 105° | 24km/h | 18826m | 5.5m/s | -55.9°C | 1.5% | 70.2hPa | 0V | 00:00:00 | 00:00:00 | 00:00:00 | |
| SQ9EZE-13 | 2026-09-04 12:04:07 | 48.62034 | 20.90593 | 99° | 26km/h | 18820m | 6.6m/s | -55.8°C | 1.5% | 70.3hPa | 0V | 00:00:00 | 00:00:00 | 00:00:00 | |
| SQ9EZE-13 | 2026-09-04 12:03:52 | 48.62049 | 20.90464 | 107° | 24km/h | 18735m | 6.6m/s | -55.3°C | 1.4% | 71.2hPa | 0V | 00:00:00 | 00:00:00 | 00:00:00 | |
| HA6NAB-11 | 2026-09-04 12:03:40 | 48.62044 | 20.90359 | 105° | 20km/h | 18667m | 6.1m/s | -55.3°C | 1.4% | 72.0hPa | 0V | 00:00:00 | 00:00:00 | 00:00:00 | |
| SQ9EZE-13 | 2026-09-04 12:03:36 | 48.62045 | 20.90328 | 74° | 24km/h | 18646m | 3.9m/s | -55.1°C | 1.4% | 72.2hPa | 0V | 00:00:00 | 00:00:00 | 00:00:00 | |
| HA6NAB-11 | 2026-09-04 12:03:34 | 48.62040 | 20.90311 | 58° | 26km/h | 18635m | 6.1m/s | -55.1°C | 1.4% | 72.3hPa | 0V | 00:00:00 | 00:00:00 | 00:00:00 | |
| HA6NAB-11 | 2026-09-04 12:03:28 | 48.62020 | 20.90260 | 74° | 22km/h | 18603m | 6.2m/s | -55.3°C | 1.4% | 72.7hPa | 0V | 00:00:00 | 00:00:00 | 00:00:00 | |
| GYPAP8-17 | 2026-09-04 12:03:26 | 48.62019 | 20.90244 | 91° | 24km/h | 18593m | 5.8m/s | -55.3°C | 1.4% | 72.8hPa | 0V | 00:00:00 | 00:00:00 | 00:00:00 | |
| HA6NAB-11 | 2026-09-04 12:03:23 | 48.62021 | 20.90215 | 100° | 26km/h | 18576m | 5.3m/s | -55.5°C | 1.4% | 73.0hPa | 0V | 00:00:00 | 00:00:00 | 00:00:00 | |
| SQ9EZE-13 | 2026-09-04 12:03:21 | 48.62021 | 20.90199 | 85° | 20km/h | 18564m | 5.0m/s | -55.5°C | 1.5% | 73.2hPa | 0V | 00:00:00 | 00:00:00 | 00:00:00 | |
| HA6NAB-11 | 2026-09-04 12:03:17 | 48.62015 | 20.90162 | 77° | 33km/h | 18541m | 5.2m/s | -55.5°C | 1.4% | 73.4hPa | 0V | 00:00:00 | 00:00:00 | 00:00:00 | |
| HA6NAB-11 | 2026-09-04 12:03:11 | 48.62007 | 20.90084 | 83° | 38km/h | 18506m | 4.4m/s | -55.3°C | 1.4% | 73.8hPa | 0V | 00:00:00 | 00:00:00 | 00:00:00 | |
| SQ9EZE-13 | 2026-09-04 12:03:05 | 48.61993 | 20.90012 | 64° | 33km/h | 18470m | 5.8m/s | -55.3°C | 1.5% | 74.2hPa | 0V | 00:00:00 | 00:00:00 | 00:00:00 | |
| SQ9EZE-13 | 2026-09-04 12:02:49 | 48.61944 | 20.89813 | 68° | 38km/h | 18380m | 4.6m/s | -54.8°C | 1.4% | 75.3hPa | 0V | 00:00:00 | 00:00:00 | 00:00:00 | |
| SQ9EZE-13 | 2026-09-04 12:02:34 | 48.61889 | 20.89646 | 64° | 33km/h | 18295m | 5.5m/s | -54.4°C | 1.4% | 76.3hPa | 0V | 00:00:00 | 00:00:00 | 00:00:00 | |
| SQ9EZE-13 | 2026-09-04 12:02:18 | 48.61828 | 20.89471 | 68° | 27km/h | 18205m | 7.0m/s | -54.4°C | 1.4% | 77.3hPa | 0V | 00:00:00 | 00:00:00 | 00:00:00 | |
| GYPAP8-17 | 2026-09-04 12:02:16 | 48.61820 | 20.89453 | 47° | 29km/h | 18186m | 8.3m/s | -54.3°C | 1.4% | 77.6hPa | 0V | 00:00:00 | 00:00:00 | 00:00:00 | |
| SQ9EZE-13 | 2026-09-04 12:02:01 | 48.61788 | 20.89332 | 72° | 27km/h | 18094m | 8.5m/s | -54.3°C | 1.3% | 78.7hPa | 0V | 00:00:00 | 00:00:00 | 00:00:00 | |
| HA6NAB-11 | 2026-09-04 12:01:59 | 48.61782 | 20.89316 | 56° | 22km/h | 18080m | 6.8m/s | -54.7°C | 1.3% | 78.9hPa | 0V | 00:00:00 | 00:00:00 | 00:00:00 | |
| HA6NAB-11 | 2026-09-04 12:01:54 | 48.61779 | 20.89284 | 120° | 24km/h | 18049m | 6.6m/s | -55.1°C | 1.4% | 79.2hPa | 0V | 00:00:00 | 00:00:00 | 00:00:00 | |
| HA6NAB-11 | 2026-09-04 12:01:48 | 48.61793 | 20.89240 | 100° | 18km/h | 18016m | 4.7m/s | -55.4°C | 1.5% | 79.7hPa | 0V | 00:00:00 | 00:00:00 | 00:00:00 | |
| SQ9EZE-13 | 2026-09-04 12:01:44 | 48.61799 | 20.89218 | 117° | 16km/h | 17995m | 6.1m/s | -55.6°C | 1.5% | 79.9hPa | 0V | 00:00:00 | 00:00:00 | 00:00:00 | |
| HA6NAB-11 | 2026-09-04 12:01:43 | 48.61801 | 20.89211 | 117° | 20km/h | 17990m | 4.8m/s | -55.7°C | 1.5% | 80.0hPa | 0V | 00:00:00 | 00:00:00 | 00:00:00 | |
| HA6NAB-11 | 2026-09-04 12:01:38 | 48.61815 | 20.89167 | 105° | 33km/h | 17966m | 6.0m/s | -56.2°C | 1.5% | 80.3hPa | 0V | 00:00:00 | 00:00:00 | 00:00:00 | |
| HA6NAB-11 | 2026-09-04 12:01:32 | 48.61817 | 20.89106 | 78° | 15km/h | 17935m | 4.9m/s | -56.2°C | 1.6% | 80.7hPa | 0V | 00:00:00 | 00:00:00 | 00:00:00 | |
| SQ9EZE-13 | 2026-09-04 12:01:28 | 48.61818 | 20.89093 | 113° | 9km/h | 17914m | 6.1m/s | -56.0°C | 1.5% | 81.0hPa | 0V | 00:00:00 | 00:00:00 | 00:00:00 | |
| GYPAP8-17 | 2026-09-04 12:01:19 | 48.61829 | 20.89027 | 149° | 16km/h | 17865m | 5.5m/s | -55.6°C | 1.6% | 81.6hPa | 0V | 00:00:00 | 00:00:00 | 00:00:00 | |
| OE3JTB-15 | 2026-09-04 12:01:14 | 48.61843 | 20.89009 | 120° | 18km/h | 17831m | 6.2m/s | 0°C | 0% | 0hPa | 0V | 00:00:00 | 00:00:00 | 00:00:00 | |
| SQ9EZE-13 | 2026-09-04 12:01:12 | 48.61845 | 20.89003 | 128° | 18km/h | 17826m | 4.3m/s | -55.3°C | 1.6% | 82.1hPa | 0V | 00:00:00 | 00:00:00 | 00:00:00 | |
| SQ9EZE-13 | 2026-09-04 12:00:55 | 48.61897 | 20.88916 | 121° | 27km/h | 17729m | 3.9m/s | -54.6°C | 1.5% | 83.3hPa | 0V | 00:00:00 | 00:00:00 | 00:00:00 | |
| OE3JTB-15 | 2026-09-04 12:00:45 | 48.61932 | 20.88862 | 135° | 27km/h | 17670m | 4.7m/s | 0°C | 0% | 0hPa | 0V | 00:00:00 | 00:00:00 | 00:00:00 | |
| SQ9EZE-13 | 2026-09-04 12:00:31 | 48.62017 | 20.88768 | 147° | 37km/h | 17598m | 3.9m/s | -55.6°C | 1.6% | 85.1hPa | 0V | 00:00:00 | 00:00:00 | 00:00:00 | |
| GYPAP8-17 | 2026-09-04 12:00:24 | 48.62073 | 20.88703 | 142° | 37km/h | 17556m | 4.8m/s | -55.6°C | 1.5% | 85.7hPa | 0V | 00:00:00 | 00:00:00 | 00:00:00 | |
| SQ9EZE-13 | 2026-09-04 12:00:17 | 48.62123 | 20.88636 | 145° | 35km/h | 17521m | 4.4m/s | -55.7°C | 1.6% | 86.1hPa | 0V | 00:00:00 | 00:00:00 | 00:00:00 | |
| SQ9EZE-13 | 2026-09-04 12:00:00 | 48.62206 | 20.88532 | 143° | 29km/h | 17439m | 4.6m/s | -55.7°C | 1.6% | 87.2hPa | 0V | 00:00:00 | 00:00:00 | 00:00:00 | |
| SQ9EZE-14 | 2026-09-04 11:59:59 | 48.62212 | 20.88526 | 145° | 29km/h | 17433m | 6.6m/s | -55.7°C | 1.6% | 87.3hPa | 0V | 00:00:00 | 00:00:00 | 00:00:00 | |
| OE3JTB-15 | 2026-09-04 11:59:52 | 48.62264 | 20.88471 | 139° | 77km/h | 17392m | 5.1m/s | 0°C | 0% | 0hPa | 0V | 00:00:00 | 01:12:55 | 00:00:00 | |
| SQ9EZE-13 | 2026-09-04 11:59:45 | 48.62313 | 20.88400 | 141° | 47km/h | 17359m | 6.2m/s | -55.5°C | 1.6% | 88.3hPa | 0V | 00:00:00 | 00:00:00 | 00:00:00 | |
| SQ9EZE-14 | 2026-09-04 11:59:43 | 48.62330 | 20.88377 | 138° | 44km/h | 17348m | 4.1m/s | -55.6°C | 1.6% | 88.5hPa | 0V | 00:00:00 | 00:00:00 | 00:00:00 | |
| SQ9EZE-13 | 2026-09-04 11:59:29 | 48.62446 | 20.88194 | 141° | 57km/h | 17273m | 5.0m/s | -56.9°C | 1.7% | 89.5hPa | 0V | 00:00:00 | 00:00:00 | 00:00:00 | |
| HA6NAB-11 | 2026-09-04 11:59:28 | 48.62457 | 20.88180 | 142° | 60km/h | 17269m | 4.3m/s | -56.9°C | 1.7% | 89.6hPa | 0V | 00:00:00 | 00:00:00 | 00:00:00 | |
| HA6NAB-11 | 2026-09-04 11:59:21 | 48.62530 | 20.88052 | 124° | 71km/h | 17231m | 5.5m/s | -56.8°C | 1.7% | 90.1hPa | 0V | 00:00:00 | 00:00:00 | 00:00:00 | |
| HA6NAB-11 | 2026-09-04 11:59:16 | 48.62578 | 20.87941 | 124° | 68km/h | 17205m | 5.7m/s | -56.6°C | 1.7% | 90.5hPa | 0V | 00:00:00 | 00:00:00 | 00:00:00 | |
| SQ9EZE-13 | 2026-09-04 11:59:14 | 48.62596 | 20.87899 | 123° | 62km/h | 17195m | 4.7m/s | -56.5°C | 1.7% | 90.7hPa | 0V | 00:00:00 | 00:00:00 | 00:00:00 | |
| GYPAP8-17 | 2026-09-04 11:59:12 | 48.62611 | 20.87861 | 123° | 57km/h | 17184m | 4.4m/s | -56.5°C | 1.7% | 90.8hPa | 0V | 00:00:00 | 00:00:00 | 00:00:00 | |
| HA6NAB-11 | 2026-09-04 11:59:11 | 48.62619 | 20.87842 | 118° | 58km/h | 17179m | 5.0m/s | -56.5°C | 1.6% | 90.9hPa | 0V | 00:00:00 | 00:00:00 | 00:00:00 | |
| HA6NAB-11 | 2026-09-04 11:59:05 | 48.62656 | 20.87720 | 115° | 62km/h | 17152m | 5.7m/s | -56.6°C | 1.7% | 91.3hPa | 0V | 00:00:00 | 00:00:00 | 00:00:00 | |
| HA6NAB-11 | 2026-09-04 11:58:59 | 48.62706 | 20.87592 | 123° | 60km/h | 17122m | 5.4m/s | -57.1°C | 1.8% | 91.7hPa | 0V | 00:00:00 | 00:00:00 | 00:00:00 | |
| SQ9EZE-13 | 2026-09-04 11:58:58 | 48.62713 | 20.87573 | 123° | 55km/h | 17117m | 4.5m/s | -57.0°C | 1.8% | 91.8hPa | 0V | 00:00:00 | 00:00:00 | 00:00:00 | |
| HA6NAB-11 | 2026-09-04 11:58:54 | 48.62740 | 20.87501 | 113° | 60km/h | 17099m | 5.5m/s | -56.9°C | 1.7% | 92.0hPa | 0V | 00:00:00 | 00:00:00 | 00:00:00 | |
| HA6NAB-11 | 2026-09-04 11:58:42 | 48.62797 | 20.87237 | 108° | 47km/h | 17040m | 4.5m/s | -56.5°C | 1.7% | 93.0hPa | 0V | 00:00:00 | 00:00:00 | 00:00:00 | |
| HA6NAB-11 | 2026-09-04 11:58:36 | 48.62819 | 20.87118 | 107° | 64km/h | 17009m | 5.8m/s | -56.3°C | 1.7% | 93.4hPa | 0V | 00:00:00 | 00:00:00 | 00:00:00 | |
| HA6NAB-11 | 2026-09-04 11:58:31 | 48.62838 | 20.87007 | 101° | 49km/h | 16984m | 6.9m/s | -56.2°C | 0% | 93.8hPa | 0V | 00:00:00 | 00:00:00 | 00:00:00 | |
| SQ9EZE-13 | 2026-09-04 11:58:27 | 48.62846 | 20.86934 | 100° | 51km/h | 16962m | 5.9m/s | -56.3°C | 1.7% | 94.1hPa | 0V | 00:00:00 | 00:00:00 | 00:00:00 | |
| HA6NAB-11 | 2026-09-04 11:58:26 | 48.62848 | 20.86915 | 100° | 53km/h | 16956m | 4.9m/s | 0°C | 0% | 94.2hPa | 0V | 00:00:00 | 00:00:00 | 00:00:00 | |
| HA6NAB-11 | 2026-09-04 11:58:21 | 48.62859 | 20.86818 | 100° | 57km/h | 16929m | 4.7m/s | 0°C | 0% | 94.5hPa | 0V | 00:00:00 | 00:00:00 | 00:00:00 | |
| GYPAP8-17 | 2026-09-04 11:58:19 | 48.62865 | 20.86758 | 99° | 49km/h | 16914m | 4.6m/s | -55.9°C | 1.7% | 94.8hPa | 0V | 00:00:00 | 00:00:00 | 00:00:00 | |
| HA6NAB-11 | 2026-09-04 11:58:14 | 48.62873 | 20.86685 | 100° | 47km/h | 16894m | 5.7m/s | 0°C | 0% | 95.1hPa | 0V | 00:00:00 | 00:00:00 | 00:00:00 | |
| SQ9EZE-13 | 2026-09-04 11:58:12 | 48.62876 | 20.86650 | 97° | 46km/h | 16883m | 3.8m/s | -55.6°C | 1.7% | 95.2hPa | 0V | 00:00:00 | 00:00:00 | 00:00:00 | |
| HA6NAB-11 | 2026-09-04 11:58:08 | 48.62882 | 20.86575 | 100° | 51km/h | 16864m | 5.0m/s | 0°C | 0% | 95.5hPa | 0V | 00:00:00 | 00:00:00 | 00:00:00 | |
| HA6NAB-11 | 2026-09-04 11:58:03 | 48.62892 | 20.86480 | 101° | 53km/h | 16839m | 4.8m/s | 0°C | 0% | 95.9hPa | 0V | 00:00:00 | 00:00:00 | 00:00:00 | |
| SQ9EZE-13 | 2026-09-04 11:57:56 | 48.62908 | 20.86352 | 97° | 51km/h | 16804m | 3.7m/s | -55.4°C | 1.6% | 96.4hPa | 0V | 00:00:00 | 00:00:00 | 00:00:00 | |
| SQ9EZE-14 | 2026-09-04 11:57:43 | 48.62912 | 20.86130 | 94° | 44km/h | 16738m | 5.1m/s | -55.7°C | 1.7% | 97.4hPa | 0V | 00:00:00 | 00:00:00 | 00:00:00 | |
| SQ9EZE-13 | 2026-09-04 11:57:41 | 48.62914 | 20.86094 | 94° | 49km/h | 16729m | 5.3m/s | -55.6°C | 1.7% | 97.6hPa | 0V | 00:00:00 | 00:00:00 | 00:00:00 | |
| SQ9EZE-14 | 2026-09-04 11:57:28 | 48.62921 | 20.85846 | 94° | 51km/h | 16665m | 4.3m/s | -56.0°C | 1.8% | 98.5hPa | 0V | 00:00:00 | 00:00:00 | 00:00:00 | |
| SQ9EZE-13 | 2026-09-04 11:57:25 | 48.62925 | 20.85793 | 104° | 44km/h | 16650m | 5.0m/s | -55.9°C | 1.7% | 98.8hPa | 0V | 00:00:00 | 00:00:00 | 00:00:00 | |
| GYPAP8-17 | 2026-09-04 11:57:20 | 48.62943 | 20.85722 | 107° | 37km/h | 16623m | 3.7m/s | -55.8°C | 1.7% | 99.2hPa | 0V | 00:00:00 | 00:00:00 | 00:00:00 | |
| SQ9EZE-14 | 2026-09-04 11:57:12 | 48.62966 | 20.85597 | 102° | 51km/h | 16581m | 5.8m/s | -55.7°C | 1.7% | 99.9hPa | 0V | 00:00:00 | 00:00:00 | 00:00:00 | |
| SQ9EZE-13 | 2026-09-04 11:57:10 | 48.62971 | 20.85559 | 104° | 51km/h | 16571m | 6.4m/s | -55.7°C | 1.7% | 100.0hPa | 0V | 00:00:00 | 00:00:00 | 00:00:00 | |
| SQ9EZE-14 | 2026-09-04 11:56:56 | 48.62997 | 20.85291 | 98° | 60km/h | 16500m | 5.1m/s | -56.4°C | 1.8% | 101.2hPa | 0V | 00:00:00 | 00:00:00 | 00:00:00 | |
| SQ9EZE-13 | 2026-09-04 11:56:54 | 48.62999 | 20.85246 | 94° | 60km/h | 16489m | 4.5m/s | -56.4°C | 1.8% | 101.3hPa | 0V | 00:00:00 | 00:00:00 | 00:00:00 | |
| HA6NAB-11 | 2026-09-04 11:56:50 | 48.63003 | 20.85160 | 97° | 58km/h | 16469m | 6.1m/s | 0°C | 0% | 101.6hPa | 0V | 00:00:00 | 00:00:00 | 00:00:00 | |
| SQ9EZE-13 | 2026-09-04 11:56:38 | 48.63022 | 20.84923 | 96° | 47km/h | 16408m | 6.1m/s | -56.0°C | 1.8% | 102.6hPa | 0V | 00:00:00 | 00:00:00 | 00:00:00 | |
| SQ9EZE-13 | 2026-09-04 11:56:22 | 48.63046 | 20.84657 | 93° | 35km/h | 16324m | 5.5m/s | -55.8°C | 1.7% | 104.0hPa | 0V | 00:00:00 | 00:00:00 | 00:00:00 | |
| GYPAP8-17 | 2026-09-04 11:56:18 | 48.63050 | 20.84608 | 101° | 35km/h | 16302m | 6.3m/s | -56.0°C | 1.7% | 104.3hPa | 0V | 00:00:00 | 00:00:00 | 00:00:00 | |
| SQ9EZE-13 | 2026-09-04 11:56:06 | 48.63083 | 20.84458 | 112° | 31km/h | 16239m | 4.1m/s | -56.1°C | 1.8% | 105.4hPa | 0V | 00:00:00 | 00:00:00 | 00:00:00 | |
| SQ9EZE-13 | 2026-09-04 11:55:51 | 48.63106 | 20.84309 | 112° | 16km/h | 16157m | 4.9m/s | -55.6°C | 1.8% | 106.7hPa | 0V | 00:00:00 | 00:00:00 | 00:00:00 | |
| SQ9EZE-13 | 2026-09-04 11:55:36 | 48.63107 | 20.84197 | 157° | 15km/h | 16078m | 5.6m/s | -55.1°C | 1.8% | 108.0hPa | 0V | 00:00:00 | 00:00:00 | 00:00:00 | |
| GYPAP8-17 | 2026-09-04 11:55:22 | 48.63134 | 20.84126 | 132° | 22km/h | 15989m | 9.2m/s | -54.4°C | 1.7% | 109.6hPa | 0V | 00:00:00 | 00:00:00 | 00:00:00 | |
| SQ9EZE-13 | 2026-09-04 11:55:20 | 48.63142 | 20.84112 | 130° | 24km/h | 15972m | 11.1m/s | -54.3°C | 1.7% | 109.8hPa | 0V | 00:00:00 | 00:00:00 | 00:00:00 | |
| SQ9EZE-13 | 2026-09-04 11:55:05 | 48.63217 | 20.83995 | 132° | 27km/h | 15876m | 5.4m/s | -54.5°C | 1.7% | 111.5hPa | 0V | 00:00:00 | 00:00:00 | 00:00:00 | |
| SQ9EZE-13 | 2026-09-04 11:54:49 | 48.63322 | 20.83803 | 125° | 53km/h | 15776m | 7.2m/s | -55.0°C | 1.8% | 113.3hPa | 0V | 00:00:00 | 00:00:00 | 00:00:00 | |
| SQ9EZE-14 | 2026-09-04 11:54:46 | 48.63342 | 20.83753 | 123° | 51km/h | 15757m | 7.8m/s | -55.2°C | 1.9% | 113.6hPa | 0V | 00:00:00 | 00:00:00 | 00:00:00 | |
| SQ9EZE-13 | 2026-09-04 11:54:33 | 48.63445 | 20.83572 | 122° | 40km/h | 15677m | 5.4m/s | -55.6°C | 1.9% | 115.1hPa | 0V | 00:00:00 | 00:00:00 | 00:00:00 | |
| GYPAP8-17 | 2026-09-04 11:54:27 | 48.63482 | 20.83499 | 138° | 44km/h | 15641m | 7.6m/s | -55.7°C | 1.9% | 115.7hPa | 0V | 00:00:00 | 00:00:00 | 00:00:00 | |
| SQ9EZE-13 | 2026-09-04 11:54:17 | 48.63575 | 20.83364 | 134° | 53km/h | 15586m | 4.0m/s | -55.8°C | 2.1% | 116.8hPa | 0V | 00:00:00 | 00:00:00 | 00:00:00 | |
| SQ9EZE-13 | 2026-09-04 11:54:01 | 48.63729 | 20.83151 | 134° | 51km/h | 15500m | 5.9m/s | -55.7°C | 2.1% | 118.4hPa | 0V | 00:00:00 | 00:00:00 | 00:00:00 | |
| SQ9EZE-13 | 2026-09-04 11:53:45 | 48.63854 | 20.82953 | 133° | 49km/h | 15409m | 4.6m/s | -56.2°C | 2.3% | 120.0hPa | 0V | 00:00:00 | 00:00:00 | 00:00:00 | |
| SQ9EZE-13 | 2026-09-04 11:53:29 | 48.63989 | 20.82751 | 136° | 46km/h | 15318m | 7.0m/s | -56.8°C | 2.3% | 121.7hPa | 0V | 00:00:00 | 00:00:00 | 00:00:00 | |
| SQ9EZE-13 | 2026-09-04 11:53:14 | 48.64155 | 20.82556 | 142° | 58km/h | 15235m | 3.4m/s | -57.7°C | 2.7% | 123.4hPa | 0V | 00:00:00 | 00:00:00 | 00:00:00 | |
| GYPAP8-17 | 2026-09-04 11:53:06 | 48.64260 | 20.82440 | 147° | 68km/h | 15191m | 7.7m/s | -58.0°C | 2.7% | 124.2hPa | 0V | 00:00:00 | 00:00:00 | 00:00:00 | |
| SQ9EZE-13 | 2026-09-04 11:52:59 | 48.64355 | 20.82338 | 138° | 66km/h | 15154m | 3.0m/s | -57.7°C | 2.8% | 125.0hPa | 0V | 00:00:00 | 00:00:00 | 00:00:00 | |
| SQ9EZE-14 | 2026-09-04 11:52:37 | 48.64589 | 20.81972 | 123° | 49km/h | 15027m | 7.2m/s | -58.2°C | 3.0% | 127.6hPa | 0V | 00:00:00 | 00:00:00 | 00:00:00 | |
| SQ9EZE-13 | 2026-09-04 11:52:35 | 48.64603 | 20.81941 | 127° | 49km/h | 15016m | 6.8m/s | -58.4°C | 3.0% | 127.8hPa | 0V | 00:00:00 | 00:00:00 | 00:00:00 | |
| SQ9EZE-13 | 2026-09-04 11:52:19 | 48.64742 | 20.81697 | 136° | 49km/h | 14925m | 7.4m/s | -58.5°C | 3.1% | 129.6hPa | 0V | 00:00:00 | 00:00:00 | 00:00:00 | |
| GYPAP8-17 | 2026-09-04 11:52:08 | 48.64853 | 20.81522 | 141° | 53km/h | 14864m | 4.1m/s | -58.6°C | 3.3% | 130.9hPa | 0V | 00:00:00 | 00:00:00 | 00:00:00 | |
| SQ9EZE-13 | 2026-09-04 11:52:03 | 48.64901 | 20.81465 | 147° | 46km/h | 14837m | 5.8m/s | -58.8°C | 3.3% | 131.5hPa | 0V | 00:00:00 | 00:00:00 | 00:00:00 | |
| SQ9EZE-13 | 2026-09-04 11:51:48 | 48.65096 | 20.81221 | 138° | 77km/h | 14741m | 3.9m/s | -59.5°C | 3.8% | 133.5hPa | 0V | 00:00:00 | 00:00:00 | 00:00:00 | |
| SQ9EZE-13 | 2026-09-04 11:51:33 | 48.65287 | 20.80949 | 133° | 62km/h | 14652m | 6.2m/s | -59.6°C | 4.2% | 135.4hPa | 0V | 00:00:00 | 00:00:00 | 00:00:00 | |
| HA6NAB-11 | 2026-09-04 11:51:28 | 48.65340 | 20.80867 | 136° | 60km/h | 14616m | 8.3m/s | 0°C | 0% | 136.1hPa | 0V | 00:00:00 | 00:00:00 | 00:00:00 | |
| HA6NAB-11 | 2026-09-04 11:51:22 | 48.65401 | 20.80764 | 129° | 55km/h | 14578m | 7.2m/s | 0°C | 0% | 137.0hPa | 0V | 00:00:00 | 00:00:00 | 00:00:00 | |
| SQ9EZE-13 | 2026-09-04 11:51:17 | 48.65442 | 20.80691 | 139° | 51km/h | 14545m | 5.2m/s | -59.2°C | 4.6% | 137.7hPa | 0V | 00:00:00 | 00:00:00 | 00:00:00 | |
| HA6NAB-11 | 2026-09-04 11:51:16 | 48.65452 | 20.80678 | 144° | 53km/h | 14539m | 7.3m/s | 0°C | 0% | 137.9hPa | 0V | 00:00:00 | 00:00:00 | 00:00:00 | |
| GYPAP8-17 | 2026-09-04 11:51:14 | 48.65474 | 20.80654 | 149° | 57km/h | 14526m | 4.6m/s | -59.0°C | 4.8% | 138.1hPa | 0V | 00:00:00 | 00:00:00 | 00:00:00 | |
| HA6NAB-11 | 2026-09-04 11:51:10 | 48.65519 | 20.80604 | 140° | 57km/h | 14502m | 3.3m/s | 0°C | 0% | 138.6hPa | 0V | 00:00:00 | 00:00:00 | 00:00:00 | |
| SQ9EZE-13 | 2026-09-04 11:51:02 | 48.65607 | 20.80497 | 151° | 51km/h | 14447m | 8.7m/s | -58.6°C | 4.8% | 139.9hPa | 0V | 00:00:00 | 00:00:00 | 00:00:00 | |
| SQ9EZE-13 | 2026-09-04 11:50:47 | 48.65790 | 20.80302 | 139° | 58km/h | 14355m | 4.7m/s | -59.0°C | 6.0% | 142.0hPa | 0V | 00:00:00 | 00:00:00 | 00:00:00 | |
| SQ9EZE-14 | 2026-09-04 11:50:33 | 48.65984 | 20.80081 | 146° | 62km/h | 14271m | 5.3m/s | -59.0°C | 6.9% | 143.9hPa | 0V | 00:00:00 | 00:00:00 | 00:00:00 | |
| SQ9EZE-13 | 2026-09-04 11:50:32 | 48.65997 | 20.80067 | 145° | 64km/h | 14266m | 5.8m/s | -59.0°C | 6.9% | 144.0hPa | 0V | 00:00:00 | 00:00:00 | 00:00:00 | |
| GYPAP8-17 | 2026-09-04 11:50:20 | 48.66194 | 20.79893 | 164° | 71km/h | 14195m | 7.4m/s | -58.7°C | 8.2% | 145.7hPa | 0V | 00:00:00 | 00:00:00 | 00:00:00 | |
| SQ9EZE-13 | 2026-09-04 11:50:17 | 48.66249 | 20.79865 | 161° | 82km/h | 14175m | 8.6m/s | -58.9°C | 8.8% | 146.1hPa | 0V | 00:00:00 | 00:00:00 | 00:00:00 | |
| SQ9EZE-13 | 2026-09-04 11:50:01 | 48.66554 | 20.79577 | 142° | 100km/h | 14069m | 7.4m/s | -59.9°C | 11.8% | 148.7hPa | 0V | 00:00:00 | 00:00:00 | 00:00:00 | |
| SQ9EZE-13 | 2026-09-04 11:49:46 | 48.66841 | 20.79238 | 140° | 102km/h | 13963m | 8.5m/s | -60.9°C | 16.6% | 151.1hPa | 0V | 00:00:00 | 00:00:00 | 00:00:00 | |
| SQ9EZE-13 | 2026-09-04 11:49:31 | 48.67105 | 20.78828 | 132° | 108km/h | 13865m | 5.3m/s | -61.3°C | 23.1% | 153.6hPa | 0V | 00:00:00 | 00:00:00 | 00:00:00 | |
| GYPAP8-17 | 2026-09-04 11:49:18 | 48.67310 | 20.78465 | 134° | 91km/h | 13785m | 7.4m/s | -61.4°C | 29.7% | 155.7hPa | 0V | 00:00:00 | 00:00:00 | 00:00:00 | |
| SQ9EZE-13 | 2026-09-04 11:49:16 | 48.67343 | 20.78414 | 136° | 93km/h | 13773m | 7.4m/s | -61.4°C | 30.3% | 156.0hPa | 0V | 00:00:00 | 00:00:00 | 00:00:00 | |
| SQ9EZE-13 | 2026-09-04 11:49:00 | 48.67616 | 20.78043 | 137° | 97km/h | 13690m | 6.4m/s | -62.5°C | 43.0% | 158.2hPa | 0V | 00:00:00 | 00:00:00 | 00:00:00 | |
| HA6NAB-11 | 2026-09-04 11:48:58 | 48.67653 | 20.77988 | 135° | 102km/h | 13680m | 4.9m/s | 0°C | 0% | 158.4hPa | 0V | 00:00:00 | 00:00:00 | 00:00:00 | |
| HA6NAB-11 | 2026-09-04 11:48:52 | 48.67754 | 20.77847 | 148° | 89km/h | 13646m | 8.7m/s | 0°C | 0% | 159.3hPa | 0V | 00:00:00 | 00:00:00 | 00:00:00 | |
| SQ9EZE-13 | 2026-09-04 11:48:45 | 48.67943 | 20.77697 | 152° | 108km/h | 13580m | 7.6m/s | -65.3°C | 57.2% | 161.0hPa | 0V | 00:00:00 | 00:00:00 | 00:00:00 | |
| SQ9EZE-13 | 2026-09-04 11:48:28 | 48.68325 | 20.77303 | 144° | 110km/h | 13478m | 8.8m/s | -66.2°C | 64.7% | 163.7hPa | 0V | 00:00:00 | 00:00:00 | 00:00:00 | |
| SQ9EZE-13 | 2026-09-04 11:48:14 | 48.68733 | 20.76957 | 152° | 126km/h | 13367m | 8.4m/s | -65.7°C | 64.6% | 166.6hPa | 0V | 00:00:00 | 00:00:00 | 00:00:00 | |
| GYPAP8-17 | 2026-09-04 11:48:09 | 48.68841 | 20.76860 | 151° | 120km/h | 13343m | 3.6m/s | -65.6°C | 65.2% | 167.3hPa | 0V | 00:00:00 | 00:00:00 | 00:00:00 | |
| SQ9EZE-14 | 2026-09-04 11:48:06 | 48.68919 | 20.76795 | 153° | 117km/h | 13327m | 5.8m/s | -65.7°C | 66.6% | 167.8hPa | 0V | 00:00:00 | 00:00:00 | 00:00:00 | |
| SQ9EZE-13 | 2026-09-04 11:47:57 | 48.69158 | 20.76591 | 152° | 120km/h | 13273m | 8.3m/s | -65.6°C | 60.9% | 169.2hPa | 0V | 00:00:00 | 00:00:00 | 00:00:00 | |
| SQ9EZE-14 | 2026-09-04 11:47:51 | 48.69329 | 20.76440 | 150° | 139km/h | 13220m | 7.8m/s | -65.5°C | 58.8% | 170.7hPa | 0V | 00:00:00 | 00:00:00 | 00:00:00 | |
| SQ9EZE-13 | 2026-09-04 11:47:42 | 48.69621 | 20.76213 | 156° | 144km/h | 13163m | 6.0m/s | -65.2°C | 56.2% | 172.3hPa | 0V | 00:00:00 | 00:00:00 | 00:00:00 | |
| SQ9EZE-13 | 2026-09-04 11:47:27 | 48.70132 | 20.75825 | 155° | 130km/h | 13068m | 3.5m/s | -65.1°C | 56.4% | 175.0hPa | 0V | 00:00:00 | 00:00:00 | 00:00:00 | |
| SQ9EZE-13 | 2026-09-04 11:47:08 | 48.70740 | 20.75275 | 149° | 150km/h | 12951m | 5.7m/s | -64.4°C | 58.4% | 178.3hPa | 0V | 00:00:00 | 00:00:00 | 00:00:00 | |
| GYPAP8-17 | 2026-09-04 11:47:07 | 48.70773 | 20.75246 | 151° | 148km/h | 12945m | 6.0m/s | -64.4°C | 58.1% | 178.5hPa | 0V | 00:00:00 | 00:00:00 | 00:00:00 | |
| SQ9EZE-13 | 2026-09-04 11:46:53 | 48.71218 | 20.74821 | 150° | 146km/h | 12854m | 6.0m/s | -63.6°C | 56.8% | 181.2hPa | 0V | 00:00:00 | 00:00:00 | 00:00:00 | |
| SQ9EZE-13 | 2026-09-04 11:46:38 | 48.71695 | 20.74346 | 145° | 153km/h | 12764m | 7.8m/s | -62.9°C | 56.4% | 183.8hPa | 0V | 00:00:00 | 00:00:00 | 00:00:00 | |
| SQ9EZE-13 | 2026-09-04 11:46:22 | 48.72201 | 20.73849 | 151° | 150km/h | 12660m | 6.5m/s | -62.2°C | 59.8% | 186.9hPa | 0V | 00:00:00 | 00:00:00 | 00:00:00 | |
| HA6NAB-11 | 2026-09-04 11:46:15 | 48.72427 | 20.73654 | 149° | 142km/h | 12620m | 6.2m/s | 0°C | 0% | 188.1hPa | 0V | 00:00:00 | 00:00:00 | 00:00:00 | |
| GYPAP8-17 | 2026-09-04 11:46:07 | 48.72675 | 20.73417 | 145° | 151km/h | 12568m | 6.5m/s | -61.5°C | 59.4% | 189.7hPa | 0V | 00:00:00 | 00:00:00 | 00:00:00 | |
| SQ9EZE-13 | 2026-09-04 11:46:06 | 48.72706 | 20.73382 | 145° | 155km/h | 12562m | 5.5m/s | -61.4°C | 59.8% | 189.9hPa | 0V | 00:00:00 | 00:00:00 | 00:00:00 | |
| SQ9EZE-13 | 2026-09-04 11:45:51 | 48.73177 | 20.72897 | 141° | 141km/h | 12468m | 5.2m/s | -60.6°C | 59.6% | 192.9hPa | 0V | 00:00:00 | 00:00:00 | 00:00:00 | |
| GYPAP8-17 | 2026-09-04 11:45:47 | 48.73290 | 20.72761 | 145° | 146km/h | 12447m | 7.0m/s | -60.5°C | 58.9% | 193.5hPa | 0V | 00:00:00 | 00:00:00 | 00:00:00 | |
| SQ9EZE-14 | 2026-09-04 11:45:42 | 48.73445 | 20.72601 | 148° | 150km/h | 12412m | 7.4m/s | -60.2°C | 59.1% | 194.6hPa | 0V | 00:00:00 | 00:00:00 | 00:00:00 | |
| SQ9EZE-13 | 2026-09-04 11:45:36 | 48.73629 | 20.72414 | 145° | 144km/h | 12378m | 5.5m/s | -60.0°C | 62.1% | 195.7hPa | 0V | 00:00:00 | 00:00:00 | 00:00:00 | |
| SQ9EZE-14 | 2026-09-04 11:45:26 | 48.73940 | 20.72108 | 149° | 150km/h | 12325m | 5.9m/s | -59.6°C | 60.9% | 197.3hPa | 0V | 00:00:00 | 00:00:00 | 00:00:00 | |
| HA6NAB-11 | 2026-09-04 11:45:23 | 48.74031 | 20.72017 | 146° | 137km/h | 12305m | 5.3m/s | 0°C | 0% | 197.9hPa | 0V | 00:00:00 | 00:00:00 | 00:00:00 | |
| SQ9EZE-13 | 2026-09-04 11:45:21 | 48.74085 | 20.71958 | 145° | 124km/h | 12293m | 5.0m/s | -59.5°C | 61.2% | 198.3hPa | 0V | 00:00:00 | 00:00:00 | 00:00:00 | |
| HA6NAB-11 | 2026-09-04 11:45:18 | 48.74163 | 20.71876 | 148° | 128km/h | 12277m | 4.9m/s | 0°C | 0% | 198.8hPa | 0V | 00:00:00 | 00:00:00 | 00:00:00 | |
| HA6NAB-11 | 2026-09-04 11:45:12 | 48.74336 | 20.71693 | 144° | 151km/h | 12240m | 5.8m/s | 0°C | 0% | 200.0hPa | 0V | 00:00:00 | 00:00:00 | 00:00:00 | |
| SQ9EZE-13 | 2026-09-04 11:45:05 | 48.74542 | 20.71480 | 150° | 126km/h | 12197m | 9.0m/s | -58.8°C | 63.0% | 201.3hPa | 0V | 00:00:00 | 00:00:00 | 00:00:00 | |
| SQ9EZE-13 | 2026-09-04 11:44:49 | 48.74982 | 20.71036 | 146° | 124km/h | 12097m | 4.7m/s | -58.1°C | 64.5% | 204.6hPa | 0V | 00:00:00 | 00:00:00 | 00:00:00 | |
| GYPAP8-17 | 2026-09-04 11:44:38 | 48.75282 | 20.70732 | 144° | 128km/h | 12031m | 4.7m/s | -57.7°C | 64.8% | 206.7hPa | 0V | 00:00:00 | 00:00:00 | 00:00:00 | |
| SQ9EZE-13 | 2026-09-04 11:44:34 | 48.75385 | 20.70623 | 151° | 126km/h | 12005m | 6.4m/s | -57.5°C | 64.5% | 207.7hPa | 0V | 00:00:00 | 00:00:00 | 00:00:00 | |
| HA6NAB-11 | 2026-09-04 11:44:28 | 48.75547 | 20.70487 | 146° | 122km/h | 11972m | 4.3m/s | 0°C | 0% | 208.7hPa | 0V | 00:00:00 | 00:00:00 | 00:00:00 | |
| SQ9EZE-13 | 2026-09-04 11:44:03 | 48.76200 | 20.69829 | 150° | 126km/h | 11828m | 8.8m/s | -56.0°C | 65.6% | 213.5hPa | 0V | 00:00:00 | 00:00:00 | 00:00:00 | |
| SQ9EZE-13 | 2026-09-04 11:43:48 | 48.76596 | 20.69416 | 150° | 126km/h | 11737m | 7.2m/s | -55.3°C | 67.3% | 216.6hPa | 0V | 00:00:00 | 00:00:00 | 00:00:00 | |
| SQ9EZE-13 | 2026-09-04 11:43:33 | 48.76999 | 20.69027 | 147° | 135km/h | 11643m | 8.9m/s | -54.5°C | 67.8% | 219.8hPa | 0V | 00:00:00 | 00:00:00 | 00:00:00 | |
| SQ9EZE-13 | 2026-09-04 11:43:17 | 48.77451 | 20.68586 | 147° | 135km/h | 11542m | 5.2m/s | -53.6°C | 65.8% | 223.3hPa | 0V | 00:00:00 | 00:00:00 | 00:00:00 | |
| SQ9EZE-14 | 2026-09-04 11:43:16 | 48.77479 | 20.68557 | 147° | 133km/h | 11537m | 4.7m/s | -53.5°C | 65.8% | 223.5hPa | 0V | 00:00:00 | 00:00:00 | 00:00:00 | |
| GYPAP8-17 | 2026-09-04 11:43:11 | 48.77619 | 20.68416 | 146° | 133km/h | 11512m | 5.0m/s | -53.3°C | 66.1% | 224.4hPa | 0V | 00:00:00 | 00:00:00 | 00:00:00 | |
| SQ9EZE-13 | 2026-09-04 11:43:02 | 48.77872 | 20.68151 | 151° | 130km/h | 11470m | 4.8m/s | -52.9°C | 69.0% | 225.8hPa | 0V | 00:00:00 | 00:00:00 | 00:00:00 | |
| SQ9EZE-14 | 2026-09-04 11:43:00 | 48.77929 | 20.68106 | 152° | 122km/h | 11462m | 4.8m/s | -52.8°C | 70.4% | 226.2hPa | 0V | 00:00:00 | 00:00:00 | 00:00:00 | |
| HA6NAB-11 | 2026-09-04 11:42:52 | 48.78157 | 20.67880 | 150° | 142km/h | 11403m | 6.7m/s | 0°C | 0% | 228.2hPa | 0V | 00:00:00 | 00:00:00 | 00:00:00 | |
| SQ9EZE-13 | 2026-09-04 11:42:47 | 48.78303 | 20.67753 | 148° | 126km/h | 11372m | 5.7m/s | -52.0°C | 68.4% | 229.3hPa | 0V | 00:00:00 | 00:00:00 | 00:00:00 | |
| HA6NAB-11 | 2026-09-04 11:42:41 | 48.78466 | 20.67577 | 145° | 141km/h | 11327m | 7.3m/s | 0°C | 0% | 230.9hPa | 0V | 00:00:00 | 00:00:00 | 00:00:00 | |
| SQ9EZE-13 | 2026-09-04 11:42:31 | 48.78748 | 20.67295 | 154° | 139km/h | 11267m | 5.2m/s | -51.1°C | 68.7% | 233.0hPa | 0V | 00:00:00 | 00:00:00 | 00:00:00 | |
| SQ9EZE-13 | 2026-09-04 11:42:15 | 48.79204 | 20.66831 | 146° | 135km/h | 11167m | 3.8m/s | -50.2°C | 70.7% | 236.6hPa | 0V | 00:00:00 | 00:00:00 | 00:00:00 | |
| HA6NAB-11 | 2026-09-04 11:42:07 | 48.79423 | 20.66613 | 147° | 139km/h | 11121m | 7.8m/s | 0°C | 0% | 238.3hPa | 0V | 00:00:00 | 00:00:00 | 00:00:00 | |
| GYPAP8-17 | 2026-09-04 11:42:03 | 48.79540 | 20.66504 | 153° | 130km/h | 11088m | 6.7m/s | -49.5°C | 66.2% | 239.4hPa | 0V | 00:00:00 | 00:00:00 | 00:00:00 | |
| HA6NAB-11 | 2026-09-04 11:42:02 | 48.79569 | 20.66480 | 153° | 128km/h | 11082m | 6.8m/s | 0°C | 0% | 0hPa | 0V | 00:00:00 | 00:00:00 | 00:00:00 | |
| SQ9EZE-13 | 2026-09-04 11:42:00 | 48.79625 | 20.66432 | 151° | 126km/h | 11069m | 8.5m/s | -49.4°C | 67.4% | 240.2hPa | 0V | 00:00:00 | 00:00:00 | 00:00:00 | |
| HA6NAB-11 | 2026-09-04 11:41:56 | 48.79734 | 20.66317 | 143° | 137km/h | 11042m | 5.1m/s | 0°C | 0% | 0hPa | 0V | 00:00:00 | 00:00:00 | 00:00:00 | |
| HA6NAB-11 | 2026-09-04 11:41:50 | 48.79898 | 20.66113 | 144° | 133km/h | 11012m | 8.5m/s | 0°C | 0% | 0hPa | 0V | 00:00:00 | 00:00:00 | 00:00:00 | |
| SQ9EZE-13 | 2026-09-04 11:41:45 | 48.80030 | 20.65981 | 151° | 130km/h | 10971m | 5.8m/s | -48.5°C | 62.8% | 243.8hPa | 0V | 00:00:00 | 00:00:00 | 00:00:00 | |
| HA6NAB-11 | 2026-09-04 11:41:44 | 48.80058 | 20.65956 | 152° | 133km/h | 10965m | 6.9m/s | 0°C | 0% | 0hPa | 0V | 00:00:00 | 00:00:00 | 00:00:00 | |
| HA6NAB-11 | 2026-09-04 11:41:39 | 48.80199 | 20.65820 | 144° | 131km/h | 10933m | 6.2m/s | 0°C | 0% | 0hPa | 0V | 00:00:00 | 00:00:00 | 00:00:00 | |
| HA6NAB-11 | 2026-09-04 11:41:33 | 48.80357 | 20.65653 | 152° | 124km/h | 10899m | 5.5m/s | 0°C | 0% | 0hPa | 0V | 00:00:00 | 00:00:00 | 00:00:00 | |
| SQ9EZE-13 | 2026-09-04 11:41:29 | 48.80469 | 20.65562 | 149° | 126km/h | 10880m | 5.7m/s | -47.7°C | 63.7% | 247.2hPa | 0V | 00:00:00 | 00:00:00 | 00:00:00 | |
| SQ9EZE-13 | 2026-09-04 11:41:15 | 48.80869 | 20.65137 | 146° | 133km/h | 10786m | 8.0m/s | -46.9°C | 68.9% | 250.7hPa | 0V | 00:00:00 | 00:00:00 | 00:00:00 | |
| GYPAP8-17 | 2026-09-04 11:40:58 | 48.81294 | 20.64705 | 142° | 120km/h | 10687m | 6.0m/s | -46.1°C | 73.9% | 254.4hPa | 0V | 00:00:00 | 00:00:00 | 00:00:00 | |
| SQ9EZE-14 | 2026-09-04 11:40:51 | 48.81474 | 20.64503 | 146° | 137km/h | 10640m | 6.6m/s | -45.7°C | 72.9% | 256.3hPa | 0V | 00:00:00 | 00:00:00 | 00:00:00 | |
| SQ9EZE-13 | 2026-09-04 11:40:43 | 48.81703 | 20.64254 | 145° | 135km/h | 10583m | 6.9m/s | -45.3°C | 69.9% | 258.4hPa | 0V | 00:00:00 | 00:00:00 | 00:00:00 | |
| SQ9EZE-14 | 2026-09-04 11:40:35 | 48.81915 | 20.64031 | 149° | 130km/h | 10534m | 5.1m/s | -44.9°C | 72.1% | 260.3hPa | 0V | 00:00:00 | 00:00:00 | 00:00:00 | |
| SQ9EZE-13 | 2026-09-04 11:40:27 | 48.82124 | 20.63820 | 143° | 115km/h | 10483m | 8.2m/s | -44.5°C | 70.5% | 262.3hPa | 0V | 00:00:00 | 00:00:00 | 00:00:00 | |
| SQ9EZE-13 | 2026-09-04 11:40:11 | 48.82518 | 20.63434 | 139° | 115km/h | 10381m | 5.4m/s | -43.5°C | 64.3% | 266.3hPa | 0V | 00:00:00 | 00:00:00 | 00:00:00 | |
| SQ9EZE-13 | 2026-09-04 11:39:56 | 48.82885 | 20.63015 | 147° | 113km/h | 10282m | 9.0m/s | -42.6°C | 59.7% | 270.3hPa | 0V | 00:00:00 | 00:00:00 | 00:00:00 | |
| GYPAP8-17 | 2026-09-04 11:39:47 | 48.83091 | 20.62755 | 137° | 111km/h | 10218m | 7.8m/s | -42.0°C | 58.6% | 272.8hPa | 0V | 00:00:00 | 00:00:00 | 00:00:00 | |
| SQ9EZE-13 | 2026-09-04 11:39:40 | 48.83236 | 20.62581 | 149° | 104km/h | 10168m | 5.2m/s | -41.5°C | 60.5% | 274.9hPa | 0V | 00:00:00 | 00:00:00 | 00:00:00 | |
| SQ9EZE-13 | 2026-09-04 11:39:25 | 48.83591 | 20.62230 | 147° | 108km/h | 10066m | 4.5m/s | -40.8°C | 61.3% | 279.0hPa | 0V | 00:00:00 | 00:00:00 | 00:00:00 | |
| SQ9EZE-13 | 2026-09-04 11:39:09 | 48.83936 | 20.61854 | 139° | 93km/h | 9948m | 7.2m/s | -39.8°C | 61.3% | 283.9hPa | 0V | 00:00:00 | 00:00:00 | 00:00:00 | |
| GYPAP8-17 | 2026-09-04 11:39:00 | 48.84127 | 20.61651 | 147° | 111km/h | 9895m | 5.3m/s | -39.4°C | 65.4% | 286.2hPa | 0V | 00:00:00 | 00:00:00 | 00:00:00 | |
| SQ9EZE-13 | 2026-09-04 11:38:53 | 48.84269 | 20.61476 | 138° | 95km/h | 9859m | 5.4m/s | -39.1°C | 66.3% | 287.6hPa | 0V | 00:00:00 | 00:00:00 | 00:00:00 | |
| SQ9EZE-13 | 2026-09-04 11:38:37 | 48.84616 | 20.61095 | 144° | 111km/h | 9740m | 7.8m/s | -38.1°C | 70.7% | 292.6hPa | 0V | 00:00:00 | 00:00:00 | 00:00:00 | |
| SQ9EZE-14 | 2026-09-04 11:38:23 | 48.84916 | 20.60787 | 150° | 91km/h | 9643m | 7.9m/s | -37.2°C | 64.8% | 296.9hPa | 0V | 00:00:00 | 00:00:00 | 00:00:00 | |
| SQ9EZE-13 | 2026-09-04 11:38:22 | 48.84935 | 20.60768 | 147° | 89km/h | 9636m | 6.5m/s | -37.2°C | 64.5% | 297.1hPa | 0V | 00:00:00 | 00:00:00 | 00:00:00 | |
| GYPAP8-17 | 2026-09-04 11:38:20 | 48.84971 | 20.60725 | 138° | 91km/h | 9622m | 8.5m/s | -37.0°C | 62.7% | 297.8hPa | 0V | 00:00:00 | 00:00:00 | 00:00:00 | |
| SQ9EZE-14 | 2026-09-04 11:38:08 | 48.85210 | 20.60434 | 149° | 104km/h | 9532m | 5.7m/s | -36.3°C | 59.0% | 301.6hPa | 0V | 00:00:00 | 00:00:00 | 00:00:00 | |
| HA6NAB-11 | 2026-09-04 11:38:07 | 48.85253 | 20.60389 | 144° | 106km/h | 9523m | 4.6m/s | 0°C | 0% | 0hPa | 0V | 00:00:00 | 00:00:00 | 00:00:00 | |
| SQ9EZE-13 | 2026-09-04 11:37:52 | 48.85551 | 20.60077 | 151° | 95km/h | 9425m | 7.8m/s | -35.5°C | 62.7% | 306.2hPa | 0V | 00:00:00 | 00:00:00 | 00:00:00 | |
| SQ9EZE-13 | 2026-09-04 11:37:37 | 48.85826 | 20.59743 | 143° | 104km/h | 9338m | 9.8m/s | -34.7°C | 64.6% | 310.0hPa | 0V | 00:00:00 | 00:00:00 | 00:00:00 | |
| SQ9EZE-13 | 2026-09-04 11:37:22 | 48.86132 | 20.59401 | 144° | 100km/h | 9233m | 6.9m/s | -33.7°C | 61.2% | 314.8hPa | 0V | 00:00:00 | 00:00:00 | 00:00:00 | |
| GYPAP8-17 | 2026-09-04 11:37:09 | 48.86380 | 20.59122 | 145° | 93km/h | 9164m | 6.1m/s | -33.0°C | 58.5% | 317.9hPa | 0V | 00:00:00 | 00:00:00 | 00:00:00 | |
| SQ9EZE-13 | 2026-09-04 11:37:06 | 48.86443 | 20.59063 | 154° | 99km/h | 9147m | 4.7m/s | -32.9°C | 58.1% | 318.7hPa | 0V | 00:00:00 | 00:00:00 | 00:00:00 | |
| SQ9EZE-13 | 2026-09-04 11:36:50 | 48.86753 | 20.58754 | 141° | 97km/h | 9046m | 5.9m/s | -32.0°C | 57.1% | 323.3hPa | 0V | 00:00:00 | 00:00:00 | 00:00:00 | |
| SQ9EZE-13 | 2026-09-04 11:36:34 | 48.87058 | 20.58439 | 145° | 80km/h | 8959m | 7.9m/s | -31.4°C | 61.5% | 327.3hPa | 0V | 00:00:00 | 00:00:00 | 00:00:00 | |
| SQ9EZE-13 | 2026-09-04 11:36:19 | 48.87313 | 20.58121 | 133° | 95km/h | 8876m | 5.2m/s | -30.7°C | 61.2% | 331.1hPa | 0V | 00:00:00 | 00:00:00 | 00:00:00 | |
| SQ9EZE-13 | 2026-09-04 11:36:03 | 48.87593 | 20.57757 | 146° | 91km/h | 8773m | 7.3m/s | -29.8°C | 56.9% | 336.0hPa | 0V | 00:00:00 | 00:00:00 | 00:00:00 | |
| SQ9EZE-14 | 2026-09-04 11:35:58 | 48.87683 | 20.57645 | 143° | 91km/h | 8738m | 7.2m/s | -29.5°C | 57.2% | 337.7hPa | 0V | 00:00:00 | 00:00:00 | 00:00:00 | |
| SQ9EZE-13 | 2026-09-04 11:35:51 | 48.87859 | 20.57464 | 150° | 86km/h | 8688m | 3.7m/s | -29.0°C | 60.3% | 340.0hPa | 0V | 00:00:00 | 00:00:00 | 00:00:00 | |
| SQ9EZE-14 | 2026-09-04 11:35:49 | 48.87979 | 20.57352 | 147° | 80km/h | 8651m | 5.8m/s | -28.7°C | 59.5% | 341.9hPa | 0V | 00:00:00 | 00:00:00 | 00:00:00 | |
| SQ9EZE-13 | 2026-09-04 11:35:33 | 48.88123 | 20.57174 | 137° | 80km/h | 8593m | 7.7m/s | -28.3°C | 58.0% | 344.5hPa | 0V | 00:00:00 | 00:00:00 | 00:00:00 | |
| SQ9EZE-13 | 2026-09-04 11:35:17 | 48.88415 | 20.56818 | 139° | 91km/h | 8516m | 6.8m/s | -27.6°C | 57.0% | 348.4hPa | 0V | 00:00:00 | 00:00:00 | 00:00:00 | |
| SQ9EZE-13 | 2026-09-04 11:35:02 | 48.88678 | 20.56558 | 151° | 93km/h | 8432m | 8.2m/s | -27.0°C | 59.3% | 352.3hPa | 0V | 00:00:00 | 00:00:00 | 00:00:00 | |
| SQ9EZE-13 | 2026-09-04 11:34:47 | 48.88945 | 20.56270 | 153° | 89km/h | 8341m | 6.8m/s | -26.3°C | 60.7% | 356.9hPa | 0V | 00:00:00 | 00:00:00 | 00:00:00 | |
| SQ9EZE-13 | 2026-09-04 11:34:32 | 48.89208 | 20.56001 | 134° | 91km/h | 8246m | 4.6m/s | -25.7°C | 66.2% | 361.5hPa | 0V | 00:00:00 | 00:00:00 | 00:00:00 | |
| SQ9EZE-13 | 2026-09-04 11:34:16 | 48.89500 | 20.55698 | 145° | 91km/h | 8137m | 7.9m/s | -25.1°C | 71.6% | 366.9hPa | 0V | 00:00:00 | 00:00:00 | 00:00:00 | |
| HA6NAB-11 | 2026-09-04 11:34:14 | 48.89540 | 20.55661 | 154° | 93km/h | 8122m | 5.8m/s | 0°C | 0% | 0hPa | 0V | 00:00:00 | 00:00:00 | 00:00:00 | |
| GYPAP8-17 | 2026-09-04 11:34:06 | 48.89695 | 20.55528 | 150° | 86km/h | 8076m | 6.6m/s | -24.6°C | 69.9% | 369.9hPa | 0V | 00:00:00 | 00:00:00 | 00:00:00 | |
| SQ9EZE-13 | 2026-09-04 11:34:01 | 48.89796 | 20.55437 | 145° | 97km/h | 8051m | 3.8m/s | -24.4°C | 70.3% | 371.3hPa | 0V | 00:00:00 | 00:00:00 | 00:00:00 | |
| SQ9EZE-13 | 2026-09-04 11:33:45 | 48.90081 | 20.55074 | 147° | 95km/h | 7956m | 7.8m/s | -23.7°C | 68.5% | 376.0hPa | 0V | 00:00:00 | 00:00:00 | 00:00:00 | |
| SQ9EZE-14 | 2026-09-04 11:33:31 | 48.90316 | 20.54819 | 139° | 78km/h | 7880m | 5.7m/s | -23.0°C | 66.7% | 380.1hPa | 0V | 00:00:00 | 00:00:00 | 00:00:00 | |
| SQ9EZE-13 | 2026-09-04 11:33:29 | 48.90346 | 20.54775 | 135° | 86km/h | 7871m | 4.8m/s | -22.9°C | 66.5% | 380.5hPa | 0V | 00:00:00 | 00:00:00 | 00:00:00 | |
| GYPAP8-17 | 2026-09-04 11:33:22 | 48.90471 | 20.54606 | 148° | 80km/h | 7833m | 8.2m/s | -22.6°C | 65.4% | 382.6hPa | 0V | 00:00:00 | 00:00:00 | 00:00:00 | |
| SQ9EZE-14 | 2026-09-04 11:33:16 | 48.90586 | 20.54507 | 146° | 99km/h | 7793m | 7.9m/s | -22.3°C | 64.8% | 384.6hPa | 0V | 00:00:00 | 00:00:00 | 00:00:00 | |
| SQ9EZE-13 | 2026-09-04 11:33:14 | 48.90640 | 20.54435 | 135° | 89km/h | 7771m | 6.4m/s | -22.1°C | 64.9% | 385.8hPa | 0V | 00:00:00 | 00:00:00 | 00:00:00 | |
| SQ9EZE-13 | 2026-09-04 11:32:57 | 48.90914 | 20.54071 | 144° | 95km/h | 7675m | 5.3m/s | -21.6°C | 69.4% | 390.8hPa | 0V | 00:00:00 | 00:00:00 | 00:00:00 | |
| SQ9EZE-13 | 2026-09-04 11:32:42 | 48.91191 | 20.53756 | 148° | 93km/h | 7595m | 7.6m/s | -21.0°C | 69.2% | 395.0hPa | 0V | 00:00:00 | 00:00:00 | 00:00:00 | |
| SQ9EZE-13 | 2026-09-04 11:32:27 | 48.91484 | 20.53436 | 154° | 97km/h | 7497m | 5.8m/s | -20.3°C | 67.8% | 400.2hPa | 0V | 00:00:00 | 00:00:00 | 00:00:00 | |
| OM5KV | 2026-09-04 11:32:18 | 48.91662 | 20.53227 | 132° | 91km/h | 7440m | 6.4m/s | -19.9°C | 67.9% | 403.2hPa | 0V | 00:00:00 | 00:00:00 | 00:00:00 | |
| SQ9EZE-13 | 2026-09-04 11:32:11 | 48.91777 | 20.53031 | 137° | 106km/h | 7399m | 8.5m/s | -19.7°C | 67.8% | 405.5hPa | 0V | 00:00:00 | 00:00:00 | 00:00:00 | |
| OM5KV | 2026-09-04 11:32:03 | 48.91939 | 20.52823 | 135° | 89km/h | 7347m | 5.6m/s | -19.6°C | 71.4% | 408.4hPa | 0V | 00:00:00 | 00:00:00 | 00:00:00 | |
| SQ9EZE-13 | 2026-09-04 11:31:55 | 48.92067 | 20.52633 | 144° | 95km/h | 7302m | 9.0m/s | -19.2°C | 68.8% | 410.7hPa | 0V | 00:00:00 | 00:00:00 | 00:00:00 | |
| SQ9EZE-13 | 2026-09-04 11:31:39 | 48.92362 | 20.52232 | 139° | 111km/h | 7207m | 6.9m/s | -18.3°C | 65.0% | 416.1hPa | 0V | 00:00:00 | 00:00:00 | 00:00:00 | |
| OE3JTB-15 | 2026-09-04 11:31:31 | 48.92520 | 20.52013 | 132° | 91km/h | 7148m | 5.9m/s | 0°C | 0% | 0hPa | 0V | 00:00:00 | 00:00:00 | 00:00:00 | |
| SQ9EZE-13 | 2026-09-04 11:31:24 | 48.92610 | 20.51839 | 127° | 95km/h | 7115m | 6.9m/s | -17.9°C | 77.4% | 421.2hPa | 0V | 00:00:00 | 00:00:00 | 00:00:00 | |
| OM5KV | 2026-09-04 11:31:17 | 48.92712 | 20.51678 | 138° | 88km/h | 7070m | 5.5m/s | -17.7°C | 80.4% | 423.7hPa | 0V | 00:00:00 | 00:00:00 | 00:00:00 | |
| OM5KV | 2026-09-04 11:31:12 | 48.92801 | 20.51555 | 136° | 93km/h | 7040m | 6.2m/s | -17.4°C | 79.5% | 425.5hPa | 0V | 00:00:00 | 00:00:00 | 00:00:00 | |
| SQ9EZE-13 | 2026-09-04 11:31:08 | 48.92862 | 20.51460 | 136° | 88km/h | 7017m | 3.2m/s | -17.3°C | 80.7% | 426.7hPa | 0V | 00:00:00 | 00:00:00 | 00:00:00 | |
| OM5KV | 2026-09-04 11:31:07 | 48.92878 | 20.51434 | 133° | 89km/h | 7013m | 5.3m/s | -17.3°C | 80.5% | 426.9hPa | 0V | 00:00:00 | 00:00:00 | 00:00:00 | |
| OM5KV | 2026-09-04 11:31:06 | 48.92893 | 20.51407 | 130° | 95km/h | 7008m | 5.2m/s | -17.3°C | 80.4% | 427.3hPa | 0V | 00:00:00 | 00:00:00 | 00:00:00 | |
| OE3JTB-15 | 2026-09-04 11:31:02 | 48.92971 | 20.51259 | 129° | 91km/h | 6984m | 5.5m/s | 0°C | 0% | 0hPa | 0V | 00:00:00 | 00:00:00 | 00:00:00 | |
| OM5KV | 2026-09-04 11:31:01 | 48.92971 | 20.51259 | 129° | 93km/h | 6984m | 5.6m/s | -17.1°C | 80.1% | 428.6hPa | 0V | 00:00:00 | 00:00:00 | 00:00:00 | |
| OM5KV | 2026-09-04 11:31:00 | 48.92986 | 20.51230 | 129° | 95km/h | 6979m | 6.0m/s | -17.1°C | 79.8% | 428.8hPa | 0V | 00:00:00 | 00:00:00 | 00:00:00 | |
| OM5KV | 2026-09-04 11:30:59 | 48.93000 | 20.51202 | 126° | 89km/h | 6972m | 7.1m/s | -17.1°C | 79.5% | 429.2hPa | 0V | 00:00:00 | 00:00:00 | 00:00:00 | |
| OM5KV | 2026-09-04 11:30:56 | 48.93042 | 20.51121 | 134° | 88km/h | 6949m | 8.4m/s | -17.1°C | 82.4% | 430.6hPa | 0V | 00:00:00 | 00:00:00 | 00:00:00 | |
| SQ9EZE-13 | 2026-09-04 11:30:53 | 48.93093 | 20.51055 | 146° | 88km/h | 6929m | 5.5m/s | -16.9°C | 81.9% | 431.7hPa | 0V | 00:00:00 | 00:00:00 | 00:00:00 | |
| SQ9EZE-14 | 2026-09-04 11:30:50 | 48.93150 | 20.50998 | 143° | 91km/h | 6916m | 4.4m/s | -16.8°C | 0% | 0hPa | 0V | 00:00:00 | 00:00:00 | 00:00:00 | |
| OM5KV | 2026-09-04 11:30:47 | 48.93198 | 20.50925 | 131° | 88km/h | 6899m | 7.6m/s | -16.7°C | 80.7% | 433.5hPa | 0V | 00:00:00 | 00:00:00 | 00:00:00 | |
| OM5KV | 2026-09-04 11:30:46 | 48.93212 | 20.50899 | 129° | 88km/h | 6892m | 5.4m/s | -16.6°C | 81.0% | 433.9hPa | 0V | 00:00:00 | 00:00:00 | 00:00:00 | |
| OM5KV | 2026-09-04 11:30:45 | 48.93226 | 20.50872 | 128° | 89km/h | 6887m | 5.1m/s | -16.6°C | 81.5% | 434.2hPa | 0V | 00:00:00 | 00:00:00 | 00:00:00 | |
| OM5KV | 2026-09-04 11:30:41 | 48.93288 | 20.50758 | 131° | 100km/h | 6871m | 5.8m/s | -16.5°C | 80.9% | 435.1hPa | 0V | 00:00:00 | 00:00:00 | 00:00:00 | |
| SQ9EZE-13 | 2026-09-04 11:30:37 | 48.93353 | 20.50648 | 134° | 88km/h | 6847m | 5.6m/s | -16.3°C | 79.5% | 436.6hPa | 0V | 00:00:00 | 00:00:00 | 00:00:00 | |
| OM5KV | 2026-09-04 11:30:36 | 48.93368 | 20.50624 | 135° | 82km/h | 6840m | 7.3m/s | -16.2°C | 78.6% | 437.0hPa | 0V | 00:00:00 | 00:00:00 | 00:00:00 | |
| OM5KV | 2026-09-04 11:30:30 | 48.93443 | 20.50494 | 133° | 71km/h | 6812m | 3.9m/s | -16.0°C | 77.4% | 438.7hPa | 0V | 00:00:00 | 00:00:00 | 00:00:00 | |
| OM5KV | 2026-09-04 11:30:25 | 48.93515 | 20.50404 | 142° | 71km/h | 6789m | 4.2m/s | -15.8°C | 75.6% | 440.1hPa | 0V | 00:00:00 | 00:00:00 | 00:00:00 | |
| SQ9EZE-13 | 2026-09-04 11:30:22 | 48.93554 | 20.50346 | 133° | 77km/h | 6774m | 7.2m/s | -15.6°C | 75.7% | 441.0hPa | 0V | 00:00:00 | 00:00:00 | 00:00:00 | |
| GYPAP8-17 | 2026-09-04 11:30:17 | 48.93661 | 20.50161 | 129° | 84km/h | 6730m | 8.2m/s | -15.4°C | 77.8% | 443.5hPa | 0V | 00:00:00 | 00:00:00 | 00:00:00 | |
| OM5KV | 2026-09-04 11:30:16 | 48.93661 | 20.50161 | 129° | 84km/h | 6730m | 8.2m/s | -15.4°C | 77.8% | 443.5hPa | 0V | 00:00:00 | 00:00:00 | 00:00:00 | |
| OM5KV | 2026-09-04 11:30:15 | 48.93661 | 20.50161 | 129° | 84km/h | 6730m | 8.2m/s | 0°C | 0% | 443.5hPa | 0V | 00:00:00 | 00:00:00 | 00:00:00 | |
| SQ9EZE-13 | 2026-09-04 11:30:07 | 48.93755 | 20.49997 | 141° | 78km/h | 6683m | 7.0m/s | -15.1°C | 78.0% | 446.2hPa | 0V | 00:00:00 | 00:00:00 | 00:00:00 | |
| OM5KV | 2026-09-04 11:30:04 | 48.93806 | 20.49928 | 139° | 95km/h | 6667m | 7.0m/s | -15.0°C | 81.9% | 447.2hPa | 0V | 00:00:00 | 00:00:00 | 00:00:00 | |
| OM5KV | 2026-09-04 11:30:00 | 48.93865 | 20.49840 | 132° | 69km/h | 6643m | 5.0m/s | 0°C | 0% | 448.7hPa | 0V | 00:00:00 | 00:00:00 | 00:00:00 | |
| OM5KV | 2026-09-04 11:29:54 | 48.93938 | 20.49701 | 130° | 88km/h | 6613m | 4.8m/s | 0°C | 0% | 450.5hPa | 0V | 00:00:00 | 00:00:00 | 00:00:00 | |
| OM5KV | 2026-09-04 11:29:53 | 48.93951 | 20.49675 | 127° | 82km/h | 6607m | 7.4m/s | -14.6°C | 79.4% | 450.8hPa | 0V | 00:00:00 | 00:00:00 | 00:00:00 | |
| OM5KV | 2026-09-04 11:29:52 | 48.93962 | 20.49651 | 128° | 75km/h | 6599m | 8.5m/s | -14.6°C | 78.6% | 451.2hPa | 0V | 00:00:00 | 00:00:00 | 00:00:00 | |
| SQ9EZE-13 | 2026-09-04 11:29:51 | 48.93973 | 20.49629 | 129° | 69km/h | 6592m | 6.2m/s | -14.5°C | 78.5% | 451.8hPa | 0V | 00:00:00 | 00:00:00 | 00:00:00 | |
| OM5KV | 2026-09-04 11:29:47 | 48.94021 | 20.49545 | 135° | 88km/h | 6567m | 5.1m/s | -14.3°C | 78.2% | 453.4hPa | 0V | 00:00:00 | 00:00:00 | 00:00:00 | |
| OM5KV | 2026-09-04 11:29:46 | 48.94038 | 20.49520 | 136° | 95km/h | 6561m | 6.2m/s | -14.3°C | 77.7% | 453.6hPa | 0V | 00:00:00 | 00:00:00 | 00:00:00 | |
| OM5KV | 2026-09-04 11:29:42 | 48.94101 | 20.49409 | 124° | 91km/h | 6543m | 3.7m/s | 0°C | 0% | 454.7hPa | 0V | 00:00:00 | 00:00:00 | 00:00:00 | |
| OM5KV | 2026-09-04 11:29:41 | 48.94114 | 20.49381 | 124° | 86km/h | 6538m | 5.8m/s | -14.0°C | 77.0% | 454.9hPa | 0V | 00:00:00 | 00:00:00 | 00:00:00 | |
| OM5KV | 2026-09-04 11:29:40 | 48.94125 | 20.49355 | 126° | 77km/h | 6532m | 5.1m/s | -14.0°C | 77.1% | 455.3hPa | 0V | 00:00:00 | 00:00:00 | 00:00:00 | |
| OM5KV | 2026-09-04 11:29:35 | 48.94196 | 20.49259 | 147° | 82km/h | 6502m | 5.6m/s | -13.8°C | 0% | 457.0hPa | 0V | 00:00:00 | 00:00:00 | 00:00:00 | |
| OM5KV | 2026-09-04 11:29:34 | 48.94213 | 20.49241 | 147° | 84km/h | 6497m | 4.4m/s | -13.7°C | 77.3% | 457.3hPa | 0V | 00:00:00 | 00:00:00 | 00:00:00 | |
| OM5KV | 2026-09-04 11:29:31 | 48.94265 | 20.49175 | 136° | 91km/h | 6484m | 5.2m/s | 0°C | 0% | 458.0hPa | 0V | 00:00:00 | 00:00:00 | 00:00:00 | |
| GYPAP8-17 | 2026-09-04 11:29:30 | 48.94282 | 20.49150 | 136° | 97km/h | 6478m | 8.2m/s | -13.7°C | 77.1% | 458.5hPa | 0V | 00:00:00 | 00:00:00 | 00:00:00 | |
| OM5KV | 2026-09-04 11:29:28 | 48.94316 | 20.49093 | 132° | 97km/h | 6462m | 7.5m/s | -13.6°C | 0% | 459.4hPa | 0V | 00:00:00 | 00:00:00 | 00:00:00 | |
| OM5KV | 2026-09-04 11:29:24 | 48.94380 | 20.48973 | 132° | 64km/h | 6429m | 7.3m/s | -13.5°C | 83.3% | 461.5hPa | 0V | 00:00:00 | 00:00:00 | 00:00:00 | |
| OM5KV | 2026-09-04 11:29:20 | 48.94416 | 20.48914 | 135° | 82km/h | 6414m | 5.4m/s | 0°C | 0% | 462.4hPa | 0V | 00:00:00 | 00:00:00 | 00:00:00 | |
| OM5KV | 2026-09-04 11:29:16 | 48.94481 | 20.48815 | 138° | 91km/h | 6391m | 8.1m/s | -13.2°C | 0% | 0hPa | 0V | 00:00:00 | 00:00:00 | 00:00:00 | |
| OM5KV | 2026-09-04 11:29:15 | 48.94498 | 20.48793 | 141° | 84km/h | 6384m | 5.7m/s | 0°C | 0% | 0hPa | 0V | 00:00:00 | 00:00:00 | 00:00:00 | |
| OM5KV | 2026-09-04 11:29:11 | 48.94556 | 20.48718 | 136° | 75km/h | 6361m | 5.9m/s | -13.1°C | 86.1% | 465.7hPa | 0V | 00:00:00 | 00:00:00 | 00:00:00 | |
| OM5KV | 2026-09-04 11:29:05 | 48.94654 | 20.48573 | 135° | 95km/h | 6329m | 4.4m/s | 0°C | 0% | 0hPa | 0V | 00:00:00 | 00:00:00 | 00:00:00 | |
| SQ9EZE-13 | 2026-09-04 11:29:04 | 48.94670 | 20.48546 | 133° | 95km/h | 6325m | 3.4m/s | -12.8°C | 84.4% | 467.9hPa | 0V | 00:00:00 | 00:00:00 | 00:00:00 | |
| OE3JTB-15 | 2026-09-04 11:28:52 | 48.94851 | 20.48198 | 137° | 80km/h | 6257m | 3.1m/s | 0°C | 0% | 0hPa | 0V | 00:00:00 | 00:41:55 | 00:00:00 | |
| OM5KV | 2026-09-04 11:28:49 | 48.94887 | 20.48152 | 142° | 93km/h | 6248m | 4.9m/s | -12.5°C | 0% | 472.7hPa | 0V | 00:00:00 | 00:00:00 | 00:00:00 | |
| SQ9EZE-13 | 2026-09-04 11:28:48 | 48.94906 | 20.48130 | 144° | 95km/h | 6243m | 5.5m/s | -12.5°C | 87.0% | 472.9hPa | 0V | 00:00:00 | 00:00:00 | 00:00:00 | |
| GYPAP8-17 | 2026-09-04 11:28:46 | 48.94942 | 20.48084 | 138° | 91km/h | 6235m | 3.9m/s | -12.5°C | 87.3% | 473.6hPa | 0V | 00:00:00 | 00:00:00 | 00:00:00 | |
| OM5KV | 2026-09-04 11:28:42 | 48.95002 | 20.47984 | 127° | 84km/h | 6211m | 6.4m/s | 0°C | 0% | 0hPa | 0V | 00:00:00 | 00:00:00 | 00:00:00 | |
| SQ9EZE-14 | 2026-09-04 11:28:39 | 48.95036 | 20.47909 | 126° | 73km/h | 6196m | 4.1m/s | -12.2°C | 0% | 0hPa | 0V | 00:00:00 | 00:00:00 | 00:00:00 | |
| OM5KV | 2026-09-04 11:28:35 | 48.95088 | 20.47824 | 141° | 75km/h | 6179m | 5.7m/s | 0°C | 0% | 0hPa | 0V | 00:00:00 | 00:00:00 | 00:00:00 | |
| SQ9EZE-13 | 2026-09-04 11:28:32 | 48.95129 | 20.47776 | 142° | 58km/h | 6165m | 3.2m/s | -12.0°C | 87.3% | 477.9hPa | 0V | 00:00:00 | 00:00:00 | 00:00:00 | |
| OM5KV | 2026-09-04 11:28:30 | 48.95150 | 20.47743 | 130° | 64km/h | 6158m | 3.4m/s | 0°C | 0% | 478.2hPa | 0V | 00:00:00 | 00:00:00 | 00:00:00 | |
| OM5KV | 2026-09-04 11:28:24 | 48.95232 | 20.47612 | 138° | 88km/h | 6122m | 4.6m/s | 0°C | 0% | 0hPa | 0V | 00:00:00 | 00:00:00 | 00:00:00 | |
| OE3JTB-15 | 2026-09-04 11:28:23 | 48.95265 | 20.47574 | 145° | 71km/h | 6115m | 3.8m/s | 0°C | 0% | 0hPa | 0V | 00:00:00 | 00:00:00 | 00:00:00 | |
| OM5KV | 2026-09-04 11:28:19 | 48.95309 | 20.47527 | 147° | 64km/h | 6104m | 4.6m/s | 0°C | 0% | 0hPa | 0V | 00:00:00 | 00:00:00 | 00:00:00 | |
| SQ9EZE-13 | 2026-09-04 11:28:17 | 48.95335 | 20.47499 | 141° | 60km/h | 6092m | 6.6m/s | -11.4°C | 86.4% | 482.5hPa | 0V | 00:00:00 | 00:00:00 | 00:00:00 | |
| GYPAP8-17 | 2026-09-04 11:28:02 | 48.95539 | 20.47181 | 131° | 77km/h | 6008m | 6.1m/s | -10.8°C | 85.4% | 487.7hPa | 0V | 00:00:00 | 00:00:00 | 00:00:00 | |
| SQ9EZE-13 | 2026-09-04 11:27:46 | 48.95740 | 20.46838 | 144° | 88km/h | 5929m | 5.0m/s | -10.4°C | 87.2% | 492.5hPa | 0V | 00:00:00 | 00:00:00 | 00:00:00 | |
| SQ9EZE-13 | 2026-09-04 11:27:31 | 48.95975 | 20.46544 | 150° | 75km/h | 5863m | 5.5m/s | -10.2°C | 87.7% | 496.8hPa | 0V | 00:00:00 | 00:00:00 | 00:00:00 | |
| GYPAP8-17 | 2026-09-04 11:27:19 | 48.96177 | 20.46308 | 143° | 82km/h | 5800m | 6.2m/s | -10.1°C | 88.3% | 500.8hPa | 0V | 00:00:00 | 00:00:00 | 00:00:00 | |
| SQ9EZE-13 | 2026-09-04 11:27:15 | 48.96228 | 20.46247 | 140° | 86km/h | 5788m | 2.6m/s | -10.2°C | 90.6% | 501.6hPa | 0V | 00:00:00 | 00:00:00 | 00:00:00 | |
| SQ9EZE-13 | 2026-09-04 11:26:59 | 48.96452 | 20.45953 | 137° | 88km/h | 5713m | 4.5m/s | -9.8°C | 89.4% | 506.5hPa | 0V | 00:00:00 | 00:00:00 | 00:00:00 | |
| SQ9EZE-13 | 2026-09-04 11:26:43 | 48.96693 | 20.45631 | 139° | 77km/h | 5637m | 4.1m/s | -10.9°C | 98.5% | 511.5hPa | 0V | 00:00:00 | 00:00:00 | 00:00:00 | |
| GYPAP8-17 | 2026-09-04 11:26:34 | 48.96819 | 20.45470 | 139° | 73km/h | 5596m | 6.2m/s | -10.6°C | 98.3% | 514.3hPa | 0V | 00:00:00 | 00:00:00 | 00:00:00 | |
| SQ9EZE-13 | 2026-09-04 11:26:28 | 48.96892 | 20.45349 | 145° | 62km/h | 5562m | 4.8m/s | -10.4°C | 97.9% | 516.5hPa | 0V | 00:00:00 | 00:00:00 | 00:00:00 | |
| SQ9EZE-14 | 2026-09-04 11:26:14 | 48.97088 | 20.45097 | 133° | 60km/h | 5485m | 7.1m/s | -10.2°C | 0% | 0hPa | 0V | 00:00:00 | 00:00:00 | 00:00:00 | |
| SQ9EZE-13 | 2026-09-04 11:26:13 | 48.97099 | 20.45078 | 130° | 66km/h | 5479m | 6.0m/s | -10.1°C | 85.7% | 522.2hPa | 0V | 00:00:00 | 00:00:00 | 00:00:00 | |
| SQ9EZE-13 | 2026-09-04 11:25:58 | 48.97343 | 20.44799 | 145° | 97km/h | 5393m | 5.0m/s | -9.6°C | 68.5% | 528.0hPa | 0V | 00:00:00 | 00:00:00 | 00:00:00 | |
| GYPAP8-17 | 2026-09-04 11:25:50 | 48.97459 | 20.44625 | 134° | 77km/h | 5359m | 4.3m/s | -9.5°C | 0% | 0hPa | 0V | 00:00:00 | 00:00:00 | 00:00:00 | |
| SQ9EZE-13 | 2026-09-04 11:25:42 | 48.97596 | 20.44473 | 158° | 78km/h | 5314m | 5.8m/s | -9.1°C | 0% | 0hPa | 0V | 00:00:00 | 00:00:00 | 00:00:00 | |
| SQ9EZE-13 | 2026-09-04 11:25:27 | 48.97845 | 20.44166 | 149° | 93km/h | 5237m | 4.4m/s | -8.7°C | 0% | 0hPa | 0V | 00:00:00 | 00:00:00 | 00:00:00 | |
| SQ9EZE-13 | 2026-09-04 11:25:12 | 48.98112 | 20.43894 | 145° | 91km/h | 5160m | 4.7m/s | 0°C | 0% | 0hPa | 0V | 00:00:00 | 00:00:00 | 00:00:00 | |
| GYPAP8-17 | 2026-09-04 11:25:05 | 48.98236 | 20.43782 | 154° | 64km/h | 5122m | 5.5m/s | -8.0°C | 0% | 0hPa | 0V | 00:00:00 | 00:00:00 | 00:00:00 | |
| SQ9EZE-13 | 2026-09-04 11:24:56 | 48.98392 | 20.43669 | 154° | 88km/h | 5078m | 7.0m/s | 0°C | 0% | 0hPa | 0V | 00:00:00 | 00:00:00 | 00:00:00 | |
| SQ9EZE-13 | 2026-09-04 11:24:40 | 48.98630 | 20.43381 | 149° | 78km/h | 4986m | 5.3m/s | 0°C | 0% | 0hPa | 0V | 00:00:00 | 00:00:00 | 00:00:00 | |
| GYPAP8-17 | 2026-09-04 11:24:20 | 48.98952 | 20.42985 | 133° | 88km/h | 4867m | 3.4m/s | 0°C | 0% | 0hPa | 0V | 00:00:00 | 00:00:00 | 00:00:00 | |
| GYPAP8-17 | 2026-09-04 11:23:35 | 48.99681 | 20.42025 | 130° | 93km/h | 4586m | 5.3m/s | 0°C | 0% | 0hPa | 0V | 00:00:00 | 00:00:00 | 00:00:00 | |
| GYPAP8-17 | 2026-09-04 11:22:50 | 49.00366 | 20.41096 | 137° | 75km/h | 4305m | 6.9m/s | 0°C | 0% | 0hPa | 0V | 00:00:00 | 00:00:00 | 00:00:00 | |
| GYPAP8-17 | 2026-09-04 11:22:05 | 49.00877 | 20.40217 | 122° | 64km/h | 4015m | 6.1m/s | 0°C | 0% | 0hPa | 0V | 00:00:00 | 00:00:00 | 00:00:00 | |
| GYPAP8-17 | 2026-09-04 11:21:30 | 49.01244 | 20.39540 | 139° | 53km/h | 3799m | 6.5m/s | 0°C | 0% | 0hPa | 0V | 00:00:00 | 00:00:00 | 00:00:00 | |
| GYPAP8-17 | 2026-09-04 11:21:10 | 49.01473 | 20.39180 | 145° | 62km/h | 3682m | 5.5m/s | 0°C | 0% | 0hPa | 0V | 00:00:00 | 00:00:00 | 00:00:00 | |
| GYPAP8-17 | 2026-09-04 11:20:26 | 49.01911 | 20.38508 | 138° | 53km/h | 3381m | 6.3m/s | 0°C | 0% | 0hPa | 0V | 00:00:00 | 00:00:00 | 00:00:00 |